Summary for KCOLONGM6

Ute Creek Golf Course, Longmont, CO 80504
Join the PWSweather.com Network
View data in metric units
Latest Conditions
Updated 8:08:56 PM MDT Friday, Aug 29, 2014
Data Currently Today's Max Today's Min Today's Average
Temperature 62.2°F16.8°C 81.1°F27.3°C 46.2°F7.9°C 60.0°F15.6°C
Dew Point 53.1°F11.7°C 57.4°F14.1°C 44.4°F6.9°C 50.2°F10.1°C
Winds 2.0 mph WSW3.2 kmh WSW 10.1 mph NNW16.3 kmh NNW CalmCalm 1.2 mph1.9 kmh
Wind Gusts 2.0 mph3.2 kmh 16.1 mph25.9 kmh -- 2.2 mph3.5 kmh
Humidity 72% 96% 33% 74%
Pressure 29.89 in1012.2 mb 29.90 in1012.5 mb 29.85 in1010.8 mb 29.88 in1011.9 mb
Precipitation 0.02 in0.5 mm - - 1.16 in29.5 mm
Trends
 
Station Profile
Ute Creek Golf CourseLongmont, CO 80504

Lat: 40.194, Lon: -105.067
Elevation: 5014
Station Type: Davis Vantage Vue

Detailed Summary for Fri, Aug 29, 2014
Hour (MDT) Temperature Dew Point Humidity Winds Wind Gusts Pressure Precip Precip Rate Daily Precip Total
08:08 PM 62.2°F16.8°C 53.1°F11.7°C 72% 2.0 mph WSW3.2 kmh WSW 2.0 mph3.2 kmh 29.89 in1012.2 mb 0.00 in0.0 mm 0.00 in/hr0.0 mm/hr 0.02 in0.5 mm
08:07 PM 62.2°F16.8°C 53.1°F11.7°C 72% 2.0 mph W3.2 kmh W 2.0 mph3.2 kmh 29.89 in1012.2 mb 0.00 in0.0 mm 0.00 in/hr0.0 mm/hr 0.02 in0.5 mm
08:06 PM 62.2°F16.8°C 53.1°F11.7°C 72% 2.0 mph WSW3.2 kmh WSW 2.0 mph3.2 kmh 29.89 in1012.2 mb 0.00 in0.0 mm 0.00 in/hr0.0 mm/hr 0.02 in0.5 mm
08:05 PM 62.2°F16.8°C 53.1°F11.7°C 72% 2.0 mph W3.2 kmh W 2.9 mph4.7 kmh 29.89 in1012.2 mb 0.00 in0.0 mm 0.00 in/hr0.0 mm/hr 0.02 in0.5 mm
08:04 PM 62.2°F16.8°C 52.7°F11.5°C 71% 2.0 mph W3.2 kmh W 2.9 mph4.7 kmh 29.89 in1012.2 mb 0.00 in0.0 mm 0.00 in/hr0.0 mm/hr 0.02 in0.5 mm
08:03 PM 62.2°F16.8°C 52.7°F11.5°C 71% 2.0 mph WNW3.2 kmh WNW 2.9 mph4.7 kmh 29.89 in1012.2 mb 0.00 in0.0 mm 0.00 in/hr0.0 mm/hr 0.02 in0.5 mm
08:02 PM 62.2°F16.8°C 52.3°F11.3°C 70% 2.0 mph W3.2 kmh W 4.0 mph6.4 kmh 29.89 in1012.2 mb 0.00 in0.0 mm 0.00 in/hr0.0 mm/hr 0.02 in0.5 mm
08:01 PM 62.2°F16.8°C 52.3°F11.3°C 70% 0.9 mph WNW1.4 kmh WNW 2.9 mph4.7 kmh 29.89 in1012.2 mb 0.00 in0.0 mm 0.00 in/hr0.0 mm/hr 0.02 in0.5 mm
08:00 PM 62.2°F16.8°C 52.3°F11.3°C 70% 0.9 mph W1.4 kmh W 2.9 mph4.7 kmh 29.89 in1012.2 mb 0.00 in0.0 mm 0.00 in/hr0.0 mm/hr 0.02 in0.5 mm
07:59 PM 62.2°F16.8°C 52.3°F11.3°C 70% 0.9 mph W1.4 kmh W 4.0 mph6.4 kmh 29.88 in1011.9 mb 0.00 in0.0 mm 0.00 in/hr0.0 mm/hr 0.02 in0.5 mm
07:58 PM 62.2°F16.8°C 52.3°F11.3°C 70% 0.9 mph W1.4 kmh W 4.0 mph6.4 kmh 29.88 in1011.9 mb 0.00 in0.0 mm 0.00 in/hr0.0 mm/hr 0.02 in0.5 mm
07:57 PM 62.4°F16.9°C 52.5°F11.4°C 70% Calm Calm 2.9 mph4.7 kmh 29.88 in1011.9 mb 0.00 in0.0 mm 0.00 in/hr0.0 mm/hr 0.02 in0.5 mm
07:56 PM 62.6°F17.0°C 52.7°F11.5°C 70% Calm Calm 2.0 mph3.2 kmh 29.88 in1011.9 mb 0.00 in0.0 mm 0.00 in/hr0.0 mm/hr 0.02 in0.5 mm
07:55 PM 62.8°F17.1°C 52.5°F11.4°C 69% Calm Calm 0.9 mph1.4 kmh 29.88 in1011.9 mb 0.00 in0.0 mm 0.00 in/hr0.0 mm/hr 0.02 in0.5 mm
07:54 PM 63.0°F17.2°C 52.7°F11.5°C 69% Calm Calm 0.9 mph1.4 kmh 29.88 in1011.9 mb 0.00 in0.0 mm 0.00 in/hr0.0 mm/hr 0.02 in0.5 mm
07:53 PM 63.0°F17.2°C 52.7°F11.5°C 69% 0.9 mph SSE1.4 kmh SSE -- 29.88 in1011.9 mb 0.00 in0.0 mm 0.00 in/hr0.0 mm/hr 0.02 in0.5 mm
07:52 PM 63.1°F17.3°C 52.9°F11.6°C 69% 0.9 mph SSE1.4 kmh SSE -- 29.88 in1011.9 mb 0.00 in0.0 mm 0.00 in/hr0.0 mm/hr 0.02 in0.5 mm
07:51 PM 63.1°F17.3°C 52.9°F11.6°C 69% 0.9 mph SSE1.4 kmh SSE 0.9 mph1.4 kmh 29.88 in1011.9 mb 0.00 in0.0 mm 0.00 in/hr0.0 mm/hr 0.02 in0.5 mm
07:50 PM 63.3°F17.4°C 53.1°F11.7°C 69% 0.9 mph SSE1.4 kmh SSE -- 29.88 in1011.9 mb 0.00 in0.0 mm 0.00 in/hr0.0 mm/hr 0.02 in0.5 mm
07:48 PM 63.3°F17.4°C 53.1°F11.7°C 69% 0.9 mph SSE1.4 kmh SSE 0.9 mph1.4 kmh 29.88 in1011.9 mb 0.00 in0.0 mm 0.00 in/hr0.0 mm/hr 0.02 in0.5 mm
07:47 PM 63.3°F17.4°C 53.1°F11.7°C 69% 0.9 mph SE1.4 kmh SE 2.0 mph3.2 kmh 29.88 in1011.9 mb 0.00 in0.0 mm 0.00 in/hr0.0 mm/hr 0.02 in0.5 mm
07:46 PM 63.3°F17.4°C 53.1°F11.7°C 69% 0.9 mph SE1.4 kmh SE 2.0 mph3.2 kmh 29.88 in1011.9 mb 0.00 in0.0 mm 0.00 in/hr0.0 mm/hr 0.02 in0.5 mm
07:45 PM 63.3°F17.4°C 53.1°F11.7°C 69% 0.9 mph S1.4 kmh S 2.0 mph3.2 kmh 29.88 in1011.9 mb 0.00 in0.0 mm 0.00 in/hr0.0 mm/hr 0.02 in0.5 mm
07:44 PM 63.3°F17.4°C 53.1°F11.7°C 69% 0.9 mph SE1.4 kmh SE 2.0 mph3.2 kmh 29.88 in1011.9 mb 0.00 in0.0 mm 0.00 in/hr0.0 mm/hr 0.02 in0.5 mm
07:43 PM 63.1°F17.3°C 52.9°F11.6°C 69% 0.9 mph SE1.4 kmh SE 2.9 mph4.7 kmh 29.88 in1011.9 mb 0.00 in0.0 mm 0.00 in/hr0.0 mm/hr 0.02 in0.5 mm
07:42 PM 63.1°F17.3°C 53.2°F11.8°C 70% 0.9 mph SE1.4 kmh SE 2.0 mph3.2 kmh 29.88 in1011.9 mb 0.00 in0.0 mm 0.00 in/hr0.0 mm/hr 0.02 in0.5 mm
07:41 PM 63.1°F17.3°C 53.6°F12.0°C 71% 0.9 mph SSE1.4 kmh SSE 2.0 mph3.2 kmh 29.88 in1011.9 mb 0.00 in0.0 mm 0.00 in/hr0.0 mm/hr 0.02 in0.5 mm
07:40 PM 63.1°F17.3°C 53.6°F12.0°C 71% 0.9 mph SSW1.4 kmh SSW 3.0 mph4.8 kmh 29.88 in1011.9 mb 0.00 in0.0 mm 0.00 in/hr0.0 mm/hr 0.02 in0.5 mm
07:39 PM 63.1°F17.3°C 53.6°F12.0°C 71% 0.9 mph SE1.4 kmh SE 2.0 mph3.2 kmh 29.88 in1011.9 mb 0.00 in0.0 mm 0.00 in/hr0.0 mm/hr 0.02 in0.5 mm
07:38 PM 63.1°F17.3°C 53.6°F12.0°C 71% 0.9 mph SE1.4 kmh SE 2.0 mph3.2 kmh 29.88 in1011.9 mb 0.00 in0.0 mm 0.00 in/hr0.0 mm/hr 0.02 in0.5 mm
07:37 PM 63.3°F17.4°C 53.8°F12.1°C 71% 0.9 mph S1.4 kmh S 2.0 mph3.2 kmh 29.88 in1011.9 mb 0.00 in0.0 mm 0.00 in/hr0.0 mm/hr 0.02 in0.5 mm
07:36 PM 63.3°F17.4°C 53.8°F12.1°C 71% 0.9 mph SE1.4 kmh SE 0.9 mph1.4 kmh 29.88 in1011.9 mb 0.00 in0.0 mm 0.00 in/hr0.0 mm/hr 0.02 in0.5 mm
07:35 PM 63.3°F17.4°C 53.4°F11.9°C 70% 0.9 mph SE1.4 kmh SE 0.9 mph1.4 kmh 29.88 in1011.9 mb 0.00 in0.0 mm 0.00 in/hr0.0 mm/hr 0.02 in0.5 mm
07:34 PM 63.3°F17.4°C 53.4°F11.9°C 70% 0.9 mph SE1.4 kmh SE 0.9 mph1.4 kmh 29.88 in1011.9 mb 0.00 in0.0 mm 0.00 in/hr0.0 mm/hr 0.02 in0.5 mm
07:33 PM 63.3°F17.4°C 53.4°F11.9°C 70% 0.9 mph SSE1.4 kmh SSE 0.9 mph1.4 kmh 29.88 in1011.9 mb 0.00 in0.0 mm 0.00 in/hr0.0 mm/hr 0.02 in0.5 mm
07:32 PM 63.5°F17.5°C 53.1°F11.7°C 69% 0.9 mph S1.4 kmh S 0.9 mph1.4 kmh 29.88 in1011.9 mb 0.00 in0.0 mm 0.00 in/hr0.0 mm/hr 0.02 in0.5 mm
07:31 PM 63.5°F17.5°C 52.7°F11.5°C 68% 0.9 mph SSE1.4 kmh SSE 2.0 mph3.2 kmh 29.88 in1011.9 mb 0.00 in0.0 mm 0.00 in/hr0.0 mm/hr 0.02 in0.5 mm
07:30 PM 63.5°F17.5°C 52.7°F11.5°C 68% 0.9 mph SE1.4 kmh SE 2.0 mph3.2 kmh 29.88 in1011.9 mb 0.00 in0.0 mm 0.00 in/hr0.0 mm/hr 0.02 in0.5 mm
07:29 PM 63.5°F17.5°C 52.7°F11.5°C 68% 0.9 mph SE1.4 kmh SE 2.0 mph3.2 kmh 29.88 in1011.9 mb 0.00 in0.0 mm 0.00 in/hr0.0 mm/hr 0.02 in0.5 mm
07:28 PM 63.7°F17.6°C 52.9°F11.6°C 68% 0.9 mph SE1.4 kmh SE 0.9 mph1.4 kmh 29.88 in1011.9 mb 0.00 in0.0 mm 0.00 in/hr0.0 mm/hr 0.02 in0.5 mm
07:26 PM 63.7°F17.6°C 52.9°F11.6°C 68% 0.9 mph SE1.4 kmh SE 3.0 mph4.8 kmh 29.88 in1011.9 mb 0.00 in0.0 mm 0.00 in/hr0.0 mm/hr 0.02 in0.5 mm
07:25 PM 63.7°F17.6°C 53.2°F11.8°C 69% 0.9 mph SE1.4 kmh SE 3.0 mph4.8 kmh 29.88 in1011.9 mb 0.00 in0.0 mm 0.00 in/hr0.0 mm/hr 0.02 in0.5 mm
07:24 PM 63.7°F17.6°C 53.2°F11.8°C 69% 0.9 mph SE1.4 kmh SE 2.0 mph3.2 kmh 29.88 in1011.9 mb 0.00 in0.0 mm 0.00 in/hr0.0 mm/hr 0.02 in0.5 mm
07:23 PM 63.7°F17.6°C 53.2°F11.8°C 69% 0.9 mph SE1.4 kmh SE 2.0 mph3.2 kmh 29.88 in1011.9 mb 0.00 in0.0 mm 0.00 in/hr0.0 mm/hr 0.02 in0.5 mm
07:22 PM 63.7°F17.6°C 53.2°F11.8°C 69% 2.0 mph SE3.2 kmh SE 2.0 mph3.2 kmh 29.88 in1011.9 mb 0.00 in0.0 mm 0.00 in/hr0.0 mm/hr 0.02 in0.5 mm
07:21 PM 63.7°F17.6°C 53.8°F12.1°C 70% 2.0 mph SSE3.2 kmh SSE 2.0 mph3.2 kmh 29.88 in1011.9 mb 0.00 in0.0 mm 0.00 in/hr0.0 mm/hr 0.02 in0.5 mm
07:20 PM 63.9°F17.7°C 54.0°F12.2°C 70% 2.0 mph SE3.2 kmh SE 2.0 mph3.2 kmh 29.88 in1011.9 mb 0.00 in0.0 mm 0.00 in/hr0.0 mm/hr 0.02 in0.5 mm
07:19 PM 63.9°F17.7°C 54.0°F12.2°C 70% 2.0 mph ESE3.2 kmh ESE 2.0 mph3.2 kmh 29.88 in1011.9 mb 0.00 in0.0 mm 0.00 in/hr0.0 mm/hr 0.02 in0.5 mm
07:18 PM 63.9°F17.7°C 54.0°F12.2°C 70% 2.0 mph SE3.2 kmh SE 2.0 mph3.2 kmh 29.88 in1011.9 mb 0.00 in0.0 mm 0.00 in/hr0.0 mm/hr 0.02 in0.5 mm
07:17 PM 63.9°F17.7°C 53.4°F11.9°C 69% 2.0 mph SE3.2 kmh SE 2.0 mph3.2 kmh 29.88 in1011.9 mb 0.00 in0.0 mm 0.00 in/hr0.0 mm/hr 0.02 in0.5 mm
07:16 PM 64.0°F17.8°C 53.6°F12.0°C 69% 2.0 mph SE3.2 kmh SE 4.9 mph7.9 kmh 29.88 in1011.9 mb 0.00 in0.0 mm 0.00 in/hr0.0 mm/hr 0.02 in0.5 mm
07:15 PM 64.0°F17.8°C 54.1°F12.3°C 70% 2.9 mph SE4.7 kmh SE 2.9 mph4.7 kmh 29.88 in1011.9 mb 0.00 in0.0 mm 0.00 in/hr0.0 mm/hr 0.02 in0.5 mm
07:14 PM 64.0°F17.8°C 53.6°F12.0°C 69% 2.9 mph SE4.7 kmh SE 4.9 mph7.9 kmh 29.88 in1011.9 mb 0.00 in0.0 mm 0.00 in/hr0.0 mm/hr 0.02 in0.5 mm
07:13 PM 64.0°F17.8°C 53.6°F12.0°C 69% 2.0 mph SSW3.2 kmh SSW 6.9 mph11.1 kmh 29.88 in1011.9 mb 0.00 in0.0 mm 0.00 in/hr0.0 mm/hr 0.02 in0.5 mm
07:12 PM 64.0°F17.8°C 53.6°F12.0°C 69% 2.0 mph ESE3.2 kmh ESE 7.0 mph11.3 kmh 29.88 in1011.9 mb 0.00 in0.0 mm 0.00 in/hr0.0 mm/hr 0.02 in0.5 mm
07:11 PM 64.0°F17.8°C 53.6°F12.0°C 69% 2.0 mph ESE3.2 kmh ESE 2.9 mph4.7 kmh 29.88 in1011.9 mb 0.00 in0.0 mm 0.00 in/hr0.0 mm/hr 0.02 in0.5 mm
07:10 PM 64.0°F17.8°C 53.6°F12.0°C 69% 2.0 mph SE3.2 kmh SE 4.9 mph7.9 kmh 29.88 in1011.9 mb 0.00 in0.0 mm 0.00 in/hr0.0 mm/hr 0.02 in0.5 mm
07:09 PM 64.0°F17.8°C 53.6°F12.0°C 69% 2.0 mph SE3.2 kmh SE 4.9 mph7.9 kmh 29.88 in1011.9 mb 0.00 in0.0 mm 0.00 in/hr0.0 mm/hr 0.02 in0.5 mm
07:08 PM 64.0°F17.8°C 53.6°F12.0°C 69% 0.9 mph SE1.4 kmh SE 4.9 mph7.9 kmh 29.88 in1011.9 mb 0.00 in0.0 mm 0.00 in/hr0.0 mm/hr 0.02 in0.5 mm
07:07 PM 64.0°F17.8°C 53.6°F12.0°C 69% 0.9 mph SE1.4 kmh SE 5.0 mph8.0 kmh 29.88 in1011.9 mb 0.00 in0.0 mm 0.00 in/hr0.0 mm/hr 0.02 in0.5 mm
07:05 PM 64.0°F17.8°C 54.1°F12.3°C 70% 0.9 mph E1.4 kmh E 5.0 mph8.0 kmh 29.88 in1011.9 mb 0.00 in0.0 mm 0.00 in/hr0.0 mm/hr 0.02 in0.5 mm
07:04 PM 64.2°F17.9°C 53.8°F12.1°C 69% 0.9 mph SE1.4 kmh SE 2.0 mph3.2 kmh 29.88 in1011.9 mb 0.00 in0.0 mm 0.00 in/hr0.0 mm/hr 0.02 in0.5 mm
07:03 PM 64.2°F17.9°C 53.8°F12.1°C 69% 0.9 mph ESE1.4 kmh ESE 2.0 mph3.2 kmh 29.88 in1011.9 mb 0.00 in0.0 mm 0.00 in/hr0.0 mm/hr 0.02 in0.5 mm
07:02 PM 64.2°F17.9°C 53.4°F11.9°C 68% 0.9 mph ESE1.4 kmh ESE 2.0 mph3.2 kmh 29.88 in1011.9 mb 0.00 in0.0 mm 0.00 in/hr0.0 mm/hr 0.02 in0.5 mm
07:01 PM 64.4°F18.0°C 53.6°F12.0°C 68% 0.9 mph E1.4 kmh E 2.0 mph3.2 kmh 29.88 in1011.9 mb 0.00 in0.0 mm 0.00 in/hr0.0 mm/hr 0.02 in0.5 mm
07:00 PM 64.6°F18.1°C 53.8°F12.1°C 68% 0.9 mph SE1.4 kmh SE 3.0 mph4.8 kmh 29.88 in1011.9 mb 0.00 in0.0 mm 0.00 in/hr0.0 mm/hr 0.02 in0.5 mm
06:59 PM 64.6°F18.1°C 53.8°F12.1°C 68% 0.9 mph SE1.4 kmh SE 3.0 mph4.8 kmh 29.89 in1012.2 mb 0.00 in0.0 mm 0.00 in/hr0.0 mm/hr 0.02 in0.5 mm
06:58 PM 64.6°F18.1°C 54.1°F12.3°C 69% Calm Calm 2.0 mph3.2 kmh 29.89 in1012.2 mb 0.00 in0.0 mm 0.00 in/hr0.0 mm/hr 0.02 in0.5 mm
06:57 PM 64.6°F18.1°C 54.1°F12.3°C 69% Calm Calm 2.0 mph3.2 kmh 29.89 in1012.2 mb 0.00 in0.0 mm 0.00 in/hr0.0 mm/hr 0.02 in0.5 mm
06:56 PM 64.8°F18.2°C 54.3°F12.4°C 69% Calm Calm 2.0 mph3.2 kmh 29.89 in1012.2 mb 0.00 in0.0 mm 0.00 in/hr0.0 mm/hr 0.02 in0.5 mm
06:55 PM 64.8°F18.2°C 54.3°F12.4°C 69% Calm Calm 0.9 mph1.4 kmh 29.89 in1012.2 mb 0.00 in0.0 mm 0.00 in/hr0.0 mm/hr 0.02 in0.5 mm
06:54 PM 64.9°F18.3°C 54.9°F12.7°C 70% Calm Calm 0.9 mph1.4 kmh 29.89 in1012.2 mb 0.00 in0.0 mm 0.00 in/hr0.0 mm/hr 0.02 in0.5 mm
06:53 PM 64.9°F18.3°C 54.5°F12.5°C 69% Calm Calm 0.9 mph1.4 kmh 29.89 in1012.2 mb 0.00 in0.0 mm 0.00 in/hr0.0 mm/hr 0.02 in0.5 mm
06:52 PM 64.9°F18.3°C 54.9°F12.7°C 70% Calm Calm 0.9 mph1.4 kmh 29.89 in1012.2 mb 0.00 in0.0 mm 0.00 in/hr0.0 mm/hr 0.02 in0.5 mm
06:51 PM 65.1°F18.4°C 55.4°F13.0°C 71% Calm Calm 0.9 mph1.4 kmh 29.89 in1012.2 mb 0.00 in0.0 mm 0.00 in/hr0.0 mm/hr 0.02 in0.5 mm
06:50 PM 65.1°F18.4°C 55.9°F13.3°C 72% Calm Calm 0.9 mph1.4 kmh 29.89 in1012.2 mb 0.00 in0.0 mm 0.00 in/hr0.0 mm/hr 0.02 in0.5 mm
06:49 PM 65.1°F18.4°C 55.0°F12.8°C 70% Calm Calm 0.9 mph1.4 kmh 29.89 in1012.2 mb 0.00 in0.0 mm 0.00 in/hr0.0 mm/hr 0.02 in0.5 mm
06:48 PM 65.1°F18.4°C 55.0°F12.8°C 70% Calm Calm 0.9 mph1.4 kmh 29.89 in1012.2 mb 0.00 in0.0 mm 0.00 in/hr0.0 mm/hr 0.02 in0.5 mm
06:47 PM 65.3°F18.5°C 54.9°F12.7°C 69% Calm Calm -- 29.89 in1012.2 mb 0.00 in0.0 mm 0.00 in/hr0.0 mm/hr 0.02 in0.5 mm
06:46 PM 65.3°F18.5°C 54.9°F12.7°C 69% Calm Calm 2.9 mph4.7 kmh 29.89 in1012.2 mb 0.00 in0.0 mm 0.00 in/hr0.0 mm/hr 0.02 in0.5 mm
06:45 PM 65.3°F18.5°C 55.2°F12.9°C 70% Calm Calm 2.9 mph4.7 kmh 29.89 in1012.2 mb 0.00 in0.0 mm 0.00 in/hr0.0 mm/hr 0.02 in0.5 mm
06:44 PM 65.3°F18.5°C 55.2°F12.9°C 70% Calm Calm -- 29.88 in1011.9 mb 0.00 in0.0 mm 0.00 in/hr0.0 mm/hr 0.02 in0.5 mm
06:43 PM 65.3°F18.5°C 54.9°F12.7°C 69% Calm Calm -- 29.88 in1011.9 mb 0.00 in0.0 mm 0.00 in/hr0.0 mm/hr 0.02 in0.5 mm
06:42 PM 65.5°F18.6°C 55.0°F12.8°C 69% 0.9 mph SSE1.4 kmh SSE 0.9 mph1.4 kmh 29.88 in1011.9 mb 0.00 in0.0 mm 0.00 in/hr0.0 mm/hr 0.02 in0.5 mm
06:41 PM 65.5°F18.6°C 55.0°F12.8°C 69% 0.9 mph SE1.4 kmh SE 3.0 mph4.8 kmh 29.88 in1011.9 mb 0.00 in0.0 mm 0.00 in/hr0.0 mm/hr 0.02 in0.5 mm
06:40 PM 65.5°F18.6°C 55.0°F12.8°C 69% 0.9 mph NE1.4 kmh NE 0.9 mph1.4 kmh 29.88 in1011.9 mb 0.00 in0.0 mm 0.00 in/hr0.0 mm/hr 0.02 in0.5 mm
06:39 PM 65.5°F18.6°C 54.7°F12.6°C 68% 0.9 mph NE1.4 kmh NE 2.0 mph3.2 kmh 29.88 in1011.9 mb 0.00 in0.0 mm 0.00 in/hr0.0 mm/hr 0.02 in0.5 mm
06:38 PM 65.5°F18.6°C 54.3°F12.4°C 67% 0.9 mph NE1.4 kmh NE 2.0 mph3.2 kmh 29.88 in1011.9 mb 0.00 in0.0 mm 0.00 in/hr0.0 mm/hr 0.02 in0.5 mm
06:37 PM 65.5°F18.6°C 53.8°F12.1°C 66% 0.9 mph NE1.4 kmh NE 0.9 mph1.4 kmh 29.88 in1011.9 mb 0.00 in0.0 mm 0.00 in/hr0.0 mm/hr 0.02 in0.5 mm
06:36 PM 65.5°F18.6°C 53.8°F12.1°C 66% 2.0 mph NE3.2 kmh NE -- 29.88 in1011.9 mb 0.00 in0.0 mm 0.00 in/hr0.0 mm/hr 0.02 in0.5 mm
06:35 PM 65.7°F18.7°C 53.6°F12.0°C 65% 2.0 mph NE3.2 kmh NE 2.0 mph3.2 kmh 29.88 in1011.9 mb 0.00 in0.0 mm 0.00 in/hr0.0 mm/hr 0.02 in0.5 mm
06:34 PM 65.7°F18.7°C 53.6°F12.0°C 65% 2.0 mph NE3.2 kmh NE 2.0 mph3.2 kmh 29.88 in1011.9 mb 0.00 in0.0 mm 0.00 in/hr0.0 mm/hr 0.02 in0.5 mm
06:33 PM 65.7°F18.7°C 53.6°F12.0°C 65% 2.0 mph NW3.2 kmh NW 2.0 mph3.2 kmh 29.88 in1011.9 mb 0.00 in0.0 mm 0.00 in/hr0.0 mm/hr 0.02 in0.5 mm
06:32 PM 65.7°F18.7°C 54.0°F12.2°C 66% 2.0 mph NNW3.2 kmh NNW 2.9 mph4.7 kmh 29.88 in1011.9 mb 0.00 in0.0 mm 0.00 in/hr0.0 mm/hr 0.02 in0.5 mm
06:31 PM 65.8°F18.8°C 53.2°F11.8°C 64% 2.0 mph NW3.2 kmh NW 2.9 mph4.7 kmh 29.88 in1011.9 mb 0.00 in0.0 mm 0.00 in/hr0.0 mm/hr 0.02 in0.5 mm
06:30 PM 65.8°F18.8°C 53.2°F11.8°C 64% 2.0 mph NW3.2 kmh NW 2.0 mph3.2 kmh 29.88 in1011.9 mb 0.00 in0.0 mm 0.00 in/hr0.0 mm/hr 0.02 in0.5 mm
06:29 PM 66.0°F18.9°C 54.0°F12.2°C 65% 2.0 mph NW3.2 kmh NW 2.0 mph3.2 kmh 29.88 in1011.9 mb 0.00 in0.0 mm 0.00 in/hr0.0 mm/hr 0.02 in0.5 mm
06:28 PM 66.2°F19.0°C 53.2°F11.8°C 63% 2.0 mph NW3.2 kmh NW 2.9 mph4.7 kmh 29.88 in1011.9 mb 0.00 in0.0 mm 0.00 in/hr0.0 mm/hr 0.02 in0.5 mm
06:27 PM 66.4°F19.1°C 53.4°F11.9°C 63% 2.0 mph NW3.2 kmh NW 2.9 mph4.7 kmh 29.88 in1011.9 mb 0.00 in0.0 mm 0.00 in/hr0.0 mm/hr 0.02 in0.5 mm
06:26 PM 66.6°F19.2°C 54.0°F12.2°C 64% 2.0 mph NW3.2 kmh NW 2.9 mph4.7 kmh 29.88 in1011.9 mb 0.00 in0.0 mm 0.00 in/hr0.0 mm/hr 0.02 in0.5 mm
06:25 PM 66.7°F19.3°C 53.8°F12.1°C 63% 2.0 mph NW3.2 kmh NW 2.9 mph4.7 kmh 29.88 in1011.9 mb 0.00 in0.0 mm 0.00 in/hr0.0 mm/hr 0.02 in0.5 mm
06:24 PM 66.7°F19.3°C 54.1°F12.3°C 64% 2.0 mph NW3.2 kmh NW 2.9 mph4.7 kmh 29.88 in1011.9 mb 0.00 in0.0 mm 0.00 in/hr0.0 mm/hr 0.02 in0.5 mm
06:23 PM 66.7°F19.3°C 53.8°F12.1°C 63% 0.9 mph WNW1.4 kmh WNW 2.0 mph3.2 kmh 29.88 in1011.9 mb 0.00 in0.0 mm 0.00 in/hr0.0 mm/hr 0.02 in0.5 mm
06:22 PM 66.7°F19.3°C 53.2°F11.8°C 62% 0.9 mph W1.4 kmh W 0.9 mph1.4 kmh 29.88 in1011.9 mb 0.00 in0.0 mm 0.00 in/hr0.0 mm/hr 0.02 in0.5 mm
06:21 PM 66.7°F19.3°C 52.3°F11.3°C 60% 0.9 mph W1.4 kmh W 2.0 mph3.2 kmh 29.88 in1011.9 mb 0.00 in0.0 mm 0.00 in/hr0.0 mm/hr 0.02 in0.5 mm
06:20 PM 66.6°F19.2°C 53.6°F12.0°C 63% 0.9 mph W1.4 kmh W 2.9 mph4.7 kmh 29.88 in1011.9 mb 0.00 in0.0 mm 0.00 in/hr0.0 mm/hr 0.02 in0.5 mm
06:19 PM 66.4°F19.1°C 52.5°F11.4°C 61% 0.9 mph WSW1.4 kmh WSW 2.0 mph3.2 kmh 29.88 in1011.9 mb 0.00 in0.0 mm 0.00 in/hr0.0 mm/hr 0.02 in0.5 mm
06:18 PM 66.4°F19.1°C 52.5°F11.4°C 61% 0.9 mph WSW1.4 kmh WSW 2.0 mph3.2 kmh 29.88 in1011.9 mb 0.00 in0.0 mm 0.00 in/hr0.0 mm/hr 0.02 in0.5 mm
06:17 PM 66.4°F19.1°C 53.8°F12.1°C 64% 0.9 mph WSW1.4 kmh WSW 2.0 mph3.2 kmh 29.88 in1011.9 mb 0.00 in0.0 mm 0.00 in/hr0.0 mm/hr 0.02 in0.5 mm
06:16 PM 66.4°F19.1°C 53.8°F12.1°C 64% 0.9 mph W1.4 kmh W 2.9 mph4.7 kmh 29.88 in1011.9 mb 0.00 in0.0 mm 0.00 in/hr0.0 mm/hr 0.02 in0.5 mm
06:15 PM 66.6°F19.2°C 53.6°F12.0°C 63% 0.9 mph WNW1.4 kmh WNW 2.0 mph3.2 kmh 29.88 in1011.9 mb 0.00 in0.0 mm 0.00 in/hr0.0 mm/hr 0.02 in0.5 mm
06:14 PM 66.6°F19.2°C 53.1°F11.7°C 62% Calm Calm 2.0 mph3.2 kmh 29.88 in1011.9 mb 0.00 in0.0 mm 0.00 in/hr0.0 mm/hr 0.02 in0.5 mm
06:13 PM 66.6°F19.2°C 52.2°F11.2°C 60% Calm Calm 1.0 mph1.6 kmh 29.88 in1011.9 mb 0.00 in0.0 mm 0.00 in/hr0.0 mm/hr 0.02 in0.5 mm
06:12 PM 66.7°F19.3°C 53.2°F11.8°C 62% Calm Calm 1.0 mph1.6 kmh 29.88 in1011.9 mb 0.00 in0.0 mm 0.00 in/hr0.0 mm/hr 0.02 in0.5 mm
06:11 PM 66.7°F19.3°C 53.8°F12.1°C 63% Calm Calm -- 29.88 in1011.9 mb 0.00 in0.0 mm 0.00 in/hr0.0 mm/hr 0.02 in0.5 mm
06:09 PM 66.7°F19.3°C 52.9°F11.6°C 61% Calm Calm -- 29.88 in1011.9 mb 0.00 in0.0 mm 0.00 in/hr0.0 mm/hr 0.02 in0.5 mm
06:08 PM 66.7°F19.3°C 53.8°F12.1°C 63% Calm Calm -- 29.88 in1011.9 mb 0.00 in0.0 mm 0.00 in/hr0.0 mm/hr 0.02 in0.5 mm
06:07 PM 66.9°F19.4°C 53.4°F11.9°C 62% Calm Calm -- 29.88 in1011.9 mb 0.00 in0.0 mm 0.00 in/hr0.0 mm/hr 0.02 in0.5 mm
06:06 PM 66.7°F19.3°C 52.9°F11.6°C 61% Calm Calm -- 29.88 in1011.9 mb 0.00 in0.0 mm 0.00 in/hr0.0 mm/hr 0.02 in0.5 mm
06:05 PM 66.7°F19.3°C 52.9°F11.6°C 61% Calm Calm -- 29.88 in1011.9 mb 0.00 in0.0 mm 0.00 in/hr0.0 mm/hr 0.02 in0.5 mm
06:04 PM 66.7°F19.3°C 52.3°F11.3°C 60% Calm Calm -- 29.88 in1011.9 mb 0.00 in0.0 mm 0.00 in/hr0.0 mm/hr 0.02 in0.5 mm
06:03 PM 66.7°F19.3°C 52.0°F11.1°C 59% Calm Calm -- 29.88 in1011.9 mb 0.00 in0.0 mm 0.00 in/hr0.0 mm/hr 0.02 in0.5 mm
06:02 PM 66.7°F19.3°C 51.1°F10.6°C 57% Calm Calm -- 29.88 in1011.9 mb 0.00 in0.0 mm 0.00 in/hr0.0 mm/hr 0.02 in0.5 mm
06:01 PM 66.7°F19.3°C 51.4°F10.8°C 58% Calm Calm -- 29.88 in1011.9 mb 0.00 in0.0 mm 0.00 in/hr0.0 mm/hr 0.02 in0.5 mm
06:00 PM 66.9°F19.4°C 52.2°F11.2°C 59% Calm Calm -- 29.88 in1011.9 mb 0.00 in0.0 mm 0.00 in/hr0.0 mm/hr 0.02 in0.5 mm
05:59 PM 66.9°F19.4°C 52.2°F11.2°C 59% Calm Calm 0.9 mph1.4 kmh 29.88 in1011.9 mb 0.00 in0.0 mm 0.00 in/hr0.0 mm/hr 0.02 in0.5 mm
05:58 PM 66.9°F19.4°C 52.5°F11.4°C 60% Calm Calm 0.9 mph1.4 kmh 29.88 in1011.9 mb 0.00 in0.0 mm 0.00 in/hr0.0 mm/hr 0.02 in0.5 mm
05:57 PM 66.9°F19.4°C 53.1°F11.7°C 61% Calm Calm 0.9 mph1.4 kmh 29.88 in1011.9 mb 0.00 in0.0 mm 0.00 in/hr0.0 mm/hr 0.02 in0.5 mm
05:56 PM 67.1°F19.5°C 52.7°F11.5°C 60% Calm Calm 0.9 mph1.4 kmh 29.88 in1011.9 mb 0.00 in0.0 mm 0.00 in/hr0.0 mm/hr 0.02 in0.5 mm
05:55 PM 67.1°F19.5°C 52.3°F11.3°C 59% Calm Calm 0.9 mph1.4 kmh 29.88 in1011.9 mb 0.00 in0.0 mm 0.00 in/hr0.0 mm/hr 0.02 in0.5 mm
05:54 PM 67.1°F19.5°C 52.7°F11.5°C 60% Calm Calm -- 29.88 in1011.9 mb 0.00 in0.0 mm 0.00 in/hr0.0 mm/hr 0.02 in0.5 mm
05:53 PM 67.1°F19.5°C 52.3°F11.3°C 59% Calm Calm -- 29.88 in1011.9 mb 0.00 in0.0 mm 0.00 in/hr0.0 mm/hr 0.02 in0.5 mm
05:52 PM 67.1°F19.5°C 52.7°F11.5°C 60% Calm Calm -- 29.88 in1011.9 mb 0.00 in0.0 mm 0.00 in/hr0.0 mm/hr 0.02 in0.5 mm
05:51 PM 66.9°F19.4°C 52.5°F11.4°C 60% Calm Calm -- 29.88 in1011.9 mb 0.00 in0.0 mm 0.00 in/hr0.0 mm/hr 0.02 in0.5 mm
05:50 PM 66.9°F19.4°C 53.1°F11.7°C 61% Calm Calm 1.0 mph1.6 kmh 29.88 in1011.9 mb 0.00 in0.0 mm 0.00 in/hr0.0 mm/hr 0.02 in0.5 mm
05:49 PM 66.9°F19.4°C 52.2°F11.2°C 59% Calm Calm 1.0 mph1.6 kmh 29.88 in1011.9 mb 0.00 in0.0 mm 0.00 in/hr0.0 mm/hr 0.02 in0.5 mm
05:48 PM 66.9°F19.4°C 51.6°F10.9°C 58% Calm Calm -- 29.88 in1011.9 mb 0.00 in0.0 mm 0.00 in/hr0.0 mm/hr 0.02 in0.5 mm
05:47 PM 66.9°F19.4°C 52.2°F11.2°C 59% Calm Calm -- 29.88 in1011.9 mb 0.00 in0.0 mm 0.00 in/hr0.0 mm/hr 0.02 in0.5 mm
05:46 PM 66.7°F19.3°C 51.4°F10.8°C 58% Calm Calm -- 29.88 in1011.9 mb 0.00 in0.0 mm 0.00 in/hr0.0 mm/hr 0.02 in0.5 mm
05:45 PM 66.7°F19.3°C 51.1°F10.6°C 57% Calm Calm -- 29.85 in1010.8 mb 0.00 in0.0 mm 0.00 in/hr0.0 mm/hr 0.02 in0.5 mm
05:44 PM 66.7°F19.3°C 51.4°F10.8°C 58% Calm Calm -- 29.85 in1010.8 mb 0.00 in0.0 mm 0.00 in/hr0.0 mm/hr 0.02 in0.5 mm
05:43 PM 66.7°F19.3°C 52.0°F11.1°C 59% 0.9 mph SE1.4 kmh SE -- 29.85 in1010.8 mb 0.00 in0.0 mm 0.00 in/hr0.0 mm/hr 0.02 in0.5 mm
05:42 PM 66.7°F19.3°C 51.4°F10.8°C 58% 0.9 mph SE1.4 kmh SE -- 29.85 in1010.8 mb 0.00 in0.0 mm 0.00 in/hr0.0 mm/hr 0.02 in0.5 mm
05:41 PM 66.7°F19.3°C 51.4°F10.8°C 58% 0.9 mph SE1.4 kmh SE -- 29.85 in1010.8 mb 0.00 in0.0 mm 0.00 in/hr0.0 mm/hr 0.02 in0.5 mm
05:40 PM 66.7°F19.3°C 51.4°F10.8°C 58% 0.9 mph SE1.4 kmh SE 0.9 mph1.4 kmh 29.85 in1010.8 mb 0.00 in0.0 mm 0.00 in/hr0.0 mm/hr 0.02 in0.5 mm
05:39 PM 66.7°F19.3°C 50.5°F10.3°C 56% 0.9 mph SE1.4 kmh SE 0.9 mph1.4 kmh 29.85 in1010.8 mb 0.00 in0.0 mm 0.00 in/hr0.0 mm/hr 0.02 in0.5 mm
05:38 PM 66.7°F19.3°C 50.5°F10.3°C 56% 0.9 mph SE1.4 kmh SE 0.9 mph1.4 kmh 29.85 in1010.8 mb 0.00 in0.0 mm 0.00 in/hr0.0 mm/hr 0.02 in0.5 mm
05:37 PM 66.7°F19.3°C 50.5°F10.3°C 56% 0.9 mph SE1.4 kmh SE 2.0 mph3.2 kmh 29.85 in1010.8 mb 0.00 in0.0 mm 0.00 in/hr0.0 mm/hr 0.02 in0.5 mm
05:36 PM 66.7°F19.3°C 50.5°F10.3°C 56% 0.9 mph SE1.4 kmh SE 3.0 mph4.8 kmh 29.85 in1010.8 mb 0.00 in0.0 mm 0.00 in/hr0.0 mm/hr 0.02 in0.5 mm
05:35 PM 66.7°F19.3°C 51.1°F10.6°C 57% 0.9 mph SE1.4 kmh SE 2.0 mph3.2 kmh 29.85 in1010.8 mb 0.00 in0.0 mm 0.00 in/hr0.0 mm/hr 0.02 in0.5 mm
05:34 PM 66.7°F19.3°C 52.0°F11.1°C 59% 0.9 mph ENE1.4 kmh ENE 2.0 mph3.2 kmh 29.85 in1010.8 mb 0.00 in0.0 mm 0.00 in/hr0.0 mm/hr 0.02 in0.5 mm
05:33 PM 66.6°F19.2°C 50.4°F10.2°C 56% 0.9 mph SW1.4 kmh SW 2.0 mph3.2 kmh 29.85 in1010.8 mb 0.00 in0.0 mm 0.00 in/hr0.0 mm/hr 0.02 in0.5 mm
05:32 PM 66.6°F19.2°C 52.2°F11.2°C 60% 0.9 mph SE1.4 kmh SE 2.0 mph3.2 kmh 29.85 in1010.8 mb 0.00 in0.0 mm 0.00 in/hr0.0 mm/hr 0.02 in0.5 mm
05:31 PM 66.6°F19.2°C 52.7°F11.5°C 61% 0.9 mph SE1.4 kmh SE 2.0 mph3.2 kmh 29.85 in1010.8 mb 0.00 in0.0 mm 0.00 in/hr0.0 mm/hr 0.02 in0.5 mm
05:30 PM 66.4°F19.1°C 52.2°F11.2°C 60% 0.9 mph SSW1.4 kmh SSW 2.0 mph3.2 kmh 29.85 in1010.8 mb 0.00 in0.0 mm 0.00 in/hr0.0 mm/hr 0.02 in0.5 mm
05:29 PM 66.4°F19.1°C 51.1°F10.6°C 58% 0.9 mph SSE1.4 kmh SSE 2.0 mph3.2 kmh 29.85 in1010.8 mb 0.00 in0.0 mm 0.00 in/hr0.0 mm/hr 0.02 in0.5 mm
05:28 PM 66.4°F19.1°C 51.6°F10.9°C 59% 2.0 mph SSE3.2 kmh SSE 0.9 mph1.4 kmh 29.85 in1010.8 mb 0.00 in0.0 mm 0.00 in/hr0.0 mm/hr 0.02 in0.5 mm
05:27 PM 66.2°F19.0°C 51.4°F10.8°C 59% 2.0 mph SSE3.2 kmh SSE 2.0 mph3.2 kmh 29.85 in1010.8 mb 0.00 in0.0 mm 0.00 in/hr0.0 mm/hr 0.02 in0.5 mm
05:26 PM 66.2°F19.0°C 51.4°F10.8°C 59% 2.0 mph SE3.2 kmh SE 5.0 mph8.0 kmh 29.85 in1010.8 mb 0.00 in0.0 mm 0.00 in/hr0.0 mm/hr 0.02 in0.5 mm
05:25 PM 66.2°F19.0°C 50.9°F10.5°C 58% 2.0 mph SE3.2 kmh SE 4.0 mph6.4 kmh 29.85 in1010.8 mb 0.00 in0.0 mm 0.00 in/hr0.0 mm/hr 0.02 in0.5 mm
05:24 PM 66.2°F19.0°C 50.9°F10.5°C 58% 2.0 mph SE3.2 kmh SE 4.0 mph6.4 kmh 29.85 in1010.8 mb 0.00 in0.0 mm 0.00 in/hr0.0 mm/hr 0.02 in0.5 mm
05:23 PM 66.2°F19.0°C 51.4°F10.8°C 59% 2.0 mph SE3.2 kmh SE 2.9 mph4.7 kmh 29.85 in1010.8 mb 0.00 in0.0 mm 0.00 in/hr0.0 mm/hr 0.02 in0.5 mm
05:22 PM 66.2°F19.0°C 51.4°F10.8°C 59% 2.0 mph SE3.2 kmh SE 2.9 mph4.7 kmh 29.85 in1010.8 mb 0.00 in0.0 mm 0.00 in/hr0.0 mm/hr 0.02 in0.5 mm
05:21 PM 66.2°F19.0°C 52.0°F11.1°C 60% 2.0 mph SSW3.2 kmh SSW 2.0 mph3.2 kmh 29.85 in1010.8 mb 0.00 in0.0 mm 0.00 in/hr0.0 mm/hr 0.02 in0.5 mm
05:20 PM 66.2°F19.0°C 52.3°F11.3°C 61% 2.0 mph SSE3.2 kmh SSE 2.0 mph3.2 kmh 29.85 in1010.8 mb 0.00 in0.0 mm 0.00 in/hr0.0 mm/hr 0.02 in0.5 mm
05:19 PM 66.0°F18.9°C 51.3°F10.7°C 59% 2.0 mph SSW3.2 kmh SSW 4.0 mph6.4 kmh 29.85 in1010.8 mb 0.00 in0.0 mm 0.00 in/hr0.0 mm/hr 0.02 in0.5 mm
05:18 PM 66.0°F18.9°C 51.3°F10.7°C 59% 2.0 mph S3.2 kmh S 4.0 mph6.4 kmh 29.85 in1010.8 mb 0.00 in0.0 mm 0.00 in/hr0.0 mm/hr 0.02 in0.5 mm
05:17 PM 66.0°F18.9°C 51.3°F10.7°C 59% 2.0 mph S3.2 kmh S 4.0 mph6.4 kmh 29.85 in1010.8 mb 0.00 in0.0 mm 0.00 in/hr0.0 mm/hr 0.02 in0.5 mm
05:16 PM 66.0°F18.9°C 51.8°F11.0°C 60% 2.0 mph SSE3.2 kmh SSE 5.0 mph8.0 kmh 29.85 in1010.8 mb 0.00 in0.0 mm 0.00 in/hr0.0 mm/hr 0.02 in0.5 mm
05:15 PM 65.8°F18.8°C 51.6°F10.9°C 60% 2.0 mph SW3.2 kmh SW 4.0 mph6.4 kmh 29.86 in1011.2 mb 0.00 in0.0 mm 0.00 in/hr0.0 mm/hr 0.02 in0.5 mm
05:14 PM 65.8°F18.8°C 51.6°F10.9°C 60% 2.9 mph SE4.7 kmh SE 4.0 mph6.4 kmh 29.86 in1011.2 mb 0.00 in0.0 mm 0.00 in/hr0.0 mm/hr 0.02 in0.5 mm
05:13 PM 65.8°F18.8°C 52.5°F11.4°C 62% 2.9 mph S4.7 kmh S 4.0 mph6.4 kmh 29.86 in1011.2 mb 0.00 in0.0 mm 0.00 in/hr0.0 mm/hr 0.02 in0.5 mm
05:12 PM 65.8°F18.8°C 51.6°F10.9°C 60% 2.9 mph SSW4.7 kmh SSW 4.0 mph6.4 kmh 29.86 in1011.2 mb 0.00 in0.0 mm 0.00 in/hr0.0 mm/hr 0.02 in0.5 mm
05:11 PM 65.7°F18.7°C 51.8°F11.0°C 61% 2.9 mph E4.7 kmh E 4.0 mph6.4 kmh 29.86 in1011.2 mb 0.00 in0.0 mm 0.00 in/hr0.0 mm/hr 0.02 in0.5 mm
05:10 PM 65.7°F18.7°C 51.8°F11.0°C 61% 4.0 mph SE6.4 kmh SE 2.9 mph4.7 kmh 29.86 in1011.2 mb 0.00 in0.0 mm 0.00 in/hr0.0 mm/hr 0.02 in0.5 mm
05:09 PM 65.7°F18.7°C 51.8°F11.0°C 61% 4.0 mph SE6.4 kmh SE 2.9 mph4.7 kmh 29.86 in1011.2 mb 0.00 in0.0 mm 0.00 in/hr0.0 mm/hr 0.02 in0.5 mm
05:08 PM 65.5°F18.6°C 51.6°F10.9°C 61% 4.9 mph SE7.9 kmh SE 4.0 mph6.4 kmh 29.86 in1011.2 mb 0.00 in0.0 mm 0.00 in/hr0.0 mm/hr 0.02 in0.5 mm
05:07 PM 65.5°F18.6°C 51.6°F10.9°C 61% 4.9 mph S7.9 kmh S 4.0 mph6.4 kmh 29.86 in1011.2 mb 0.00 in0.0 mm 0.00 in/hr0.0 mm/hr 0.02 in0.5 mm
05:06 PM 65.5°F18.6°C 51.6°F10.9°C 61% 4.9 mph S7.9 kmh S 6.0 mph9.7 kmh 29.86 in1011.2 mb 0.00 in0.0 mm 0.00 in/hr0.0 mm/hr 0.02 in0.5 mm
05:05 PM 65.3°F18.5°C 52.0°F11.1°C 62% 4.9 mph S7.9 kmh S 6.0 mph9.7 kmh 29.86 in1011.2 mb 0.00 in0.0 mm 0.00 in/hr0.0 mm/hr 0.02 in0.5 mm
05:04 PM 65.1°F18.4°C 50.9°F10.5°C 60% 6.0 mph S9.7 kmh S 6.9 mph11.1 kmh 29.86 in1011.2 mb 0.00 in0.0 mm 0.00 in/hr0.0 mm/hr 0.02 in0.5 mm
05:03 PM 65.1°F18.4°C 52.2°F11.2°C 63% 6.0 mph SSE9.7 kmh SSE 6.9 mph11.1 kmh 29.86 in1011.2 mb 0.00 in0.0 mm 0.00 in/hr0.0 mm/hr 0.02 in0.5 mm
05:02 PM 65.1°F18.4°C 51.8°F11.0°C 62% 6.0 mph S9.7 kmh S 6.9 mph11.1 kmh 29.86 in1011.2 mb 0.00 in0.0 mm 0.00 in/hr0.0 mm/hr 0.02 in0.5 mm
05:01 PM 65.1°F18.4°C 52.2°F11.2°C 63% 6.0 mph S9.7 kmh S 6.9 mph11.1 kmh 29.86 in1011.2 mb 0.00 in0.0 mm 0.00 in/hr0.0 mm/hr 0.02 in0.5 mm
05:00 PM 64.9°F18.3°C 51.6°F10.9°C 62% 6.0 mph SE9.7 kmh SE 8.9 mph14.3 kmh 29.88 in1011.9 mb 0.00 in0.0 mm 0.00 in/hr0.0 mm/hr 0.02 in0.5 mm
04:59 PM 64.9°F18.3°C 51.6°F10.9°C 62% 6.0 mph S9.7 kmh S 10.1 mph16.3 kmh 29.88 in1011.9 mb 0.00 in0.0 mm 0.00 in/hr0.0 mm/hr 0.02 in0.5 mm
04:58 PM 64.9°F18.3°C 52.0°F11.1°C 63% 6.0 mph S9.7 kmh S 6.9 mph11.1 kmh 29.88 in1011.9 mb 0.00 in0.0 mm 0.00 in/hr0.0 mm/hr 0.02 in0.5 mm
04:57 PM 64.9°F18.3°C 52.5°F11.4°C 64% 6.0 mph S9.7 kmh S 8.1 mph13.0 kmh 29.88 in1011.9 mb 0.00 in0.0 mm 0.00 in/hr0.0 mm/hr 0.02 in0.5 mm
04:56 PM 64.9°F18.3°C 52.9°F11.6°C 65% 6.0 mph S9.7 kmh S 6.9 mph11.1 kmh 29.88 in1011.9 mb 0.00 in0.0 mm 0.00 in/hr0.0 mm/hr 0.02 in0.5 mm
04:55 PM 64.8°F18.2°C 53.6°F12.0°C 67% 6.0 mph SSW9.7 kmh SSW 8.1 mph13.0 kmh 29.88 in1011.9 mb 0.00 in0.0 mm 0.00 in/hr0.0 mm/hr 0.02 in0.5 mm
04:54 PM 64.8°F18.2°C 52.7°F11.5°C 65% 6.0 mph SSW9.7 kmh SSW 8.1 mph13.0 kmh 29.88 in1011.9 mb 0.00 in0.0 mm 0.00 in/hr0.0 mm/hr 0.02 in0.5 mm
04:53 PM 64.8°F18.2°C 52.3°F11.3°C 64% 6.0 mph SSW9.7 kmh SSW 8.1 mph13.0 kmh 29.88 in1011.9 mb 0.00 in0.0 mm 0.00 in/hr0.0 mm/hr 0.02 in0.5 mm
04:52 PM 64.8°F18.2°C 52.7°F11.5°C 65% 6.0 mph SSW9.7 kmh SSW 8.1 mph13.0 kmh 29.88 in1011.9 mb 0.00 in0.0 mm 0.00 in/hr0.0 mm/hr 0.02 in0.5 mm
04:51 PM 64.8°F18.2°C 53.6°F12.0°C 67% 6.0 mph SSW9.7 kmh SSW 10.1 mph16.3 kmh 29.88 in1011.9 mb 0.00 in0.0 mm 0.00 in/hr0.0 mm/hr 0.02 in0.5 mm
04:49 PM 64.6°F18.1°C 54.1°F12.3°C 69% 4.9 mph SW7.9 kmh SW 8.1 mph13.0 kmh 29.88 in1011.9 mb 0.00 in0.0 mm 0.00 in/hr0.0 mm/hr 0.02 in0.5 mm
04:48 PM 64.6°F18.1°C 53.8°F12.1°C 68% 4.9 mph SW7.9 kmh SW 8.1 mph13.0 kmh 29.88 in1011.9 mb 0.00 in0.0 mm 0.00 in/hr0.0 mm/hr 0.02 in0.5 mm
04:47 PM 64.6°F18.1°C 54.5°F12.5°C 70% 4.9 mph SW7.9 kmh SW 6.9 mph11.1 kmh 29.88 in1011.9 mb 0.00 in0.0 mm 0.00 in/hr0.0 mm/hr 0.02 in0.5 mm
04:46 PM 64.6°F18.1°C 54.5°F12.5°C 70% 4.9 mph SSW7.9 kmh SSW 6.9 mph11.1 kmh 29.88 in1011.9 mb 0.00 in0.0 mm 0.00 in/hr0.0 mm/hr 0.02 in0.5 mm
04:45 PM 64.6°F18.1°C 55.0°F12.8°C 71% 4.9 mph SW7.9 kmh SW 6.9 mph11.1 kmh 29.89 in1012.2 mb 0.00 in0.0 mm 0.00 in/hr0.0 mm/hr 0.02 in0.5 mm
04:44 PM 64.6°F18.1°C 54.5°F12.5°C 70% 4.9 mph S7.9 kmh S 6.0 mph9.7 kmh 29.89 in1012.2 mb 0.00 in0.0 mm 0.00 in/hr0.0 mm/hr 0.02 in0.5 mm
04:43 PM 64.4°F18.0°C 54.9°F12.7°C 71% 4.9 mph SSW7.9 kmh SSW 6.9 mph11.1 kmh 29.89 in1012.2 mb 0.00 in0.0 mm 0.00 in/hr0.0 mm/hr 0.02 in0.5 mm
04:42 PM 64.4°F18.0°C 54.9°F12.7°C 71% 4.9 mph SW7.9 kmh SW 6.0 mph9.7 kmh 29.89 in1012.2 mb 0.00 in0.0 mm 0.00 in/hr0.0 mm/hr 0.02 in0.5 mm
04:41 PM 64.4°F18.0°C 54.9°F12.7°C 71% 4.9 mph SSW7.9 kmh SSW 8.1 mph13.0 kmh 29.89 in1012.2 mb 0.00 in0.0 mm 0.00 in/hr0.0 mm/hr 0.02 in0.5 mm
04:40 PM 64.4°F18.0°C 54.9°F12.7°C 71% 4.9 mph SSW7.9 kmh SSW 8.1 mph13.0 kmh 29.89 in1012.2 mb 0.00 in0.0 mm 0.00 in/hr0.0 mm/hr 0.02 in0.5 mm
04:39 PM 64.4°F18.0°C 55.2°F12.9°C 72% 6.0 mph SW9.7 kmh SW 4.9 mph7.9 kmh 29.89 in1012.2 mb 0.00 in0.0 mm 0.00 in/hr0.0 mm/hr 0.02 in0.5 mm
04:38 PM 64.4°F18.0°C 55.2°F12.9°C 72% 6.0 mph SSW9.7 kmh SSW 6.9 mph11.1 kmh 29.89 in1012.2 mb 0.00 in0.0 mm 0.00 in/hr0.0 mm/hr 0.02 in0.5 mm
04:37 PM 64.4°F18.0°C 55.2°F12.9°C 72% 4.9 mph SSW7.9 kmh SSW 6.0 mph9.7 kmh 29.89 in1012.2 mb 0.00 in0.0 mm 0.00 in/hr0.0 mm/hr 0.02 in0.5 mm
04:36 PM 64.4°F18.0°C 54.9°F12.7°C 71% 4.9 mph SW7.9 kmh SW 8.1 mph13.0 kmh 29.89 in1012.2 mb 0.00 in0.0 mm 0.00 in/hr0.0 mm/hr 0.02 in0.5 mm
04:35 PM 64.4°F18.0°C 54.9°F12.7°C 71% 4.9 mph SW7.9 kmh SW 8.1 mph13.0 kmh 29.89 in1012.2 mb 0.00 in0.0 mm 0.00 in/hr0.0 mm/hr 0.02 in0.5 mm
04:34 PM 64.2°F17.9°C 54.3°F12.4°C 70% 4.9 mph SW7.9 kmh SW 8.9 mph14.3 kmh 29.89 in1012.2 mb 0.00 in0.0 mm 0.00 in/hr0.0 mm/hr 0.02 in0.5 mm
04:33 PM 64.2°F17.9°C 54.3°F12.4°C 70% 4.9 mph SW7.9 kmh SW 8.9 mph14.3 kmh 29.89 in1012.2 mb 0.00 in0.0 mm 0.00 in/hr0.0 mm/hr 0.02 in0.5 mm
04:32 PM 64.2°F17.9°C 54.7°F12.6°C 71% 4.0 mph SW6.4 kmh SW 6.9 mph11.1 kmh 29.89 in1012.2 mb 0.00 in0.0 mm 0.00 in/hr0.0 mm/hr 0.02 in0.5 mm
04:31 PM 64.2°F17.9°C 54.7°F12.6°C 71% 4.0 mph SW6.4 kmh SW 8.1 mph13.0 kmh 29.89 in1012.2 mb 0.01 in0.3 mm 0.00 in/hr0.0 mm/hr 0.02 in0.5 mm
04:30 PM 64.0°F17.8°C 54.9°F12.7°C 72% 4.0 mph SW6.4 kmh SW 6.0 mph9.7 kmh 29.89 in1012.2 mb 0.01 in0.3 mm 0.00 in/hr0.0 mm/hr 0.02 in0.5 mm
04:29 PM 64.0°F17.8°C 55.2°F12.9°C 73% 4.0 mph WSW6.4 kmh WSW 7.0 mph11.3 kmh 29.89 in1012.2 mb 0.01 in0.3 mm 0.00 in/hr0.0 mm/hr 0.02 in0.5 mm
04:28 PM 63.9°F17.7°C 55.0°F12.8°C 73% 4.0 mph SW6.4 kmh SW 7.0 mph11.3 kmh 29.89 in1012.2 mb 0.01 in0.3 mm 0.00 in/hr0.0 mm/hr 0.02 in0.5 mm
04:27 PM 63.9°F17.7°C 55.4°F13.0°C 74% 4.0 mph SW6.4 kmh SW 6.0 mph9.7 kmh 29.89 in1012.2 mb 0.01 in0.3 mm 0.00 in/hr0.0 mm/hr 0.02 in0.5 mm
04:26 PM 63.9°F17.7°C 55.0°F12.8°C 73% 4.0 mph SW6.4 kmh SW 6.0 mph9.7 kmh 29.89 in1012.2 mb 0.01 in0.3 mm 0.00 in/hr0.0 mm/hr 0.02 in0.5 mm
04:25 PM 63.9°F17.7°C 55.4°F13.0°C 74% 4.0 mph SW6.4 kmh SW 4.0 mph6.4 kmh 29.89 in1012.2 mb 0.01 in0.3 mm 0.00 in/hr0.0 mm/hr 0.02 in0.5 mm
04:24 PM 63.7°F17.6°C 54.9°F12.7°C 73% 4.0 mph W6.4 kmh W 6.0 mph9.7 kmh 29.89 in1012.2 mb 0.01 in0.3 mm 0.00 in/hr0.0 mm/hr 0.02 in0.5 mm
04:23 PM 63.7°F17.6°C 54.9°F12.7°C 73% 4.0 mph SW6.4 kmh SW 6.0 mph9.7 kmh 29.89 in1012.2 mb 0.01 in0.3 mm 0.00 in/hr0.0 mm/hr 0.02 in0.5 mm
04:22 PM 63.7°F17.6°C 54.9°F12.7°C 73% 4.0 mph SW6.4 kmh SW 4.0 mph6.4 kmh 29.89 in1012.2 mb 0.01 in0.3 mm 0.00 in/hr0.0 mm/hr 0.02 in0.5 mm
04:21 PM 63.7°F17.6°C 54.9°F12.7°C 73% 4.0 mph WSW6.4 kmh WSW 6.0 mph9.7 kmh 29.89 in1012.2 mb 0.01 in0.3 mm 0.00 in/hr0.0 mm/hr 0.02 in0.5 mm
04:20 PM 63.5°F17.5°C 54.3°F12.4°C 72% 4.0 mph SW6.4 kmh SW 6.0 mph9.7 kmh 29.89 in1012.2 mb 0.01 in0.3 mm 0.00 in/hr0.0 mm/hr 0.02 in0.5 mm
04:19 PM 63.5°F17.5°C 54.3°F12.4°C 72% 4.0 mph WSW6.4 kmh WSW 6.0 mph9.7 kmh 29.89 in1012.2 mb 0.01 in0.3 mm 0.00 in/hr0.0 mm/hr 0.02 in0.5 mm
04:18 PM 63.3°F17.4°C 54.9°F12.7°C 74% 4.9 mph WSW7.9 kmh WSW 4.9 mph7.9 kmh 29.89 in1012.2 mb 0.01 in0.3 mm 0.00 in/hr0.0 mm/hr 0.02 in0.5 mm
04:17 PM 63.3°F17.4°C 54.1°F12.3°C 72% 4.9 mph SW7.9 kmh SW 6.0 mph9.7 kmh 29.89 in1012.2 mb 0.01 in0.3 mm 0.00 in/hr0.0 mm/hr 0.02 in0.5 mm
04:16 PM 63.3°F17.4°C 54.5°F12.5°C 73% 4.9 mph WSW7.9 kmh WSW 6.0 mph9.7 kmh 29.89 in1012.2 mb 0.01 in0.3 mm 0.00 in/hr0.0 mm/hr 0.02 in0.5 mm
04:15 PM 63.3°F17.4°C 54.1°F12.3°C 72% 4.9 mph SW7.9 kmh SW 6.9 mph11.1 kmh 29.88 in1011.9 mb 0.01 in0.3 mm 0.00 in/hr0.0 mm/hr 0.02 in0.5 mm
04:14 PM 63.3°F17.4°C 54.5°F12.5°C 73% 4.9 mph WSW7.9 kmh WSW 8.1 mph13.0 kmh 29.88 in1011.9 mb 0.01 in0.3 mm 0.00 in/hr0.0 mm/hr 0.02 in0.5 mm
04:13 PM 63.3°F17.4°C 54.1°F12.3°C 72% 4.9 mph WSW7.9 kmh WSW 8.1 mph13.0 kmh 29.88 in1011.9 mb 0.01 in0.3 mm 0.00 in/hr0.0 mm/hr 0.02 in0.5 mm
04:12 PM 63.3°F17.4°C 54.1°F12.3°C 72% 4.9 mph SW7.9 kmh SW 6.9 mph11.1 kmh 29.88 in1011.9 mb 0.01 in0.3 mm 0.00 in/hr0.0 mm/hr 0.02 in0.5 mm
04:11 PM 63.5°F17.5°C 54.7°F12.6°C 73% 4.9 mph WSW7.9 kmh WSW 6.0 mph9.7 kmh 29.88 in1011.9 mb 0.01 in0.3 mm 0.00 in/hr0.0 mm/hr 0.02 in0.5 mm
04:10 PM 63.5°F17.5°C 54.7°F12.6°C 73% 4.9 mph WSW7.9 kmh WSW 4.9 mph7.9 kmh 29.88 in1011.9 mb 0.01 in0.3 mm 0.00 in/hr0.0 mm/hr 0.02 in0.5 mm
04:09 PM 63.5°F17.5°C 54.0°F12.2°C 71% 4.9 mph WSW7.9 kmh WSW 6.9 mph11.1 kmh 29.88 in1011.9 mb 0.01 in0.3 mm 0.00 in/hr0.0 mm/hr 0.02 in0.5 mm
04:08 PM 63.5°F17.5°C 54.3°F12.4°C 72% 4.9 mph SW7.9 kmh SW 8.1 mph13.0 kmh 29.88 in1011.9 mb 0.01 in0.3 mm 0.00 in/hr0.0 mm/hr 0.02 in0.5 mm
04:07 PM 63.7°F17.6°C 54.5°F12.5°C 72% 4.9 mph SW7.9 kmh SW 6.0 mph9.7 kmh 29.88 in1011.9 mb 0.01 in0.3 mm 0.00 in/hr0.0 mm/hr 0.02 in0.5 mm
04:06 PM 63.7°F17.6°C 54.5°F12.5°C 72% 4.9 mph SW7.9 kmh SW 4.9 mph7.9 kmh 29.88 in1011.9 mb 0.01 in0.3 mm 0.00 in/hr0.0 mm/hr 0.02 in0.5 mm
04:05 PM 63.9°F17.7°C 54.3°F12.4°C 71% 4.9 mph SW7.9 kmh SW 8.1 mph13.0 kmh 29.88 in1011.9 mb 0.01 in0.3 mm 0.00 in/hr0.0 mm/hr 0.02 in0.5 mm
04:04 PM 63.9°F17.7°C 54.0°F12.2°C 70% 4.9 mph SW7.9 kmh SW 8.1 mph13.0 kmh 29.88 in1011.9 mb 0.01 in0.3 mm 0.00 in/hr0.0 mm/hr 0.02 in0.5 mm
04:03 PM 64.0°F17.8°C 54.1°F12.3°C 70% 4.9 mph SW7.9 kmh SW 6.9 mph11.1 kmh 29.88 in1011.9 mb 0.01 in0.3 mm 0.00 in/hr0.0 mm/hr 0.02 in0.5 mm
04:02 PM 64.0°F17.8°C 53.6°F12.0°C 69% 4.9 mph SW7.9 kmh SW 6.0 mph9.7 kmh 29.88 in1011.9 mb 0.01 in0.3 mm 0.00 in/hr0.0 mm/hr 0.02 in0.5 mm
04:01 PM 64.2°F17.9°C 53.1°F11.7°C 67% 4.9 mph SW7.9 kmh SW 6.9 mph11.1 kmh 29.88 in1011.9 mb 0.01 in0.3 mm 0.00 in/hr0.0 mm/hr 0.02 in0.5 mm
04:00 PM 64.2°F17.9°C 53.1°F11.7°C 67% 4.9 mph SW7.9 kmh SW 6.9 mph11.1 kmh 29.88 in1011.9 mb 0.01 in0.3 mm 0.00 in/hr0.0 mm/hr 0.02 in0.5 mm
03:59 PM 64.2°F17.9°C 52.7°F11.5°C 66% 4.9 mph SSW7.9 kmh SSW 10.1 mph16.3 kmh 29.88 in1011.9 mb 0.01 in0.3 mm 0.00 in/hr0.0 mm/hr 0.02 in0.5 mm
03:58 PM 64.2°F17.9°C 52.7°F11.5°C 66% 4.9 mph WSW7.9 kmh WSW 8.9 mph14.3 kmh 29.88 in1011.9 mb 0.01 in0.3 mm 0.00 in/hr0.0 mm/hr 0.02 in0.5 mm
03:57 PM 64.2°F17.9°C 52.7°F11.5°C 66% 4.9 mph WSW7.9 kmh WSW 8.9 mph14.3 kmh 29.88 in1011.9 mb 0.01 in0.3 mm 0.00 in/hr0.0 mm/hr 0.02 in0.5 mm
03:56 PM 64.2°F17.9°C 52.7°F11.5°C 66% 4.0 mph WSW6.4 kmh WSW 8.1 mph13.0 kmh 29.88 in1011.9 mb 0.01 in0.3 mm 0.00 in/hr0.0 mm/hr 0.02 in0.5 mm
03:55 PM 64.0°F17.8°C 52.0°F11.1°C 65% 4.0 mph WSW6.4 kmh WSW 8.1 mph13.0 kmh 29.88 in1011.9 mb 0.01 in0.3 mm 0.00 in/hr0.0 mm/hr 0.02 in0.5 mm
03:54 PM 64.0°F17.8°C 52.0°F11.1°C 65% 4.0 mph WSW6.4 kmh WSW 8.1 mph13.0 kmh 29.88 in1011.9 mb 0.01 in0.3 mm 0.00 in/hr0.0 mm/hr 0.02 in0.5 mm
03:53 PM 64.0°F17.8°C 52.5°F11.4°C 66% 4.0 mph WSW6.4 kmh WSW 8.1 mph13.0 kmh 29.88 in1011.9 mb 0.01 in0.3 mm 0.00 in/hr0.0 mm/hr 0.02 in0.5 mm
03:52 PM 64.0°F17.8°C 52.9°F11.6°C 67% 4.0 mph SW6.4 kmh SW 8.1 mph13.0 kmh 29.88 in1011.9 mb 0.01 in0.3 mm 0.00 in/hr0.0 mm/hr 0.02 in0.5 mm
03:51 PM 64.0°F17.8°C 52.5°F11.4°C 66% 4.0 mph WSW6.4 kmh WSW 6.9 mph11.1 kmh 29.88 in1011.9 mb 0.01 in0.3 mm 0.00 in/hr0.0 mm/hr 0.02 in0.5 mm
03:50 PM 64.0°F17.8°C 52.9°F11.6°C 67% 4.0 mph SW6.4 kmh SW 8.1 mph13.0 kmh 29.88 in1011.9 mb 0.01 in0.3 mm 0.00 in/hr0.0 mm/hr 0.02 in0.5 mm
03:49 PM 63.9°F17.7°C 52.3°F11.3°C 66% 4.0 mph WSW6.4 kmh WSW 6.9 mph11.1 kmh 29.88 in1011.9 mb 0.01 in0.3 mm 0.00 in/hr0.0 mm/hr 0.02 in0.5 mm
03:48 PM 63.9°F17.7°C 54.0°F12.2°C 70% 4.0 mph W6.4 kmh W 6.0 mph9.7 kmh 29.88 in1011.9 mb 0.01 in0.3 mm 0.00 in/hr0.0 mm/hr 0.02 in0.5 mm
03:47 PM 64.0°F17.8°C 54.5°F12.5°C 71% 4.0 mph WSW6.4 kmh WSW 2.9 mph4.7 kmh 29.88 in1011.9 mb 0.01 in0.3 mm 0.00 in/hr0.0 mm/hr 0.02 in0.5 mm
03:46 PM 64.0°F17.8°C 54.9°F12.7°C 72% 4.0 mph WSW6.4 kmh WSW 6.0 mph9.7 kmh 29.88 in1011.9 mb 0.01 in0.3 mm 0.00 in/hr0.0 mm/hr 0.02 in0.5 mm
03:45 PM 64.2°F17.9°C 54.7°F12.6°C 71% 4.9 mph SW7.9 kmh SW 6.0 mph9.7 kmh 29.88 in1011.9 mb 0.01 in0.3 mm 0.00 in/hr0.0 mm/hr 0.02 in0.5 mm
03:44 PM 64.4°F18.0°C 54.3°F12.4°C 70% 4.9 mph WSW7.9 kmh WSW 4.9 mph7.9 kmh 29.88 in1011.9 mb 0.01 in0.3 mm 0.00 in/hr0.0 mm/hr 0.02 in0.5 mm
03:42 PM 64.6°F18.1°C 54.5°F12.5°C 70% 4.9 mph SW7.9 kmh SW 6.0 mph9.7 kmh 29.88 in1011.9 mb 0.01 in0.3 mm 0.00 in/hr0.0 mm/hr 0.02 in0.5 mm
03:41 PM 64.6°F18.1°C 52.9°F11.6°C 66% 4.9 mph SW7.9 kmh SW 6.9 mph11.1 kmh 29.88 in1011.9 mb 0.01 in0.3 mm 0.00 in/hr0.0 mm/hr 0.02 in0.5 mm
03:40 PM 64.6°F18.1°C 54.1°F12.3°C 69% 4.9 mph SSW7.9 kmh SSW 6.0 mph9.7 kmh 29.88 in1011.9 mb 0.01 in0.3 mm 0.00 in/hr0.0 mm/hr 0.02 in0.5 mm
03:39 PM 64.8°F18.2°C 54.7°F12.6°C 70% 4.9 mph SSW7.9 kmh SSW 4.9 mph7.9 kmh 29.88 in1011.9 mb 0.01 in0.3 mm 0.00 in/hr0.0 mm/hr 0.02 in0.5 mm
03:38 PM 64.9°F18.3°C 53.8°F12.1°C 67% 6.0 mph SSW9.7 kmh SSW 4.9 mph7.9 kmh 29.88 in1011.9 mb 0.01 in0.3 mm 0.00 in/hr0.0 mm/hr 0.02 in0.5 mm
03:37 PM 64.9°F18.3°C 53.8°F12.1°C 67% 6.0 mph SE9.7 kmh SE 6.0 mph9.7 kmh 29.88 in1011.9 mb 0.01 in0.3 mm 0.00 in/hr0.0 mm/hr 0.02 in0.5 mm
03:36 PM 65.1°F18.4°C 54.0°F12.2°C 67% 6.9 mph SSE11.1 kmh SSE 6.0 mph9.7 kmh 29.88 in1011.9 mb 0.01 in0.3 mm 0.00 in/hr0.0 mm/hr 0.02 in0.5 mm
03:35 PM 65.5°F18.6°C 54.3°F12.4°C 67% 6.9 mph S11.1 kmh S 8.1 mph13.0 kmh 29.88 in1011.9 mb 0.01 in0.3 mm 0.00 in/hr0.0 mm/hr 0.02 in0.5 mm
03:34 PM 65.8°F18.8°C 53.8°F12.1°C 65% 6.9 mph SW11.1 kmh SW 8.9 mph14.3 kmh 29.88 in1011.9 mb 0.01 in0.3 mm 0.00 in/hr0.0 mm/hr 0.02 in0.5 mm
03:33 PM 66.2°F19.0°C 53.6°F12.0°C 64% 8.1 mph SSW13.0 kmh SSW 8.9 mph14.3 kmh 29.88 in1011.9 mb 0.01 in0.3 mm 0.60 in/hr15.2 mm/hr 0.02 in0.5 mm
03:32 PM 66.7°F19.3°C 53.8°F12.1°C 63% 8.1 mph SW13.0 kmh SW 8.9 mph14.3 kmh 29.88 in1011.9 mb 0.00 in0.0 mm 0.00 in/hr0.0 mm/hr 0.02 in0.5 mm
03:31 PM 67.3°F19.6°C 53.8°F12.1°C 62% 8.9 mph SW14.3 kmh SW 8.9 mph14.3 kmh 29.88 in1011.9 mb 0.00 in0.0 mm 0.00 in/hr0.0 mm/hr 0.02 in0.5 mm
03:30 PM 67.6°F19.8°C 53.2°F11.8°C 60% 8.9 mph SW14.3 kmh SW 8.1 mph13.0 kmh 29.88 in1011.9 mb 0.00 in0.0 mm 0.00 in/hr0.0 mm/hr 0.01 in0.3 mm
03:29 PM 67.8°F19.9°C 52.5°F11.4°C 58% 8.9 mph SW14.3 kmh SW 11.0 mph17.7 kmh 29.88 in1011.9 mb 0.00 in0.0 mm 0.00 in/hr0.0 mm/hr 0.01 in0.3 mm
03:28 PM 68.2°F20.1°C 51.4°F10.8°C 55% 8.9 mph WSW14.3 kmh WSW 11.0 mph17.7 kmh 29.88 in1011.9 mb 0.00 in0.0 mm 0.00 in/hr0.0 mm/hr 0.01 in0.3 mm
03:27 PM 68.4°F20.2°C 51.6°F10.9°C 55% 10.1 mph W16.3 kmh W 13.0 mph20.9 kmh 29.88 in1011.9 mb 0.00 in0.0 mm 0.00 in/hr0.0 mm/hr 0.01 in0.3 mm
03:26 PM 68.5°F20.3°C 50.7°F10.4°C 53% 10.1 mph W16.3 kmh W 15.0 mph24.1 kmh 29.88 in1011.9 mb 0.00 in0.0 mm 0.00 in/hr0.0 mm/hr 0.01 in0.3 mm
03:25 PM 68.7°F20.4°C 52.9°F11.6°C 57% 10.1 mph NW16.3 kmh NW 13.0 mph20.9 kmh 29.88 in1011.9 mb 0.00 in0.0 mm 0.00 in/hr0.0 mm/hr 0.01 in0.3 mm
03:24 PM 68.9°F20.5°C 53.1°F11.7°C 57% 10.1 mph NNW16.3 kmh NNW 15.0 mph24.1 kmh 29.88 in1011.9 mb 0.00 in0.0 mm 0.00 in/hr0.0 mm/hr 0.01 in0.3 mm
03:23 PM 68.9°F20.5°C 51.6°F10.9°C 54% 8.9 mph NW14.3 kmh NW 15.0 mph24.1 kmh 29.88 in1011.9 mb 0.00 in0.0 mm 0.00 in/hr0.0 mm/hr 0.01 in0.3 mm
03:22 PM 69.1°F20.6°C 53.2°F11.8°C 57% 8.9 mph WNW14.3 kmh WNW 12.1 mph19.5 kmh 29.88 in1011.9 mb 0.00 in0.0 mm 0.00 in/hr0.0 mm/hr 0.01 in0.3 mm
03:21 PM 69.1°F20.6°C 52.7°F11.5°C 56% 8.1 mph NW13.0 kmh NW 13.0 mph20.9 kmh 29.88 in1011.9 mb 0.00 in0.0 mm 0.00 in/hr0.0 mm/hr 0.01 in0.3 mm
03:20 PM 69.3°F20.7°C 52.3°F11.3°C 55% 8.1 mph WNW13.0 kmh WNW 12.1 mph19.5 kmh 29.88 in1011.9 mb 0.00 in0.0 mm 0.00 in/hr0.0 mm/hr 0.01 in0.3 mm
03:19 PM 69.4°F20.8°C 52.2°F11.2°C 54% 8.1 mph W13.0 kmh W 12.1 mph19.5 kmh 29.88 in1011.9 mb 0.00 in0.0 mm 0.00 in/hr0.0 mm/hr 0.01 in0.3 mm
03:18 PM 69.6°F20.9°C 51.8°F11.0°C 53% 6.9 mph WNW11.1 kmh WNW 14.1 mph22.7 kmh 29.88 in1011.9 mb 0.00 in0.0 mm 0.00 in/hr0.0 mm/hr 0.01 in0.3 mm
03:17 PM 69.8°F21.0°C 50.9°F10.5°C 51% 6.0 mph W9.7 kmh W 16.1 mph25.9 kmh 29.88 in1011.9 mb 0.00 in0.0 mm 0.00 in/hr0.0 mm/hr 0.01 in0.3 mm
03:16 PM 70.0°F21.1°C 52.0°F11.1°C 53% 6.0 mph WNW9.7 kmh WNW 16.0 mph25.7 kmh 29.88 in1011.9 mb 0.00 in0.0 mm 0.00 in/hr0.0 mm/hr 0.01 in0.3 mm
03:15 PM 70.2°F21.2°C 53.2°F11.8°C 55% 4.9 mph W7.9 kmh W 15.0 mph24.1 kmh 29.88 in1011.9 mb 0.00 in0.0 mm 0.00 in/hr0.0 mm/hr 0.01 in0.3 mm
03:14 PM 70.5°F21.4°C 54.5°F12.5°C 57% 4.9 mph WNW7.9 kmh WNW 12.1 mph19.5 kmh 29.86 in1011.2 mb 0.00 in0.0 mm 0.00 in/hr0.0 mm/hr 0.01 in0.3 mm
03:13 PM 70.5°F21.4°C 54.5°F12.5°C 57% 4.0 mph WNW6.4 kmh WNW 8.9 mph14.3 kmh 29.86 in1011.2 mb 0.00 in0.0 mm 0.00 in/hr0.0 mm/hr 0.01 in0.3 mm
03:12 PM 70.9°F21.6°C 54.3°F12.4°C 56% 4.0 mph W6.4 kmh W 8.9 mph14.3 kmh 29.86 in1011.2 mb 0.00 in0.0 mm 0.00 in/hr0.0 mm/hr 0.01 in0.3 mm
03:11 PM 70.9°F21.6°C 54.3°F12.4°C 56% 4.0 mph SW6.4 kmh SW 6.0 mph9.7 kmh 29.86 in1011.2 mb 0.00 in0.0 mm 0.00 in/hr0.0 mm/hr 0.01 in0.3 mm
03:10 PM 71.1°F21.7°C 54.1°F12.3°C 55% 4.0 mph WSW6.4 kmh WSW 6.9 mph11.1 kmh 29.86 in1011.2 mb 0.00 in0.0 mm 0.00 in/hr0.0 mm/hr 0.01 in0.3 mm
03:09 PM 71.2°F21.8°C 55.8°F13.2°C 58% 4.0 mph WSW6.4 kmh WSW 6.9 mph11.1 kmh 29.86 in1011.2 mb 0.00 in0.0 mm 0.00 in/hr0.0 mm/hr 0.01 in0.3 mm
03:08 PM 71.4°F21.9°C 55.4°F13.0°C 57% 4.0 mph WSW6.4 kmh WSW 6.9 mph11.1 kmh 29.86 in1011.2 mb 0.00 in0.0 mm 0.00 in/hr0.0 mm/hr 0.01 in0.3 mm
03:07 PM 71.4°F21.9°C 54.9°F12.7°C 56% 4.0 mph SW6.4 kmh SW 6.0 mph9.7 kmh 29.86 in1011.2 mb 0.00 in0.0 mm 0.00 in/hr0.0 mm/hr 0.01 in0.3 mm
03:06 PM 71.6°F22.0°C 54.5°F12.5°C 55% 4.0 mph WSW6.4 kmh WSW 6.9 mph11.1 kmh 29.86 in1011.2 mb 0.00 in0.0 mm 0.00 in/hr0.0 mm/hr 0.01 in0.3 mm
03:05 PM 71.8°F22.1°C 55.2°F12.9°C 56% 2.9 mph WSW4.7 kmh WSW 6.9 mph11.1 kmh 29.86 in1011.2 mb 0.00 in0.0 mm 0.00 in/hr0.0 mm/hr 0.01 in0.3 mm
03:04 PM 71.8°F22.1°C 54.7°F12.6°C 55% 2.9 mph SW4.7 kmh SW 8.0 mph12.9 kmh 29.86 in1011.2 mb 0.00 in0.0 mm 0.00 in/hr0.0 mm/hr 0.01 in0.3 mm
03:03 PM 71.8°F22.1°C 53.8°F12.1°C 53% 2.9 mph WSW4.7 kmh WSW 7.0 mph11.3 kmh 29.86 in1011.2 mb 0.00 in0.0 mm 0.00 in/hr0.0 mm/hr 0.01 in0.3 mm
03:02 PM 72.0°F22.2°C 54.9°F12.7°C 55% 2.9 mph SW4.7 kmh SW 4.9 mph7.9 kmh 29.86 in1011.2 mb 0.00 in0.0 mm 0.00 in/hr0.0 mm/hr 0.01 in0.3 mm
03:01 PM 71.8°F22.1°C 54.3°F12.4°C 54% 2.9 mph WSW4.7 kmh WSW 4.0 mph6.4 kmh 29.86 in1011.2 mb 0.00 in0.0 mm 0.00 in/hr0.0 mm/hr 0.01 in0.3 mm
03:00 PM 71.8°F22.1°C 54.7°F12.6°C 55% 2.9 mph W4.7 kmh W 4.0 mph6.4 kmh 29.86 in1011.2 mb 0.00 in0.0 mm 0.00 in/hr0.0 mm/hr 0.01 in0.3 mm
02:59 PM 71.8°F22.1°C 54.7°F12.6°C 55% 2.9 mph W4.7 kmh W 2.9 mph4.7 kmh 29.86 in1011.2 mb 0.00 in0.0 mm 0.00 in/hr0.0 mm/hr 0.01 in0.3 mm
02:58 PM 71.6°F22.0°C 53.6°F12.0°C 53% 4.0 mph W6.4 kmh W 6.0 mph9.7 kmh 29.86 in1011.2 mb 0.00 in0.0 mm 0.00 in/hr0.0 mm/hr 0.01 in0.3 mm
02:57 PM 71.6°F22.0°C 53.6°F12.0°C 53% 4.0 mph SW6.4 kmh SW 6.0 mph9.7 kmh 29.86 in1011.2 mb 0.00 in0.0 mm 0.00 in/hr0.0 mm/hr 0.01 in0.3 mm
02:56 PM 71.4°F21.9°C 55.4°F13.0°C 57% 4.0 mph WSW6.4 kmh WSW 6.0 mph9.7 kmh 29.86 in1011.2 mb 0.00 in0.0 mm 0.00 in/hr0.0 mm/hr 0.01 in0.3 mm
02:55 PM 71.4°F21.9°C 53.4°F11.9°C 53% 4.0 mph WNW6.4 kmh WNW 4.0 mph6.4 kmh 29.86 in1011.2 mb 0.00 in0.0 mm 0.00 in/hr0.0 mm/hr 0.01 in0.3 mm
02:54 PM 71.4°F21.9°C 54.5°F12.5°C 55% 4.0 mph WNW6.4 kmh WNW 4.0 mph6.4 kmh 29.86 in1011.2 mb 0.00 in0.0 mm 0.00 in/hr0.0 mm/hr 0.01 in0.3 mm
02:53 PM 71.2°F21.8°C 55.2°F12.9°C 57% 4.0 mph W6.4 kmh W 4.0 mph6.4 kmh 29.86 in1011.2 mb 0.00 in0.0 mm 0.00 in/hr0.0 mm/hr 0.01 in0.3 mm
02:52 PM 71.2°F21.8°C 54.3°F12.4°C 55% 4.0 mph W6.4 kmh W 4.0 mph6.4 kmh 29.86 in1011.2 mb 0.00 in0.0 mm 0.00 in/hr0.0 mm/hr 0.01 in0.3 mm
02:51 PM 71.4°F21.9°C 54.0°F12.2°C 54% 4.0 mph WNW6.4 kmh WNW 4.0 mph6.4 kmh 29.86 in1011.2 mb 0.00 in0.0 mm 0.00 in/hr0.0 mm/hr 0.01 in0.3 mm
02:50 PM 71.4°F21.9°C 54.5°F12.5°C 55% 4.0 mph WNW6.4 kmh WNW 4.9 mph7.9 kmh 29.86 in1011.2 mb 0.00 in0.0 mm 0.00 in/hr0.0 mm/hr 0.01 in0.3 mm
02:49 PM 71.4°F21.9°C 53.4°F11.9°C 53% 4.0 mph WNW6.4 kmh WNW 6.0 mph9.7 kmh 29.86 in1011.2 mb 0.00 in0.0 mm 0.00 in/hr0.0 mm/hr 0.01 in0.3 mm
02:48 PM 71.6°F22.0°C 54.5°F12.5°C 55% 4.0 mph NW6.4 kmh NW 6.0 mph9.7 kmh 29.86 in1011.2 mb 0.00 in0.0 mm 0.00 in/hr0.0 mm/hr 0.01 in0.3 mm
02:47 PM 71.8°F22.1°C 53.2°F11.8°C 52% 2.9 mph W4.7 kmh W 6.9 mph11.1 kmh 29.86 in1011.2 mb 0.00 in0.0 mm 0.00 in/hr0.0 mm/hr 0.01 in0.3 mm
02:46 PM 71.8°F22.1°C 53.8°F12.1°C 53% 2.9 mph WNW4.7 kmh WNW 6.0 mph9.7 kmh 29.86 in1011.2 mb 0.00 in0.0 mm 0.00 in/hr0.0 mm/hr 0.01 in0.3 mm
02:45 PM 72.0°F22.2°C 52.9°F11.6°C 51% 2.9 mph W4.7 kmh W 4.9 mph7.9 kmh 29.86 in1011.2 mb 0.00 in0.0 mm 0.00 in/hr0.0 mm/hr 0.01 in0.3 mm
02:44 PM 72.0°F22.2°C 53.4°F11.9°C 52% 2.9 mph WNW4.7 kmh WNW 4.9 mph7.9 kmh 29.87 in1011.5 mb 0.00 in0.0 mm 0.00 in/hr0.0 mm/hr 0.01 in0.3 mm
02:43 PM 72.0°F22.2°C 52.9°F11.6°C 51% 2.9 mph W4.7 kmh W 4.9 mph7.9 kmh 29.87 in1011.5 mb 0.00 in0.0 mm 0.00 in/hr0.0 mm/hr 0.01 in0.3 mm
02:42 PM 72.0°F22.2°C 52.9°F11.6°C 51% 2.0 mph W3.2 kmh W 4.9 mph7.9 kmh 29.87 in1011.5 mb 0.00 in0.0 mm 0.00 in/hr0.0 mm/hr 0.01 in0.3 mm
02:41 PM 72.0°F22.2°C 50.7°F10.4°C 47% 2.0 mph WSW3.2 kmh WSW 6.0 mph9.7 kmh 29.87 in1011.5 mb 0.00 in0.0 mm 0.00 in/hr0.0 mm/hr 0.01 in0.3 mm
02:40 PM 72.0°F22.2°C 52.9°F11.6°C 51% 2.0 mph WSW3.2 kmh WSW 4.0 mph6.4 kmh 29.87 in1011.5 mb 0.00 in0.0 mm 0.00 in/hr0.0 mm/hr 0.01 in0.3 mm
02:39 PM 72.0°F22.2°C 54.9°F12.7°C 55% 0.9 mph W1.4 kmh W 2.9 mph4.7 kmh 29.87 in1011.5 mb 0.00 in0.0 mm 0.00 in/hr0.0 mm/hr 0.01 in0.3 mm
02:38 PM 72.1°F22.3°C 54.5°F12.5°C 54% 0.9 mph WNW1.4 kmh WNW 2.9 mph4.7 kmh 29.87 in1011.5 mb 0.00 in0.0 mm 0.00 in/hr0.0 mm/hr 0.01 in0.3 mm
02:37 PM 72.1°F22.3°C 54.1°F12.3°C 53% 0.9 mph WNW1.4 kmh WNW 4.9 mph7.9 kmh 29.87 in1011.5 mb 0.00 in0.0 mm 0.00 in/hr0.0 mm/hr 0.01 in0.3 mm
02:36 PM 72.3°F22.4°C 54.1°F12.3°C 53% Calm Calm 4.9 mph7.9 kmh 29.87 in1011.5 mb 0.00 in0.0 mm 0.00 in/hr0.0 mm/hr 0.01 in0.3 mm
02:35 PM 72.3°F22.4°C 54.1°F12.3°C 53% Calm Calm 3.0 mph4.8 kmh 29.87 in1011.5 mb 0.00 in0.0 mm 0.00 in/hr0.0 mm/hr 0.01 in0.3 mm
02:34 PM 72.3°F22.4°C 53.8°F12.1°C 52% Calm Calm 0.9 mph1.4 kmh 29.87 in1011.5 mb 0.00 in0.0 mm 0.00 in/hr0.0 mm/hr 0.01 in0.3 mm
02:33 PM 72.3°F22.4°C 53.8°F12.1°C 52% Calm Calm 0.9 mph1.4 kmh 29.87 in1011.5 mb 0.00 in0.0 mm 0.00 in/hr0.0 mm/hr 0.01 in0.3 mm
02:32 PM 72.3°F22.4°C 53.8°F12.1°C 52% 0.9 mph NW1.4 kmh NW 0.9 mph1.4 kmh 29.87 in1011.5 mb 0.00 in0.0 mm 0.00 in/hr0.0 mm/hr 0.01 in0.3 mm
02:31 PM 72.3°F22.4°C 54.1°F12.3°C 53% 0.9 mph NNE1.4 kmh NNE -- 29.87 in1011.5 mb 0.00 in0.0 mm 0.00 in/hr0.0 mm/hr 0.01 in0.3 mm
02:30 PM 72.3°F22.4°C 54.7°F12.6°C 54% 0.9 mph NNE1.4 kmh NNE 0.9 mph1.4 kmh 29.87 in1011.5 mb 0.00 in0.0 mm 0.00 in/hr0.0 mm/hr 0.01 in0.3 mm
02:29 PM 72.1°F22.3°C 52.5°F11.4°C 50% 0.9 mph NNE1.4 kmh NNE -- 29.87 in1011.5 mb 0.00 in0.0 mm 0.00 in/hr0.0 mm/hr 0.01 in0.3 mm
02:28 PM 72.1°F22.3°C 51.4°F10.8°C 48% 0.9 mph NNE1.4 kmh NNE -- 29.87 in1011.5 mb 0.00 in0.0 mm 0.00 in/hr0.0 mm/hr 0.01 in0.3 mm
02:27 PM 72.1°F22.3°C 53.1°F11.7°C 51% 0.9 mph NNE1.4 kmh NNE 0.9 mph1.4 kmh 29.87 in1011.5 mb 0.00 in0.0 mm 0.00 in/hr0.0 mm/hr 0.01 in0.3 mm
02:26 PM 72.0°F22.2°C 51.8°F11.0°C 49% 0.9 mph NNE1.4 kmh NNE 0.9 mph1.4 kmh 29.87 in1011.5 mb 0.00 in0.0 mm 0.00 in/hr0.0 mm/hr 0.01 in0.3 mm
02:25 PM 72.0°F22.2°C 52.3°F11.3°C 50% Calm Calm 0.9 mph1.4 kmh 29.87 in1011.5 mb 0.00 in0.0 mm 0.00 in/hr0.0 mm/hr 0.01 in0.3 mm
02:24 PM 72.0°F22.2°C 52.3°F11.3°C 50% Calm Calm 0.9 mph1.4 kmh 29.87 in1011.5 mb 0.00 in0.0 mm 0.00 in/hr0.0 mm/hr 0.01 in0.3 mm
02:23 PM 71.8°F22.1°C 53.2°F11.8°C 52% Calm Calm 2.9 mph4.7 kmh 29.87 in1011.5 mb 0.00 in0.0 mm 0.00 in/hr0.0 mm/hr 0.01 in0.3 mm
02:22 PM 71.6°F22.0°C 53.1°F11.7°C 52% Calm Calm 2.9 mph4.7 kmh 29.87 in1011.5 mb 0.00 in0.0 mm 0.00 in/hr0.0 mm/hr 0.01 in0.3 mm
02:21 PM 71.4°F21.9°C 52.3°F11.3°C 51% Calm Calm 0.9 mph1.4 kmh 29.87 in1011.5 mb 0.00 in0.0 mm 0.00 in/hr0.0 mm/hr 0.01 in0.3 mm
02:20 PM 71.4°F21.9°C 52.9°F11.6°C 52% Calm Calm 0.9 mph1.4 kmh 29.87 in1011.5 mb 0.00 in0.0 mm 0.00 in/hr0.0 mm/hr 0.01 in0.3 mm
02:19 PM 71.4°F21.9°C 54.0°F12.2°C 54% Calm Calm 0.9 mph1.4 kmh 29.87 in1011.5 mb 0.00 in0.0 mm 0.00 in/hr0.0 mm/hr 0.01 in0.3 mm
02:18 PM 71.2°F21.8°C 52.7°F11.5°C 52% Calm Calm 0.9 mph1.4 kmh 29.87 in1011.5 mb 0.00 in0.0 mm 0.00 in/hr0.0 mm/hr 0.01 in0.3 mm
02:17 PM 71.2°F21.8°C 53.2°F11.8°C 53% Calm Calm -- 29.87 in1011.5 mb 0.00 in0.0 mm 0.00 in/hr0.0 mm/hr 0.01 in0.3 mm
02:16 PM 71.1°F21.7°C 53.6°F12.0°C 54% Calm Calm -- 29.87 in1011.5 mb 0.00 in0.0 mm 0.00 in/hr0.0 mm/hr 0.01 in0.3 mm
02:15 PM 71.1°F21.7°C 53.6°F12.0°C 54% Calm Calm -- 29.87 in1011.5 mb 0.00 in0.0 mm 0.00 in/hr0.0 mm/hr 0.01 in0.3 mm
02:14 PM 70.9°F21.6°C 52.9°F11.6°C 53% Calm Calm 0.9 mph1.4 kmh 29.87 in1011.5 mb 0.00 in0.0 mm 0.00 in/hr0.0 mm/hr 0.01 in0.3 mm
02:13 PM 70.9°F21.6°C 52.3°F11.3°C 52% Calm Calm 2.0 mph3.2 kmh 29.87 in1011.5 mb 0.00 in0.0 mm 0.00 in/hr0.0 mm/hr 0.01 in0.3 mm
02:12 PM 70.9°F21.6°C 52.9°F11.6°C 53% Calm Calm 2.0 mph3.2 kmh 29.87 in1011.5 mb 0.00 in0.0 mm 0.00 in/hr0.0 mm/hr 0.01 in0.3 mm
02:11 PM 70.7°F21.5°C 51.6°F10.9°C 51% Calm Calm 0.9 mph1.4 kmh 29.87 in1011.5 mb 0.00 in0.0 mm 0.00 in/hr0.0 mm/hr 0.01 in0.3 mm
02:10 PM 70.5°F21.4°C 52.0°F11.1°C 52% Calm Calm 0.9 mph1.4 kmh 29.87 in1011.5 mb 0.00 in0.0 mm 0.00 in/hr0.0 mm/hr 0.01 in0.3 mm
02:09 PM 70.5°F21.4°C 53.1°F11.7°C 54% 0.9 mph WNW1.4 kmh WNW 0.9 mph1.4 kmh 29.87 in1011.5 mb 0.00 in0.0 mm 0.00 in/hr0.0 mm/hr 0.01 in0.3 mm
02:08 PM 70.5°F21.4°C 53.6°F12.0°C 55% 0.9 mph WNW1.4 kmh WNW 0.9 mph1.4 kmh 29.87 in1011.5 mb 0.00 in0.0 mm 0.00 in/hr0.0 mm/hr 0.01 in0.3 mm
02:07 PM 70.5°F21.4°C 52.5°F11.4°C 53% 0.9 mph WNW1.4 kmh WNW 0.9 mph1.4 kmh 29.87 in1011.5 mb 0.00 in0.0 mm 0.00 in/hr0.0 mm/hr 0.01 in0.3 mm
02:06 PM 70.5°F21.4°C 54.5°F12.5°C 57% Calm Calm 0.9 mph1.4 kmh 29.87 in1011.5 mb 0.00 in0.0 mm 0.00 in/hr0.0 mm/hr 0.01 in0.3 mm
02:05 PM 70.5°F21.4°C 54.5°F12.5°C 57% Calm Calm -- 29.87 in1011.5 mb 0.00 in0.0 mm 0.00 in/hr0.0 mm/hr 0.01 in0.3 mm
02:04 PM 70.9°F21.6°C 56.3°F13.5°C 60% Calm Calm 0.9 mph1.4 kmh 29.87 in1011.5 mb 0.00 in0.0 mm 0.00 in/hr0.0 mm/hr 0.01 in0.3 mm
02:03 PM 70.9°F21.6°C 55.4°F13.0°C 58% Calm Calm 0.9 mph1.4 kmh 29.87 in1011.5 mb 0.00 in0.0 mm 0.00 in/hr0.0 mm/hr 0.01 in0.3 mm
02:02 PM 71.1°F21.7°C 55.0°F12.8°C 57% Calm Calm 0.9 mph1.4 kmh 29.87 in1011.5 mb 0.00 in0.0 mm 0.00 in/hr0.0 mm/hr 0.01 in0.3 mm
02:01 PM 71.2°F21.8°C 54.3°F12.4°C 55% Calm Calm 0.9 mph1.4 kmh 29.87 in1011.5 mb 0.00 in0.0 mm 0.00 in/hr0.0 mm/hr 0.01 in0.3 mm
02:00 PM 71.4°F21.9°C 54.5°F12.5°C 55% Calm Calm 0.9 mph1.4 kmh 29.87 in1011.5 mb 0.00 in0.0 mm 0.00 in/hr0.0 mm/hr 0.01 in0.3 mm
01:59 PM 71.4°F21.9°C 55.4°F13.0°C 57% Calm Calm 0.9 mph1.4 kmh 29.88 in1011.9 mb 0.00 in0.0 mm 0.00 in/hr0.0 mm/hr 0.01 in0.3 mm
01:58 PM 71.4°F21.9°C 51.3°F10.7°C 49% Calm Calm 0.9 mph1.4 kmh 29.88 in1011.9 mb 0.00 in0.0 mm 0.00 in/hr0.0 mm/hr 0.01 in0.3 mm
01:57 PM 71.4°F21.9°C 51.3°F10.7°C 49% Calm Calm -- 29.88 in1011.9 mb 0.00 in0.0 mm 0.00 in/hr0.0 mm/hr 0.01 in0.3 mm
01:56 PM 71.4°F21.9°C 51.3°F10.7°C 49% Calm Calm 0.9 mph1.4 kmh 29.88 in1011.9 mb 0.00 in0.0 mm 0.00 in/hr0.0 mm/hr 0.01 in0.3 mm
01:55 PM 71.4°F21.9°C 52.3°F11.3°C 51% Calm Calm -- 29.88 in1011.9 mb 0.00 in0.0 mm 0.00 in/hr0.0 mm/hr 0.01 in0.3 mm
01:54 PM 71.4°F21.9°C 50.2°F10.1°C 47% Calm Calm 0.9 mph1.4 kmh 29.88 in1011.9 mb 0.00 in0.0 mm 0.00 in/hr0.0 mm/hr 0.01 in0.3 mm
01:53 PM 71.4°F21.9°C 51.3°F10.7°C 49% Calm Calm -- 29.88 in1011.9 mb 0.00 in0.0 mm 0.00 in/hr0.0 mm/hr 0.01 in0.3 mm
01:52 PM 71.4°F21.9°C 50.7°F10.4°C 48% Calm Calm -- 29.88 in1011.9 mb 0.00 in0.0 mm 0.00 in/hr0.0 mm/hr 0.01 in0.3 mm
01:51 PM 71.4°F21.9°C 50.7°F10.4°C 48% Calm Calm -- 29.88 in1011.9 mb 0.00 in0.0 mm 0.00 in/hr0.0 mm/hr 0.01 in0.3 mm
01:50 PM 71.4°F21.9°C 48.9°F9.4°C 45% Calm Calm 0.9 mph1.4 kmh 29.88 in1011.9 mb 0.00 in0.0 mm 0.00 in/hr0.0 mm/hr 0.01 in0.3 mm
01:49 PM 71.4°F21.9°C 50.7°F10.4°C 48% Calm Calm 0.9 mph1.4 kmh 29.88 in1011.9 mb 0.00 in0.0 mm 0.00 in/hr0.0 mm/hr 0.01 in0.3 mm
01:48 PM 71.4°F21.9°C 50.2°F10.1°C 47% Calm Calm 0.9 mph1.4 kmh 29.88 in1011.9 mb 0.00 in0.0 mm 0.00 in/hr0.0 mm/hr 0.01 in0.3 mm
01:47 PM 71.6°F22.0°C 50.4°F10.2°C 47% Calm Calm 0.9 mph1.4 kmh 29.88 in1011.9 mb 0.00 in0.0 mm 0.00 in/hr0.0 mm/hr 0.01 in0.3 mm
01:46 PM 71.6°F22.0°C 50.4°F10.2°C 47% Calm Calm -- 29.88 in1011.9 mb 0.00 in0.0 mm 0.00 in/hr0.0 mm/hr 0.01 in0.3 mm
01:45 PM 71.6°F22.0°C 50.4°F10.2°C 47% 0.9 mph S1.4 kmh S -- 29.88 in1011.9 mb 0.00 in0.0 mm 0.00 in/hr0.0 mm/hr 0.01 in0.3 mm
01:44 PM 71.8°F22.1°C 52.2°F11.2°C 50% 0.9 mph S1.4 kmh S 0.9 mph1.4 kmh 29.89 in1012.2 mb 0.00 in0.0 mm 0.00 in/hr0.0 mm/hr 0.01 in0.3 mm
01:43 PM 71.8°F22.1°C 51.6°F10.9°C 49% 0.9 mph SW1.4 kmh SW 0.9 mph1.4 kmh 29.89 in1012.2 mb 0.00 in0.0 mm 0.00 in/hr0.0 mm/hr 0.01 in0.3 mm
01:42 PM 71.8°F22.1°C 52.7°F11.5°C 51% 0.9 mph SE1.4 kmh SE 2.0 mph3.2 kmh 29.89 in1012.2 mb 0.00 in0.0 mm 0.00 in/hr0.0 mm/hr 0.01 in0.3 mm
01:41 PM 71.8°F22.1°C 52.7°F11.5°C 51% 0.9 mph ESE1.4 kmh ESE 2.9 mph4.7 kmh 29.89 in1012.2 mb 0.00 in0.0 mm 0.00 in/hr0.0 mm/hr 0.01 in0.3 mm
01:40 PM 71.8°F22.1°C 51.6°F10.9°C 49% 0.9 mph SW1.4 kmh SW 2.0 mph3.2 kmh 29.89 in1012.2 mb 0.00 in0.0 mm 0.00 in/hr0.0 mm/hr 0.01 in0.3 mm
01:39 PM 71.8°F22.1°C 51.1°F10.6°C 48% 0.9 mph SW1.4 kmh SW -- 29.89 in1012.2 mb 0.00 in0.0 mm 0.00 in/hr0.0 mm/hr 0.01 in0.3 mm
01:38 PM 71.8°F22.1°C 51.6°F10.9°C 49% 0.9 mph SSW1.4 kmh SSW 2.0 mph3.2 kmh 29.89 in1012.2 mb 0.00 in0.0 mm 0.00 in/hr0.0 mm/hr 0.01 in0.3 mm
01:37 PM 71.8°F22.1°C 50.5°F10.3°C 47% 2.0 mph SW3.2 kmh SW 2.0 mph3.2 kmh 29.89 in1012.2 mb 0.00 in0.0 mm 0.00 in/hr0.0 mm/hr 0.01 in0.3 mm
01:36 PM 71.8°F22.1°C 50.5°F10.3°C 47% 2.0 mph W3.2 kmh W 2.0 mph3.2 kmh 29.89 in1012.2 mb 0.00 in0.0 mm 0.00 in/hr0.0 mm/hr 0.01 in0.3 mm
01:35 PM 72.0°F22.2°C 51.3°F10.7°C 48% 2.0 mph SE3.2 kmh SE 2.9 mph4.7 kmh 29.89 in1012.2 mb 0.00 in0.0 mm 0.00 in/hr0.0 mm/hr 0.01 in0.3 mm
01:34 PM 72.0°F22.2°C 50.0°F10.0°C 46% 2.9 mph SE4.7 kmh SE 2.0 mph3.2 kmh 29.89 in1012.2 mb 0.00 in0.0 mm 0.00 in/hr0.0 mm/hr 0.01 in0.3 mm
01:33 PM 72.0°F22.2°C 50.0°F10.0°C 46% 2.9 mph SSW4.7 kmh SSW 2.0 mph3.2 kmh 29.89 in1012.2 mb 0.00 in0.0 mm 0.00 in/hr0.0 mm/hr 0.01 in0.3 mm
01:32 PM 72.0°F22.2°C 50.7°F10.4°C 47% 2.9 mph SW4.7 kmh SW 0.9 mph1.4 kmh 29.89 in1012.2 mb 0.00 in0.0 mm 0.00 in/hr0.0 mm/hr 0.01 in0.3 mm
01:31 PM 72.1°F22.3°C 49.6°F9.8°C 45% 2.9 mph WSW4.7 kmh WSW 0.9 mph1.4 kmh 29.89 in1012.2 mb 0.00 in0.0 mm 0.00 in/hr0.0 mm/hr 0.01 in0.3 mm
01:30 PM 72.3°F22.4°C 50.4°F10.2°C 46% 2.9 mph SW4.7 kmh SW 2.9 mph4.7 kmh 29.89 in1012.2 mb 0.00 in0.0 mm 0.00 in/hr0.0 mm/hr 0.01 in0.3 mm
01:29 PM 72.5°F22.5°C 51.1°F10.6°C 47% 2.9 mph SW4.7 kmh SW 4.9 mph7.9 kmh 29.89 in1012.2 mb 0.00 in0.0 mm 0.00 in/hr0.0 mm/hr 0.01 in0.3 mm
01:28 PM 72.7°F22.6°C 51.8°F11.0°C 48% 2.0 mph SW3.2 kmh SW 4.0 mph6.4 kmh 29.89 in1012.2 mb 0.00 in0.0 mm 0.00 in/hr0.0 mm/hr 0.01 in0.3 mm
01:27 PM 72.9°F22.7°C 49.6°F9.8°C 44% 2.0 mph SW3.2 kmh SW 4.9 mph7.9 kmh 29.89 in1012.2 mb 0.00 in0.0 mm 0.00 in/hr0.0 mm/hr 0.01 in0.3 mm
01:26 PM 73.0°F22.8°C 51.1°F10.6°C 46% 2.0 mph WSW3.2 kmh WSW 6.9 mph11.1 kmh 29.89 in1012.2 mb 0.00 in0.0 mm 0.00 in/hr0.0 mm/hr 0.01 in0.3 mm
01:25 PM 73.4°F23.0°C 50.2°F10.1°C 44% 2.0 mph SW3.2 kmh SW 6.9 mph11.1 kmh 29.89 in1012.2 mb 0.00 in0.0 mm 0.00 in/hr0.0 mm/hr 0.01 in0.3 mm
01:24 PM 73.8°F23.2°C 51.1°F10.6°C 45% 0.9 mph WNW1.4 kmh WNW 4.9 mph7.9 kmh 29.89 in1012.2 mb 0.00 in0.0 mm 0.00 in/hr0.0 mm/hr 0.01 in0.3 mm
01:23 PM 73.8°F23.2°C 51.6°F10.9°C 46% 0.9 mph W1.4 kmh W 4.9 mph7.9 kmh 29.89 in1012.2 mb 0.00 in0.0 mm 0.00 in/hr0.0 mm/hr 0.01 in0.3 mm
01:22 PM 73.9°F23.3°C 52.5°F11.4°C 47% 0.9 mph WSW1.4 kmh WSW 2.9 mph4.7 kmh 29.89 in1012.2 mb 0.00 in0.0 mm 0.00 in/hr0.0 mm/hr 0.01 in0.3 mm
01:21 PM 73.9°F23.3°C 52.5°F11.4°C 47% 0.9 mph WSW1.4 kmh WSW 2.9 mph4.7 kmh 29.89 in1012.2 mb 0.00 in0.0 mm 0.00 in/hr0.0 mm/hr 0.01 in0.3 mm
01:20 PM 74.1°F23.4°C 53.2°F11.8°C 48% 0.9 mph W1.4 kmh W 0.9 mph1.4 kmh 29.89 in1012.2 mb 0.00 in0.0 mm 0.00 in/hr0.0 mm/hr 0.01 in0.3 mm
01:19 PM 74.5°F23.6°C 53.4°F11.9°C 48% 2.0 mph NNW3.2 kmh NNW 0.9 mph1.4 kmh 29.89 in1012.2 mb 0.00 in0.0 mm 0.00 in/hr0.0 mm/hr 0.01 in0.3 mm
01:18 PM 74.5°F23.6°C 53.4°F11.9°C 48% 2.0 mph NNW3.2 kmh NNW 0.9 mph1.4 kmh 29.89 in1012.2 mb 0.00 in0.0 mm 0.00 in/hr0.0 mm/hr 0.01 in0.3 mm
01:17 PM 74.7°F23.7°C 53.1°F11.7°C 47% 2.0 mph NNW3.2 kmh NNW 2.0 mph3.2 kmh 29.89 in1012.2 mb 0.00 in0.0 mm 0.00 in/hr0.0 mm/hr 0.01 in0.3 mm
01:16 PM 74.8°F23.8°C 53.2°F11.8°C 47% 2.9 mph NNW4.7 kmh NNW 2.0 mph3.2 kmh 29.89 in1012.2 mb 0.00 in0.0 mm 0.00 in/hr0.0 mm/hr 0.01 in0.3 mm
01:15 PM 75.0°F23.9°C 52.9°F11.6°C 46% 2.9 mph NNW4.7 kmh NNW 2.9 mph4.7 kmh 29.89 in1012.2 mb 0.00 in0.0 mm 0.00 in/hr0.0 mm/hr 0.01 in0.3 mm
01:14 PM 75.4°F24.1°C 52.0°F11.1°C 44% 2.9 mph NW4.7 kmh NW 2.0 mph3.2 kmh 29.88 in1011.9 mb 0.00 in0.0 mm 0.00 in/hr0.0 mm/hr 0.01 in0.3 mm
01:13 PM 75.6°F24.2°C 52.2°F11.2°C 44% 2.9 mph NW4.7 kmh NW 2.9 mph4.7 kmh 29.88 in1011.9 mb 0.00 in0.0 mm 0.00 in/hr0.0 mm/hr 0.01 in0.3 mm
01:12 PM 75.6°F24.2°C 50.9°F10.5°C 42% 4.0 mph NNW6.4 kmh NNW 2.0 mph3.2 kmh 29.88 in1011.9 mb 0.00 in0.0 mm 0.00 in/hr0.0 mm/hr 0.01 in0.3 mm
01:11 PM 75.7°F24.3°C 49.6°F9.8°C 40% 4.0 mph NNW6.4 kmh NNW 4.0 mph6.4 kmh 29.88 in1011.9 mb 0.00 in0.0 mm 0.00 in/hr0.0 mm/hr 0.01 in0.3 mm
01:10 PM 75.9°F24.4°C 49.1°F9.5°C 39% 4.0 mph N6.4 kmh N 4.9 mph7.9 kmh 29.88 in1011.9 mb 0.00 in0.0 mm 0.00 in/hr0.0 mm/hr 0.01 in0.3 mm
01:09 PM 76.1°F24.5°C 50.0°F10.0°C 40% 4.0 mph N6.4 kmh N 4.0 mph6.4 kmh 29.88 in1011.9 mb 0.00 in0.0 mm 0.00 in/hr0.0 mm/hr 0.01 in0.3 mm
01:08 PM 76.3°F24.6°C 49.5°F9.7°C 39% 4.0 mph NNE6.4 kmh NNE 9.0 mph14.5 kmh 29.88 in1011.9 mb 0.00 in0.0 mm 0.00 in/hr0.0 mm/hr 0.01 in0.3 mm
01:07 PM 76.5°F24.7°C 50.4°F10.2°C 40% 4.9 mph 7.9 kmh 6.0 mph9.7 kmh 29.88 in1011.9 mb 0.00 in0.0 mm 0.00 in/hr0.0 mm/hr 0.01 in0.3 mm
01:06 PM 76.6°F24.8°C 49.8°F9.9°C 39% 4.9 mph NNE7.9 kmh NNE 6.0 mph9.7 kmh 29.88 in1011.9 mb 0.00 in0.0 mm 0.00 in/hr0.0 mm/hr 0.01 in0.3 mm
01:05 PM 76.8°F24.9°C 50.0°F10.0°C 39% 4.9 mph NNW7.9 kmh NNW 8.1 mph13.0 kmh 29.88 in1011.9 mb 0.00 in0.0 mm 0.00 in/hr0.0 mm/hr 0.01 in0.3 mm
01:04 PM 77.2°F25.1°C 50.4°F10.2°C 39% 4.9 mph NE7.9 kmh NE 4.9 mph7.9 kmh 29.88 in1011.9 mb 0.00 in0.0 mm 0.00 in/hr0.0 mm/hr 0.01 in0.3 mm
01:03 PM 77.4°F25.2°C 50.5°F10.3°C 39% 4.9 mph NNW7.9 kmh NNW 6.9 mph11.1 kmh 29.88 in1011.9 mb 0.00 in0.0 mm 0.00 in/hr0.0 mm/hr 0.01 in0.3 mm
01:02 PM 77.4°F25.2°C 48.4°F9.1°C 36% 4.9 mph N7.9 kmh N 8.1 mph13.0 kmh 29.88 in1011.9 mb 0.00 in0.0 mm 0.00 in/hr0.0 mm/hr 0.01 in0.3 mm
01:01 PM 77.5°F25.3°C 50.5°F10.3°C 39% 4.9 mph NW7.9 kmh NW 6.0 mph9.7 kmh 29.88 in1011.9 mb 0.00 in0.0 mm 0.00 in/hr0.0 mm/hr 0.01 in0.3 mm
01:00 PM 77.7°F25.4°C 49.5°F9.7°C 37% 4.9 mph N7.9 kmh N 4.9 mph7.9 kmh 29.88 in1011.9 mb 0.00 in0.0 mm 0.00 in/hr0.0 mm/hr 0.01 in0.3 mm
12:59 PM 77.7°F25.4°C 48.6°F9.2°C 36% 4.0 mph NNE6.4 kmh NNE 8.1 mph13.0 kmh 29.87 in1011.5 mb 0.00 in0.0 mm 0.00 in/hr0.0 mm/hr 0.01 in0.3 mm
12:58 PM 78.1°F25.6°C 48.2°F9.0°C 35% 4.0 mph N6.4 kmh N 8.9 mph14.3 kmh 29.87 in1011.5 mb 0.00 in0.0 mm 0.00 in/hr0.0 mm/hr 0.01 in0.3 mm
12:57 PM 78.3°F25.7°C 49.1°F9.5°C 36% 4.0 mph NW6.4 kmh NW 8.9 mph14.3 kmh 29.87 in1011.5 mb 0.00 in0.0 mm 0.00 in/hr0.0 mm/hr 0.01 in0.3 mm
12:56 PM 78.4°F25.8°C 49.3°F9.6°C 36% 4.0 mph NW6.4 kmh NW 6.9 mph11.1 kmh 29.87 in1011.5 mb 0.00 in0.0 mm 0.00 in/hr0.0 mm/hr 0.01 in0.3 mm
12:55 PM 78.4°F25.8°C 48.6°F9.2°C 35% 2.9 mph NNE4.7 kmh NNE 6.9 mph11.1 kmh 29.87 in1011.5 mb 0.00 in0.0 mm 0.00 in/hr0.0 mm/hr 0.01 in0.3 mm
12:54 PM 78.8°F26.0°C 50.4°F10.2°C 37% 2.9 mph NE4.7 kmh NE 8.9 mph14.3 kmh 29.87 in1011.5 mb 0.00 in0.0 mm 0.00 in/hr0.0 mm/hr 0.01 in0.3 mm
12:53 PM 79.2°F26.2°C 49.8°F9.9°C 36% 2.9 mph NW4.7 kmh NW 8.9 mph14.3 kmh 29.87 in1011.5 mb 0.00 in0.0 mm 0.00 in/hr0.0 mm/hr 0.01 in0.3 mm
12:52 PM 79.3°F26.3°C 50.0°F10.0°C 36% 2.9 mph N4.7 kmh N 7.0 mph11.3 kmh 29.87 in1011.5 mb 0.00 in0.0 mm 0.00 in/hr0.0 mm/hr 0.01 in0.3 mm
12:51 PM 79.5°F26.4°C 49.5°F9.7°C 35% 2.9 mph NNW4.7 kmh NNW 7.0 mph11.3 kmh 29.87 in1011.5 mb 0.00 in0.0 mm 0.00 in/hr0.0 mm/hr 0.01 in0.3 mm
12:50 PM 79.9°F26.6°C 50.5°F10.3°C 36% 4.0 mph NNE6.4 kmh NNE 4.0 mph6.4 kmh 29.87 in1011.5 mb 0.00 in0.0 mm 0.00 in/hr0.0 mm/hr 0.01 in0.3 mm
12:49 PM 80.1°F26.7°C 50.7°F10.4°C 36% 4.0 mph N6.4 kmh N 6.0 mph9.7 kmh 29.87 in1011.5 mb 0.00 in0.0 mm 0.00 in/hr0.0 mm/hr 0.01 in0.3 mm
12:48 PM 80.2°F26.8°C 49.3°F9.6°C 34% 4.0 mph N6.4 kmh N 6.0 mph9.7 kmh 29.87 in1011.5 mb 0.00 in0.0 mm 0.00 in/hr0.0 mm/hr 0.01 in0.3 mm
12:47 PM 80.4°F26.9°C 49.5°F9.7°C 34% 2.9 mph NE4.7 kmh NE 4.9 mph7.9 kmh 29.87 in1011.5 mb 0.00 in0.0 mm 0.00 in/hr0.0 mm/hr 0.01 in0.3 mm
12:46 PM 80.8°F27.1°C 49.8°F9.9°C 34% 2.9 mph N4.7 kmh N 4.0 mph6.4 kmh 29.87 in1011.5 mb 0.00 in0.0 mm 0.00 in/hr0.0 mm/hr 0.01 in0.3 mm
12:45 PM 80.8°F27.1°C 49.8°F9.9°C 34% 2.9 mph NNW4.7 kmh NNW 4.0 mph6.4 kmh 29.87 in1011.5 mb 0.00 in0.0 mm 0.00 in/hr0.0 mm/hr 0.01 in0.3 mm
12:44 PM 81.0°F27.2°C 50.0°F10.0°C 34% 2.9 mph NNE4.7 kmh NNE 4.0 mph6.4 kmh 29.87 in1011.5 mb 0.00 in0.0 mm 0.00 in/hr0.0 mm/hr 0.01 in0.3 mm
12:43 PM 81.0°F27.2°C 50.7°F10.4°C 35% 2.0 mph N3.2 kmh N 6.0 mph9.7 kmh 29.87 in1011.5 mb 0.00 in0.0 mm 0.00 in/hr0.0 mm/hr 0.01 in0.3 mm
12:42 PM 81.1°F27.3°C 50.2°F10.1°C 34% 2.0 mph NW3.2 kmh NW 8.1 mph13.0 kmh 29.87 in1011.5 mb 0.00 in0.0 mm 0.00 in/hr0.0 mm/hr 0.01 in0.3 mm
12:41 PM 81.1°F27.3°C 49.3°F9.6°C 33% 2.0 mph NW3.2 kmh NW 8.9 mph14.3 kmh 29.87 in1011.5 mb 0.00 in0.0 mm 0.00 in/hr0.0 mm/hr 0.01 in0.3 mm
12:40 PM 81.1°F27.3°C 49.3°F9.6°C 33% 2.0 mph N3.2 kmh N 9.0 mph14.5 kmh 29.87 in1011.5 mb 0.00 in0.0 mm 0.00 in/hr0.0 mm/hr 0.01 in0.3 mm
12:39 PM 81.1°F27.3°C 51.6°F10.9°C 36% 0.9 mph N1.4 kmh N 4.0 mph6.4 kmh 29.87 in1011.5 mb 0.00 in0.0 mm 0.00 in/hr0.0 mm/hr 0.01 in0.3 mm
12:38 PM 81.0°F27.2°C 53.6°F12.0°C 39% 0.9 mph NE1.4 kmh NE 2.9 mph4.7 kmh 29.87 in1011.5 mb 0.00 in0.0 mm 0.00 in/hr0.0 mm/hr 0.01 in0.3 mm
12:37 PM 80.4°F26.9°C 54.5°F12.5°C 41% 0.9 mph ENE1.4 kmh ENE 2.0 mph3.2 kmh 29.87 in1011.5 mb 0.00 in0.0 mm 0.00 in/hr0.0 mm/hr 0.01 in0.3 mm
12:36 PM 80.1°F26.7°C 53.6°F12.0°C 40% 0.9 mph NW1.4 kmh NW 2.9 mph4.7 kmh 29.87 in1011.5 mb 0.00 in0.0 mm 0.00 in/hr0.0 mm/hr 0.01 in0.3 mm
12:35 PM 79.9°F26.6°C 51.3°F10.7°C 37% 0.9 mph E1.4 kmh E 0.9 mph1.4 kmh 29.87 in1011.5 mb 0.00 in0.0 mm 0.00 in/hr0.0 mm/hr 0.01 in0.3 mm
12:34 PM 79.7°F26.5°C 51.1°F10.6°C 37% 2.0 mph E3.2 kmh E 0.9 mph1.4 kmh 29.87 in1011.5 mb 0.00 in0.0 mm 0.00 in/hr0.0 mm/hr 0.01 in0.3 mm
12:33 PM 79.5°F26.4°C 50.2°F10.1°C 36% 2.0 mph ESE3.2 kmh ESE 2.9 mph4.7 kmh 29.87 in1011.5 mb 0.00 in0.0 mm 0.00 in/hr0.0 mm/hr 0.01 in0.3 mm
12:32 PM 79.3°F26.3°C 50.7°F10.4°C 37% 2.0 mph SE3.2 kmh SE 4.9 mph7.9 kmh 29.87 in1011.5 mb 0.00 in0.0 mm 0.00 in/hr0.0 mm/hr 0.01 in0.3 mm
12:31 PM 79.3°F26.3°C 52.2°F11.2°C 39% 2.0 mph SE3.2 kmh SE 2.9 mph4.7 kmh 29.87 in1011.5 mb 0.00 in0.0 mm 0.00 in/hr0.0 mm/hr 0.01 in0.3 mm
12:30 PM 79.3°F26.3°C 51.4°F10.8°C 38% 2.0 mph WSW3.2 kmh WSW 6.9 mph11.1 kmh 29.87 in1011.5 mb 0.00 in0.0 mm 0.00 in/hr0.0 mm/hr 0.01 in0.3 mm
12:29 PM 79.3°F26.3°C 52.2°F11.2°C 39% 2.0 mph SE3.2 kmh SE 7.0 mph11.3 kmh 29.88 in1011.9 mb 0.00 in0.0 mm 0.00 in/hr0.0 mm/hr 0.01 in0.3 mm
12:28 PM 79.2°F26.2°C 51.4°F10.8°C 38% 2.0 mph E3.2 kmh E 2.0 mph3.2 kmh 29.88 in1011.9 mb 0.00 in0.0 mm 0.00 in/hr0.0 mm/hr 0.01 in0.3 mm
12:27 PM 79.3°F26.3°C 50.0°F10.0°C 36% 2.0 mph ENE3.2 kmh ENE 2.0 mph3.2 kmh 29.88 in1011.9 mb 0.00 in0.0 mm 0.00 in/hr0.0 mm/hr 0.01 in0.3 mm
12:26 PM 79.3°F26.3°C 50.0°F10.0°C 36% 2.0 mph ESE3.2 kmh ESE 4.0 mph6.4 kmh 29.88 in1011.9 mb 0.00 in0.0 mm 0.00 in/hr0.0 mm/hr 0.01 in0.3 mm
12:25 PM 79.5°F26.4°C 48.7°F9.3°C 34% 2.0 mph ESE3.2 kmh ESE 6.0 mph9.7 kmh 29.88 in1011.9 mb 0.00 in0.0 mm 0.00 in/hr0.0 mm/hr 0.01 in0.3 mm
12:24 PM 79.7°F26.5°C 53.2°F11.8°C 40% 2.0 mph ENE3.2 kmh ENE 4.0 mph6.4 kmh 29.88 in1011.9 mb 0.00 in0.0 mm 0.00 in/hr0.0 mm/hr 0.01 in0.3 mm
12:23 PM 79.7°F26.5°C 53.2°F11.8°C 40% 2.9 mph NE4.7 kmh NE 4.9 mph7.9 kmh 29.88 in1011.9 mb 0.00 in0.0 mm 0.00 in/hr0.0 mm/hr 0.01 in0.3 mm
12:22 PM 79.7°F26.5°C 50.4°F10.2°C 36% 2.9 mph NE4.7 kmh NE 2.9 mph4.7 kmh 29.88 in1011.9 mb 0.00 in0.0 mm 0.00 in/hr0.0 mm/hr 0.01 in0.3 mm
12:21 PM 79.7°F26.5°C 51.1°F10.6°C 37% 2.9 mph ENE4.7 kmh ENE 2.9 mph4.7 kmh 29.88 in1011.9 mb 0.00 in0.0 mm 0.00 in/hr0.0 mm/hr 0.01 in0.3 mm
12:20 PM 79.7°F26.5°C 49.6°F9.8°C 35% 4.0 mph ENE6.4 kmh ENE 2.9 mph4.7 kmh 29.88 in1011.9 mb 0.00 in0.0 mm 0.00 in/hr0.0 mm/hr 0.01 in0.3 mm
12:19 PM 79.7°F26.5°C 50.4°F10.2°C 36% 4.0 mph ENE6.4 kmh ENE 4.9 mph7.9 kmh 29.88 in1011.9 mb 0.00 in0.0 mm 0.00 in/hr0.0 mm/hr 0.01 in0.3 mm
12:18 PM 79.7°F26.5°C 49.6°F9.8°C 35% 4.9 mph E7.9 kmh E 8.1 mph13.0 kmh 29.88 in1011.9 mb 0.00 in0.0 mm 0.00 in/hr0.0 mm/hr 0.01 in0.3 mm
12:17 PM 79.9°F26.6°C 50.5°F10.3°C 36% 4.9 mph SSE7.9 kmh SSE 2.9 mph4.7 kmh 29.88 in1011.9 mb 0.00 in0.0 mm 0.00 in/hr0.0 mm/hr 0.01 in0.3 mm
12:16 PM 79.7°F26.5°C 51.8°F11.0°C 38% 4.9 mph E7.9 kmh E 4.9 mph7.9 kmh 29.88 in1011.9 mb 0.00 in0.0 mm 0.00 in/hr0.0 mm/hr 0.01 in0.3 mm
12:15 PM 79.7°F26.5°C 48.9°F9.4°C 34% 4.9 mph E7.9 kmh E 6.0 mph9.7 kmh 29.88 in1011.9 mb 0.00 in0.0 mm 0.00 in/hr0.0 mm/hr 0.01 in0.3 mm
12:14 PM 79.5°F26.4°C 49.5°F9.7°C 35% 6.0 mph ENE9.7 kmh ENE 8.9 mph14.3 kmh 29.88 in1011.9 mb 0.00 in0.0 mm 0.00 in/hr0.0 mm/hr 0.01 in0.3 mm
12:13 PM 79.5°F26.4°C 49.5°F9.7°C 35% 4.9 mph N7.9 kmh N 8.9 mph14.3 kmh 29.88 in1011.9 mb 0.00 in0.0 mm 0.00 in/hr0.0 mm/hr 0.01 in0.3 mm
12:12 PM 79.3°F26.3°C 49.3°F9.6°C 35% 4.9 mph N7.9 kmh N 8.1 mph13.0 kmh 29.88 in1011.9 mb 0.00 in0.0 mm 0.00 in/hr0.0 mm/hr 0.01 in0.3 mm
12:11 PM 79.2°F26.2°C 48.4°F9.1°C 34% 4.9 mph NW7.9 kmh NW 10.1 mph16.3 kmh 29.88 in1011.9 mb 0.00 in0.0 mm 0.00 in/hr0.0 mm/hr 0.01 in0.3 mm
12:10 PM 79.2°F26.2°C 48.4°F9.1°C 34% 4.9 mph N7.9 kmh N 11.0 mph17.7 kmh 29.88 in1011.9 mb 0.00 in0.0 mm 0.00 in/hr0.0 mm/hr 0.01 in0.3 mm
12:09 PM 79.2°F26.2°C 47.7°F8.7°C 33% 4.9 mph N7.9 kmh N 8.9 mph14.3 kmh 29.88 in1011.9 mb 0.00 in0.0 mm 0.00 in/hr0.0 mm/hr 0.01 in0.3 mm
12:08 PM 79.2°F26.2°C 48.4°F9.1°C 34% 4.9 mph NE7.9 kmh NE 8.9 mph14.3 kmh 29.88 in1011.9 mb 0.00 in0.0 mm 0.00 in/hr0.0 mm/hr 0.01 in0.3 mm
12:07 PM 79.0°F26.1°C 50.5°F10.3°C 37% 4.9 mph NW7.9 kmh NW 6.0 mph9.7 kmh 29.88 in1011.9 mb 0.00 in0.0 mm 0.00 in/hr0.0 mm/hr 0.01 in0.3 mm
12:06 PM 79.0°F26.1°C 49.8°F9.9°C 36% 4.9 mph NW7.9 kmh NW 10.1 mph16.3 kmh 29.88 in1011.9 mb 0.00 in0.0 mm 0.00 in/hr0.0 mm/hr 0.01 in0.3 mm
12:05 PM 78.8°F26.0°C 48.9°F9.4°C 35% 4.9 mph N7.9 kmh N 10.1 mph16.3 kmh 29.88 in1011.9 mb 0.00 in0.0 mm 0.00 in/hr0.0 mm/hr 0.01 in0.3 mm
12:04 PM 78.6°F25.9°C 50.9°F10.5°C 38% 4.9 mph E7.9 kmh E 10.1 mph16.3 kmh 29.88 in1011.9 mb 0.00 in0.0 mm 0.00 in/hr0.0 mm/hr 0.01 in0.3 mm
12:03 PM 78.6°F25.9°C 48.7°F9.3°C 35% 4.9 mph NE7.9 kmh NE 6.0 mph9.7 kmh 29.88 in1011.9 mb 0.00 in0.0 mm 0.00 in/hr0.0 mm/hr 0.01 in0.3 mm
12:02 PM 78.4°F25.8°C 47.7°F8.7°C 34% 4.9 mph NNW7.9 kmh NNW 8.9 mph14.3 kmh 29.88 in1011.9 mb 0.00 in0.0 mm 0.00 in/hr0.0 mm/hr 0.01 in0.3 mm
12:01 PM 78.4°F25.8°C 46.9°F8.3°C 33% 4.9 mph ENE7.9 kmh ENE 8.1 mph13.0 kmh 29.88 in1011.9 mb 0.00 in0.0 mm 0.00 in/hr0.0 mm/hr 0.01 in0.3 mm
12:00 PM 78.3°F25.7°C 49.1°F9.5°C 36% 4.0 mph NNW6.4 kmh NNW 10.1 mph16.3 kmh 29.88 in1011.9 mb 0.00 in0.0 mm 0.00 in/hr0.0 mm/hr 0.01 in0.3 mm
11:59 AM 78.1°F25.6°C 51.1°F10.6°C 39% 4.0 mph NE6.4 kmh NE 10.1 mph16.3 kmh 29.88 in1011.9 mb 0.00 in0.0 mm 0.00 in/hr0.0 mm/hr 0.01 in0.3 mm
11:58 AM 77.9°F25.5°C 49.5°F9.7°C 37% 4.0 mph N6.4 kmh N 10.1 mph16.3 kmh 29.88 in1011.9 mb 0.00 in0.0 mm 0.00 in/hr0.0 mm/hr 0.01 in0.3 mm
11:57 AM 77.7°F25.4°C 50.7°F10.4°C 39% 2.9 mph NNE4.7 kmh NNE 8.1 mph13.0 kmh 29.88 in1011.9 mb 0.00 in0.0 mm 0.00 in/hr0.0 mm/hr 0.01 in0.3 mm
11:56 AM 77.5°F25.3°C 50.0°F10.0°C 38% 2.9 mph SE4.7 kmh SE 10.1 mph16.3 kmh 29.88 in1011.9 mb 0.00 in0.0 mm 0.00 in/hr0.0 mm/hr 0.01 in0.3 mm
11:55 AM 77.4°F25.2°C 49.1°F9.5°C 37% 2.9 mph N4.7 kmh N 11.0 mph17.7 kmh 29.88 in1011.9 mb 0.00 in0.0 mm 0.00 in/hr0.0 mm/hr 0.01 in0.3 mm
11:54 AM 77.2°F25.1°C 51.1°F10.6°C 40% 2.9 mph NE4.7 kmh NE 6.9 mph11.1 kmh 29.88 in1011.9 mb 0.00 in0.0 mm 0.00 in/hr0.0 mm/hr 0.01 in0.3 mm
11:53 AM 77.0°F25.0°C 50.2°F10.1°C 39% 2.0 mph N3.2 kmh N 12.0 mph19.3 kmh 29.88 in1011.9 mb 0.00 in0.0 mm 0.00 in/hr0.0 mm/hr 0.01 in0.3 mm
11:52 AM 76.6°F24.8°C 51.3°F10.7°C 41% 2.0 mph NNE3.2 kmh NNE 6.0 mph9.7 kmh 29.88 in1011.9 mb 0.00 in0.0 mm 0.00 in/hr0.0 mm/hr 0.01 in0.3 mm
11:51 AM 76.5°F24.7°C 51.6°F10.9°C 42% 2.0 mph NNE3.2 kmh NNE 2.9 mph4.7 kmh 29.88 in1011.9 mb 0.00 in0.0 mm 0.00 in/hr0.0 mm/hr 0.01 in0.3 mm
11:50 AM 76.3°F24.6°C 50.2°F10.1°C 40% 2.9 mph ENE4.7 kmh ENE 2.9 mph4.7 kmh 29.88 in1011.9 mb 0.00 in0.0 mm 0.00 in/hr0.0 mm/hr 0.01 in0.3 mm
11:49 AM 76.1°F24.5°C 50.0°F10.0°C 40% 2.9 mph N4.7 kmh N 4.9 mph7.9 kmh 29.88 in1011.9 mb 0.00 in0.0 mm 0.00 in/hr0.0 mm/hr 0.01 in0.3 mm
11:48 AM 75.9°F24.4°C 50.5°F10.3°C 41% 2.9 mph NNE4.7 kmh NNE 4.9 mph7.9 kmh 29.88 in1011.9 mb 0.00 in0.0 mm 0.00 in/hr0.0 mm/hr 0.01 in0.3 mm
11:47 AM 75.9°F24.4°C 51.3°F10.7°C 42% 2.9 mph WNW4.7 kmh WNW 2.0 mph3.2 kmh 29.88 in1011.9 mb 0.00 in0.0 mm 0.00 in/hr0.0 mm/hr 0.01 in0.3 mm
11:46 AM 75.9°F24.4°C 51.3°F10.7°C 42% 2.9 mph ENE4.7 kmh ENE 4.0 mph6.4 kmh 29.88 in1011.9 mb 0.00 in0.0 mm 0.00 in/hr0.0 mm/hr 0.01 in0.3 mm
11:45 AM 75.9°F24.4°C 50.5°F10.3°C 41% 2.9 mph NNE4.7 kmh NNE 6.9 mph11.1 kmh 29.88 in1011.9 mb 0.00 in0.0 mm 0.00 in/hr0.0 mm/hr 0.01 in0.3 mm
11:44 AM 75.7°F24.3°C 51.1°F10.6°C 42% 2.9 mph 4.7 kmh 4.9 mph7.9 kmh 29.88 in1011.9 mb 0.00 in0.0 mm 0.00 in/hr0.0 mm/hr 0.01 in0.3 mm
11:43 AM 75.7°F24.3°C 51.1°F10.6°C 42% 2.9 mph NW4.7 kmh NW 6.0 mph9.7 kmh 29.88 in1011.9 mb 0.00 in0.0 mm 0.00 in/hr0.0 mm/hr 0.01 in0.3 mm
11:42 AM 75.7°F24.3°C 52.3°F11.3°C 44% 2.9 mph NW4.7 kmh NW 4.0 mph6.4 kmh 29.88 in1011.9 mb 0.00 in0.0 mm 0.00 in/hr0.0 mm/hr 0.01 in0.3 mm
11:41 AM 75.6°F24.2°C 50.9°F10.5°C 42% 2.9 mph NNW4.7 kmh NNW 4.9 mph7.9 kmh 29.88 in1011.9 mb 0.00 in0.0 mm 0.00 in/hr0.0 mm/hr 0.01 in0.3 mm
11:40 AM 75.6°F24.2°C 52.7°F11.5°C 45% 2.9 mph NNE4.7 kmh NNE 10.1 mph16.3 kmh 29.88 in1011.9 mb 0.00 in0.0 mm 0.00 in/hr0.0 mm/hr 0.01 in0.3 mm
11:39 AM 75.4°F24.1°C 52.0°F11.1°C 44% 2.0 mph N3.2 kmh N 10.1 mph16.3 kmh 29.88 in1011.9 mb 0.00 in0.0 mm 0.00 in/hr0.0 mm/hr 0.01 in0.3 mm
11:38 AM 75.0°F23.9°C 52.2°F11.2°C 45% 2.0 mph NW3.2 kmh NW 4.9 mph7.9 kmh 29.88 in1011.9 mb 0.00 in0.0 mm 0.00 in/hr0.0 mm/hr 0.01 in0.3 mm
11:37 AM 74.8°F23.8°C 52.7°F11.5°C 46% 2.0 mph N3.2 kmh N 7.0 mph11.3 kmh 29.88 in1011.9 mb 0.00 in0.0 mm 0.00 in/hr0.0 mm/hr 0.01 in0.3 mm
11:36 AM 74.7°F23.7°C 51.3°F10.7°C 44% 2.0 mph NW3.2 kmh NW 2.9 mph4.7 kmh 29.88 in1011.9 mb 0.00 in0.0 mm 0.00 in/hr0.0 mm/hr 0.01 in0.3 mm
11:35 AM 74.5°F23.6°C 51.8°F11.0°C 45% 2.0 mph E3.2 kmh E 2.9 mph4.7 kmh 29.88 in1011.9 mb 0.00 in0.0 mm 0.00 in/hr0.0 mm/hr 0.01 in0.3 mm
11:34 AM 74.5°F23.6°C 51.1°F10.6°C 44% 2.0 mph N3.2 kmh N 2.9 mph4.7 kmh 29.88 in1011.9 mb 0.00 in0.0 mm 0.00 in/hr0.0 mm/hr 0.01 in0.3 mm
11:33 AM 74.7°F23.7°C 51.3°F10.7°C 44% 2.0 mph NW3.2 kmh NW 4.9 mph7.9 kmh 29.88 in1011.9 mb 0.00 in0.0 mm 0.00 in/hr0.0 mm/hr 0.01 in0.3 mm
11:32 AM 74.7°F23.7°C 50.7°F10.4°C 43% 0.9 mph NE1.4 kmh NE 6.0 mph9.7 kmh 29.88 in1011.9 mb 0.00 in0.0 mm 0.00 in/hr0.0 mm/hr 0.01 in0.3 mm
11:31 AM 74.7°F23.7°C 52.0°F11.1°C 45% 0.9 mph NE1.4 kmh NE 0.9 mph1.4 kmh 29.88 in1011.9 mb 0.00 in0.0 mm 0.00 in/hr0.0 mm/hr 0.01 in0.3 mm
11:30 AM 74.7°F23.7°C 51.3°F10.7°C 44% 0.9 mph N1.4 kmh N 0.9 mph1.4 kmh 29.88 in1011.9 mb 0.00 in0.0 mm 0.00 in/hr0.0 mm/hr 0.01 in0.3 mm
11:29 AM 74.7°F23.7°C 51.3°F10.7°C 44% 2.0 mph E3.2 kmh E 2.0 mph3.2 kmh 29.89 in1012.2 mb 0.00 in0.0 mm 0.00 in/hr0.0 mm/hr 0.01 in0.3 mm
11:28 AM 74.7°F23.7°C 50.7°F10.4°C 43% 0.9 mph NE1.4 kmh NE 2.9 mph4.7 kmh 29.89 in1012.2 mb 0.00 in0.0 mm 0.00 in/hr0.0 mm/hr 0.01 in0.3 mm
11:27 AM 74.7°F23.7°C 52.0°F11.1°C 45% 0.9 mph NNE1.4 kmh NNE 2.0 mph3.2 kmh 29.89 in1012.2 mb 0.00 in0.0 mm 0.00 in/hr0.0 mm/hr 0.01 in0.3 mm
11:26 AM 74.7°F23.7°C 51.3°F10.7°C 44% 2.0 mph NE3.2 kmh NE 5.0 mph8.0 kmh 29.89 in1012.2 mb 0.00 in0.0 mm 0.00 in/hr0.0 mm/hr 0.01 in0.3 mm
11:25 AM 74.7°F23.7°C 50.7°F10.4°C 43% 0.9 mph N1.4 kmh N 2.9 mph4.7 kmh 29.89 in1012.2 mb 0.00 in0.0 mm 0.00 in/hr0.0 mm/hr 0.01 in0.3 mm
11:24 AM 74.7°F23.7°C 50.7°F10.4°C 43% 0.9 mph NNE1.4 kmh NNE 4.0 mph6.4 kmh 29.89 in1012.2 mb 0.00 in0.0 mm 0.00 in/hr0.0 mm/hr 0.01 in0.3 mm
11:23 AM 74.7°F23.7°C 50.7°F10.4°C 43% 0.9 mph N1.4 kmh N 4.0 mph6.4 kmh 29.89 in1012.2 mb 0.00 in0.0 mm 0.00 in/hr0.0 mm/hr 0.01 in0.3 mm
11:22 AM 74.7°F23.7°C 50.7°F10.4°C 43% 0.9 mph ENE1.4 kmh ENE 4.0 mph6.4 kmh 29.89 in1012.2 mb 0.00 in0.0 mm 0.00 in/hr0.0 mm/hr 0.01 in0.3 mm
11:21 AM 74.7°F23.7°C 52.0°F11.1°C 45% 0.9 mph N1.4 kmh N 0.9 mph1.4 kmh 29.89 in1012.2 mb 0.00 in0.0 mm 0.00 in/hr0.0 mm/hr 0.01 in0.3 mm
11:20 AM 74.7°F23.7°C 51.3°F10.7°C 44% 0.9 mph N1.4 kmh N 2.9 mph4.7 kmh 29.89 in1012.2 mb 0.00 in0.0 mm 0.00 in/hr0.0 mm/hr 0.01 in0.3 mm
11:19 AM 74.7°F23.7°C 51.3°F10.7°C 44% 0.9 mph ENE1.4 kmh ENE 4.0 mph6.4 kmh 29.89 in1012.2 mb 0.00 in0.0 mm 0.00 in/hr0.0 mm/hr 0.01 in0.3 mm
11:18 AM 74.7°F23.7°C 53.1°F11.7°C 47% 0.9 mph NW1.4 kmh NW 0.9 mph1.4 kmh 29.89 in1012.2 mb 0.00 in0.0 mm 0.00 in/hr0.0 mm/hr 0.01 in0.3 mm
11:17 AM 74.5°F23.6°C 51.8°F11.0°C 45% 0.9 mph NW1.4 kmh NW 2.9 mph4.7 kmh 29.89 in1012.2 mb 0.00 in0.0 mm 0.00 in/hr0.0 mm/hr 0.01 in0.3 mm
11:16 AM 74.5°F23.6°C 51.8°F11.0°C 45% 0.9 mph N1.4 kmh N 5.0 mph8.0 kmh 29.89 in1012.2 mb 0.00 in0.0 mm 0.00 in/hr0.0 mm/hr 0.01 in0.3 mm
11:15 AM 74.1°F23.4°C 53.2°F11.8°C 48% 0.9 mph NW1.4 kmh NW 2.0 mph3.2 kmh 29.89 in1012.2 mb 0.00 in0.0 mm 0.00 in/hr0.0 mm/hr 0.01 in0.3 mm
11:14 AM 74.1°F23.4°C 52.5°F11.4°C 47% Calm Calm 2.0 mph3.2 kmh 29.90 in1012.5 mb 0.00 in0.0 mm 0.00 in/hr0.0 mm/hr 0.01 in0.3 mm
11:13 AM 73.9°F23.3°C 52.5°F11.4°C 47% Calm Calm 2.0 mph3.2 kmh 29.90 in1012.5 mb 0.00 in0.0 mm 0.00 in/hr0.0 mm/hr 0.01 in0.3 mm
11:12 AM 73.8°F23.2°C 55.0°F12.8°C 52% Calm Calm 2.0 mph3.2 kmh 29.90 in1012.5 mb 0.00 in0.0 mm 0.00 in/hr0.0 mm/hr 0.01 in0.3 mm
11:11 AM 73.8°F23.2°C 55.0°F12.8°C 52% Calm Calm 0.9 mph1.4 kmh 29.90 in1012.5 mb 0.00 in0.0 mm 0.00 in/hr0.0 mm/hr 0.01 in0.3 mm
11:10 AM 73.8°F23.2°C 52.9°F11.6°C 48% 0.9 mph E1.4 kmh E 0.9 mph1.4 kmh 29.90 in1012.5 mb 0.00 in0.0 mm 0.00 in/hr0.0 mm/hr 0.01 in0.3 mm
11:09 AM 73.6°F23.1°C 52.7°F11.5°C 48% 0.9 mph E1.4 kmh E 0.9 mph1.4 kmh 29.90 in1012.5 mb 0.00 in0.0 mm 0.00 in/hr0.0 mm/hr 0.01 in0.3 mm
11:08 AM 73.6°F23.1°C 52.7°F11.5°C 48% 0.9 mph E1.4 kmh E 2.0 mph3.2 kmh 29.90 in1012.5 mb 0.00 in0.0 mm 0.00 in/hr0.0 mm/hr 0.01 in0.3 mm
11:07 AM 73.6°F23.1°C 53.2°F11.8°C 49% Calm Calm 2.0 mph3.2 kmh 29.90 in1012.5 mb 0.00 in0.0 mm 0.00 in/hr0.0 mm/hr 0.01 in0.3 mm
11:06 AM 73.8°F23.2°C 55.0°F12.8°C 52% Calm Calm 2.0 mph3.2 kmh 29.90 in1012.5 mb 0.00 in0.0 mm 0.00 in/hr0.0 mm/hr 0.01 in0.3 mm
11:05 AM 73.8°F23.2°C 54.0°F12.2°C 50% Calm Calm -- 29.90 in1012.5 mb 0.00 in0.0 mm 0.00 in/hr0.0 mm/hr 0.01 in0.3 mm
11:04 AM 73.8°F23.2°C 54.0°F12.2°C 50% Calm Calm 0.9 mph1.4 kmh 29.90 in1012.5 mb 0.00 in0.0 mm 0.00 in/hr0.0 mm/hr 0.01 in0.3 mm
11:03 AM 73.8°F23.2°C 55.0°F12.8°C 52% 0.9 mph SE1.4 kmh SE 0.9 mph1.4 kmh 29.90 in1012.5 mb 0.00 in0.0 mm 0.00 in/hr0.0 mm/hr 0.01 in0.3 mm
11:02 AM 73.8°F23.2°C 52.9°F11.6°C 48% 0.9 mph SE1.4 kmh SE 2.0 mph3.2 kmh 29.90 in1012.5 mb 0.00 in0.0 mm 0.00 in/hr0.0 mm/hr 0.01 in0.3 mm
11:01 AM 73.8°F23.2°C 53.4°F11.9°C 49% 0.9 mph E1.4 kmh E 2.0 mph3.2 kmh 29.90 in1012.5 mb 0.00 in0.0 mm 0.00 in/hr0.0 mm/hr 0.01 in0.3 mm
11:00 AM 73.9°F23.3°C 54.1°F12.3°C 50% 0.9 mph ENE1.4 kmh ENE 2.0 mph3.2 kmh 29.90 in1012.5 mb 0.00 in0.0 mm 0.00 in/hr0.0 mm/hr 0.01 in0.3 mm
10:59 AM 73.9°F23.3°C 54.1°F12.3°C 50% 0.9 mph SE1.4 kmh SE 0.9 mph1.4 kmh 29.89 in1012.2 mb 0.00 in0.0 mm 0.00 in/hr0.0 mm/hr 0.01 in0.3 mm
10:58 AM 73.9°F23.3°C 54.1°F12.3°C 50% 0.9 mph S1.4 kmh S -- 29.89 in1012.2 mb 0.00 in0.0 mm 0.00 in/hr0.0 mm/hr 0.01 in0.3 mm
10:57 AM 73.9°F23.3°C 54.1°F12.3°C 50% 0.9 mph S1.4 kmh S 0.9 mph1.4 kmh 29.89 in1012.2 mb 0.00 in0.0 mm 0.00 in/hr0.0 mm/hr 0.01 in0.3 mm
10:56 AM 73.9°F23.3°C 53.1°F11.7°C 48% 0.9 mph S1.4 kmh S 0.9 mph1.4 kmh 29.89 in1012.2 mb 0.00 in0.0 mm 0.00 in/hr0.0 mm/hr 0.01 in0.3 mm
10:55 AM 74.1°F23.4°C 53.8°F12.1°C 49% 0.9 mph SSE1.4 kmh SSE 0.9 mph1.4 kmh 29.89 in1012.2 mb 0.00 in0.0 mm 0.00 in/hr0.0 mm/hr 0.01 in0.3 mm
10:54 AM 74.3°F23.5°C 54.0°F12.2°C 49% 0.9 mph ENE1.4 kmh ENE 2.0 mph3.2 kmh 29.89 in1012.2 mb 0.00 in0.0 mm 0.00 in/hr0.0 mm/hr 0.01 in0.3 mm
10:53 AM 74.5°F23.6°C 53.4°F11.9°C 48% Calm Calm 2.0 mph3.2 kmh 29.89 in1012.2 mb 0.00 in0.0 mm 0.00 in/hr0.0 mm/hr 0.01 in0.3 mm
10:52 AM 74.5°F23.6°C 54.1°F12.3°C 49% Calm Calm 2.0 mph3.2 kmh 29.89 in1012.2 mb 0.00 in0.0 mm 0.00 in/hr0.0 mm/hr 0.01 in0.3 mm
10:51 AM 74.7°F23.7°C 54.3°F12.4°C 49% 0.9 mph SE1.4 kmh SE 0.9 mph1.4 kmh 29.89 in1012.2 mb 0.00 in0.0 mm 0.00 in/hr0.0 mm/hr 0.01 in0.3 mm
10:50 AM 74.7°F23.7°C 54.3°F12.4°C 49% 0.9 mph SE1.4 kmh SE 2.9 mph4.7 kmh 29.89 in1012.2 mb 0.00 in0.0 mm 0.00 in/hr0.0 mm/hr 0.01 in0.3 mm
10:49 AM 74.8°F23.8°C 54.3°F12.4°C 49% 0.9 mph ESE1.4 kmh ESE 2.9 mph4.7 kmh 29.89 in1012.2 mb 0.00 in0.0 mm 0.00 in/hr0.0 mm/hr 0.01 in0.3 mm
10:48 AM 74.8°F23.8°C 54.3°F12.4°C 49% 0.9 mph E1.4 kmh E 2.9 mph4.7 kmh 29.89 in1012.2 mb 0.00 in0.0 mm 0.00 in/hr0.0 mm/hr 0.01 in0.3 mm
10:47 AM 74.8°F23.8°C 55.6°F13.1°C 51% 0.9 mph SE1.4 kmh SE 0.9 mph1.4 kmh 29.89 in1012.2 mb 0.00 in0.0 mm 0.00 in/hr0.0 mm/hr 0.01 in0.3 mm
10:46 AM 74.8°F23.8°C 55.6°F13.1°C 51% 0.9 mph E1.4 kmh E 5.0 mph8.0 kmh 29.89 in1012.2 mb 0.00 in0.0 mm 0.00 in/hr0.0 mm/hr 0.01 in0.3 mm
10:45 AM 74.8°F23.8°C 56.1°F13.4°C 52% 0.9 mph E1.4 kmh E 0.9 mph1.4 kmh 29.89 in1012.2 mb 0.00 in0.0 mm 0.00 in/hr0.0 mm/hr 0.01 in0.3 mm
10:44 AM 74.7°F23.7°C 55.4°F13.0°C 51% 0.9 mph SE1.4 kmh SE 0.9 mph1.4 kmh 29.89 in1012.2 mb 0.00 in0.0 mm 0.00 in/hr0.0 mm/hr 0.01 in0.3 mm
10:43 AM 74.7°F23.7°C 55.4°F13.0°C 51% 2.0 mph ENE3.2 kmh ENE 2.0 mph3.2 kmh 29.89 in1012.2 mb 0.00 in0.0 mm 0.00 in/hr0.0 mm/hr 0.01 in0.3 mm
10:42 AM 74.5°F23.6°C 55.8°F13.2°C 52% 2.0 mph SE3.2 kmh SE 2.0 mph3.2 kmh 29.89 in1012.2 mb 0.00 in0.0 mm 0.00 in/hr0.0 mm/hr 0.01 in0.3 mm
10:41 AM 74.3°F23.5°C 55.0°F12.8°C 51% 2.0 mph SSE3.2 kmh SSE 4.0 mph6.4 kmh 29.89 in1012.2 mb 0.00 in0.0 mm 0.00 in/hr0.0 mm/hr 0.01 in0.3 mm
10:40 AM 74.3°F23.5°C 55.6°F13.1°C 52% 0.9 mph ENE1.4 kmh ENE 4.0 mph6.4 kmh 29.89 in1012.2 mb 0.00 in0.0 mm 0.00 in/hr0.0 mm/hr 0.01 in0.3 mm
10:39 AM 74.1°F23.4°C 56.5°F13.6°C 54% 0.9 mph SE1.4 kmh SE 4.0 mph6.4 kmh 29.89 in1012.2 mb 0.00 in0.0 mm 0.00 in/hr0.0 mm/hr 0.01 in0.3 mm
10:38 AM 73.9°F23.3°C 57.2°F14.0°C 56% 0.9 mph SE1.4 kmh SE 4.0 mph6.4 kmh 29.89 in1012.2 mb 0.00 in0.0 mm 0.00 in/hr0.0 mm/hr 0.01 in0.3 mm
10:37 AM 73.8°F23.2°C 56.1°F13.4°C 54% 0.9 mph SE1.4 kmh SE 4.0 mph6.4 kmh 29.89 in1012.2 mb 0.00 in0.0 mm 0.00 in/hr0.0 mm/hr 0.01 in0.3 mm
10:36 AM 73.6°F23.1°C 55.4°F13.0°C 53% 0.9 mph NE1.4 kmh NE 4.0 mph6.4 kmh 29.89 in1012.2 mb 0.00 in0.0 mm 0.00 in/hr0.0 mm/hr 0.01 in0.3 mm
10:35 AM 73.6°F23.1°C 55.4°F13.0°C 53% 0.9 mph SE1.4 kmh SE 2.9 mph4.7 kmh 29.89 in1012.2 mb 0.00 in0.0 mm 0.00 in/hr0.0 mm/hr 0.01 in0.3 mm
10:34 AM 73.2°F22.9°C 56.7°F13.7°C 56% 0.9 mph SE1.4 kmh SE 4.0 mph6.4 kmh 29.89 in1012.2 mb 0.00 in0.0 mm 0.00 in/hr0.0 mm/hr 0.01 in0.3 mm
10:33 AM 73.2°F22.9°C 56.7°F13.7°C 56% 0.9 mph ESE1.4 kmh ESE 4.0 mph6.4 kmh 29.89 in1012.2 mb 0.00 in0.0 mm 0.00 in/hr0.0 mm/hr 0.01 in0.3 mm
10:32 AM 73.0°F22.8°C 56.8°F13.8°C 57% 0.9 mph SSE1.4 kmh SSE 2.0 mph3.2 kmh 29.89 in1012.2 mb 0.00 in0.0 mm 0.00 in/hr0.0 mm/hr 0.01 in0.3 mm
10:31 AM 72.9°F22.7°C 56.3°F13.5°C 56% 0.9 mph E1.4 kmh E 2.9 mph4.7 kmh 29.89 in1012.2 mb 0.00 in0.0 mm 0.00 in/hr0.0 mm/hr 0.01 in0.3 mm
10:30 AM 72.7°F22.6°C 55.6°F13.1°C 55% 0.9 mph SE1.4 kmh SE 2.0 mph3.2 kmh 29.89 in1012.2 mb 0.00 in0.0 mm 0.00 in/hr0.0 mm/hr 0.01 in0.3 mm
10:29 AM 72.5°F22.5°C 56.5°F13.6°C 57% 0.9 mph SE1.4 kmh SE 2.0 mph3.2 kmh 29.88 in1011.9 mb 0.00 in0.0 mm 0.00 in/hr0.0 mm/hr 0.01 in0.3 mm
10:28 AM 72.3°F22.4°C 55.8°F13.2°C 56% 0.9 mph SE1.4 kmh SE 2.0 mph3.2 kmh 29.88 in1011.9 mb 0.00 in0.0 mm 0.00 in/hr0.0 mm/hr 0.01 in0.3 mm
10:27 AM 72.3°F22.4°C 54.7°F12.6°C 54% 0.9 mph SE1.4 kmh SE 5.0 mph8.0 kmh 29.88 in1011.9 mb 0.00 in0.0 mm 0.00 in/hr0.0 mm/hr 0.01 in0.3 mm
10:26 AM 72.1°F22.3°C 54.5°F12.5°C 54% 2.0 mph SE3.2 kmh SE 2.0 mph3.2 kmh 29.88 in1011.9 mb 0.00 in0.0 mm 0.00 in/hr0.0 mm/hr 0.01 in0.3 mm
10:25 AM 72.0°F22.2°C 54.3°F12.4°C 54% 0.9 mph SSE1.4 kmh SSE 2.9 mph4.7 kmh 29.88 in1011.9 mb 0.00 in0.0 mm 0.00 in/hr0.0 mm/hr 0.01 in0.3 mm
10:24 AM 71.8°F22.1°C 54.7°F12.6°C 55% 0.9 mph SE1.4 kmh SE 4.0 mph6.4 kmh 29.88 in1011.9 mb 0.00 in0.0 mm 0.00 in/hr0.0 mm/hr 0.01 in0.3 mm
10:23 AM 71.6°F22.0°C 54.5°F12.5°C 55% 0.9 mph SE1.4 kmh SE 2.0 mph3.2 kmh 29.88 in1011.9 mb 0.00 in0.0 mm 0.00 in/hr0.0 mm/hr 0.01 in0.3 mm
10:22 AM 71.4°F21.9°C 55.9°F13.3°C 58% 0.9 mph SE1.4 kmh SE 0.9 mph1.4 kmh 29.88 in1011.9 mb 0.00 in0.0 mm 0.00 in/hr0.0 mm/hr 0.01 in0.3 mm
10:21 AM 71.2°F21.8°C 54.3°F12.4°C 55% 0.9 mph SE1.4 kmh SE 4.0 mph6.4 kmh 29.88 in1011.9 mb 0.00 in0.0 mm 0.00 in/hr0.0 mm/hr 0.01 in0.3 mm
10:20 AM 71.1°F21.7°C 55.6°F13.1°C 58% 0.9 mph SE1.4 kmh SE 2.9 mph4.7 kmh 29.88 in1011.9 mb 0.00 in0.0 mm 0.00 in/hr0.0 mm/hr 0.01 in0.3 mm
10:19 AM 70.9°F21.6°C 54.9°F12.7°C 57% 0.9 mph SE1.4 kmh SE 4.0 mph6.4 kmh 29.88 in1011.9 mb 0.00 in0.0 mm 0.00 in/hr0.0 mm/hr 0.01 in0.3 mm
10:18 AM 70.7°F21.5°C 54.7°F12.6°C 57% 0.9 mph SE1.4 kmh SE 4.0 mph6.4 kmh 29.88 in1011.9 mb 0.00 in0.0 mm 0.00 in/hr0.0 mm/hr 0.01 in0.3 mm
10:17 AM 70.5°F21.4°C 55.0°F12.8°C 58% 0.9 mph NE1.4 kmh NE 4.0 mph6.4 kmh 29.88 in1011.9 mb 0.00 in0.0 mm 0.00 in/hr0.0 mm/hr 0.01 in0.3 mm
10:16 AM 70.3°F21.3°C 57.2°F14.0°C 63% 0.9 mph E1.4 kmh E 4.0 mph6.4 kmh 29.88 in1011.9 mb 0.00 in0.0 mm 0.00 in/hr0.0 mm/hr 0.01 in0.3 mm
10:15 AM 70.2°F21.2°C 57.0°F13.9°C 63% 0.9 mph SE1.4 kmh SE 2.9 mph4.7 kmh 29.88 in1011.9 mb 0.00 in0.0 mm 0.00 in/hr0.0 mm/hr 0.01 in0.3 mm
10:14 AM 70.0°F21.1°C 55.0°F12.8°C 59% 0.9 mph SE1.4 kmh SE 4.0 mph6.4 kmh 29.88 in1011.9 mb 0.00 in0.0 mm 0.00 in/hr0.0 mm/hr 0.01 in0.3 mm
10:13 AM 69.8°F21.0°C 53.4°F11.9°C 56% 0.9 mph ENE1.4 kmh ENE 4.0 mph6.4 kmh 29.88 in1011.9 mb 0.00 in0.0 mm 0.00 in/hr0.0 mm/hr 0.01 in0.3 mm
10:12 AM 69.6°F20.9°C 55.0°F12.8°C 60% 0.9 mph ESE1.4 kmh ESE 2.0 mph3.2 kmh 29.88 in1011.9 mb 0.00 in0.0 mm 0.00 in/hr0.0 mm/hr 0.01 in0.3 mm
10:11 AM 69.4°F20.8°C 54.0°F12.2°C 58% 0.9 mph SE1.4 kmh SE 2.9 mph4.7 kmh 29.88 in1011.9 mb 0.00 in0.0 mm 0.00 in/hr0.0 mm/hr 0.01 in0.3 mm
10:10 AM 69.3°F20.7°C 55.8°F13.2°C 62% 0.9 mph ENE1.4 kmh ENE 2.9 mph4.7 kmh 29.88 in1011.9 mb 0.00 in0.0 mm 0.00 in/hr0.0 mm/hr 0.01 in0.3 mm
10:09 AM 69.1°F20.6°C 56.5°F13.6°C 64% 0.9 mph E1.4 kmh E 0.9 mph1.4 kmh 29.88 in1011.9 mb 0.00 in0.0 mm 0.00 in/hr0.0 mm/hr 0.01 in0.3 mm
10:08 AM 68.7°F20.4°C 55.6°F13.1°C 63% 0.9 mph ESE1.4 kmh ESE 2.0 mph3.2 kmh 29.88 in1011.9 mb 0.00 in0.0 mm 0.00 in/hr0.0 mm/hr 0.01 in0.3 mm
10:07 AM 68.7°F20.4°C 55.6°F13.1°C 63% 0.9 mph ESE1.4 kmh ESE 2.0 mph3.2 kmh 29.88 in1011.9 mb 0.00 in0.0 mm 0.00 in/hr0.0 mm/hr 0.01 in0.3 mm
10:06 AM 68.5°F20.3°C 55.9°F13.3°C 64% 0.9 mph E1.4 kmh E 2.9 mph4.7 kmh 29.88 in1011.9 mb 0.00 in0.0 mm 0.00 in/hr0.0 mm/hr 0.01 in0.3 mm
10:05 AM 68.4°F20.2°C 55.8°F13.2°C 64% 0.9 mph ENE1.4 kmh ENE 2.9 mph4.7 kmh 29.88 in1011.9 mb 0.00 in0.0 mm 0.00 in/hr0.0 mm/hr 0.01 in0.3 mm
10:04 AM 68.2°F20.1°C 56.3°F13.5°C 66% 0.9 mph E1.4 kmh E 0.9 mph1.4 kmh 29.88 in1011.9 mb 0.00 in0.0 mm 0.00 in/hr0.0 mm/hr 0.01 in0.3 mm
10:03 AM 67.8°F19.9°C 54.7°F12.6°C 63% 0.9 mph E1.4 kmh E 4.0 mph6.4 kmh 29.88 in1011.9 mb 0.00 in0.0 mm 0.00 in/hr0.0 mm/hr 0.01 in0.3 mm
10:02 AM 67.6°F19.8°C 55.4°F13.0°C 65% 0.9 mph E1.4 kmh E 2.0 mph3.2 kmh 29.88 in1011.9 mb 0.00 in0.0 mm 0.00 in/hr0.0 mm/hr 0.01 in0.3 mm
10:01 AM 67.5°F19.7°C 56.1°F13.4°C 67% 0.9 mph E1.4 kmh E 2.0 mph3.2 kmh 29.88 in1011.9 mb 0.00 in0.0 mm 0.00 in/hr0.0 mm/hr 0.01 in0.3 mm
10:00 AM 67.3°F19.6°C 55.9°F13.3°C 67% 0.9 mph SE1.4 kmh SE 0.9 mph1.4 kmh 29.88 in1011.9 mb 0.00 in0.0 mm 0.00 in/hr0.0 mm/hr 0.01 in0.3 mm
09:59 AM 66.9°F19.4°C 55.9°F13.3°C 68% 0.9 mph SSE1.4 kmh SSE 2.9 mph4.7 kmh 29.88 in1011.9 mb 0.00 in0.0 mm 0.00 in/hr0.0 mm/hr 0.01 in0.3 mm
09:58 AM 66.7°F19.3°C 55.8°F13.2°C 68% 0.9 mph SE1.4 kmh SE 2.9 mph4.7 kmh 29.88 in1011.9 mb 0.00 in0.0 mm 0.00 in/hr0.0 mm/hr 0.01 in0.3 mm
09:57 AM 66.6°F19.2°C 56.5°F13.6°C 70% 0.9 mph ENE1.4 kmh ENE 2.0 mph3.2 kmh 29.88 in1011.9 mb 0.00 in0.0 mm 0.00 in/hr0.0 mm/hr 0.01 in0.3 mm
09:56 AM 66.4°F19.1°C 55.9°F13.3°C 69% 0.9 mph ENE1.4 kmh ENE 2.0 mph3.2 kmh 29.88 in1011.9 mb 0.00 in0.0 mm 0.00 in/hr0.0 mm/hr 0.01 in0.3 mm
09:55 AM 66.2°F19.0°C 54.9°F12.7°C 67% 0.9 mph NE1.4 kmh NE 2.0 mph3.2 kmh 29.88 in1011.9 mb 0.00 in0.0 mm 0.00 in/hr0.0 mm/hr 0.01 in0.3 mm
09:54 AM 66.0°F18.9°C 54.3°F12.4°C 66% 0.9 mph SE1.4 kmh SE 2.0 mph3.2 kmh 29.88 in1011.9 mb 0.00 in0.0 mm 0.00 in/hr0.0 mm/hr 0.01 in0.3 mm
09:53 AM 66.0°F18.9°C 54.0°F12.2°C 65% 0.9 mph ENE1.4 kmh ENE 4.9 mph7.9 kmh 29.88 in1011.9 mb 0.00 in0.0 mm 0.00 in/hr0.0 mm/hr 0.01 in0.3 mm
09:52 AM 66.0°F18.9°C 55.2°F12.9°C 68% 0.9 mph NE1.4 kmh NE 4.9 mph7.9 kmh 29.88 in1011.9 mb 0.00 in0.0 mm 0.00 in/hr0.0 mm/hr 0.01 in0.3 mm
09:51 AM 66.0°F18.9°C 55.9°F13.3°C 70% 0.9 mph SE1.4 kmh SE 2.9 mph4.7 kmh 29.88 in1011.9 mb 0.00 in0.0 mm 0.00 in/hr0.0 mm/hr 0.01 in0.3 mm
09:50 AM 65.8°F18.8°C 55.4°F13.0°C 69% 0.9 mph E1.4 kmh E 0.9 mph1.4 kmh 29.88 in1011.9 mb 0.00 in0.0 mm 0.00 in/hr0.0 mm/hr 0.01 in0.3 mm
09:49 AM 65.8°F18.8°C 56.1°F13.4°C 71% 0.9 mph ENE1.4 kmh ENE 2.9 mph4.7 kmh 29.88 in1011.9 mb 0.00 in0.0 mm 0.00 in/hr0.0 mm/hr 0.01 in0.3 mm
09:48 AM 65.7°F18.7°C 55.6°F13.1°C 70% 0.9 mph E1.4 kmh E 2.0 mph3.2 kmh 29.88 in1011.9 mb 0.00 in0.0 mm 0.00 in/hr0.0 mm/hr 0.01 in0.3 mm
09:47 AM 65.5°F18.6°C 55.4°F13.0°C 70% 0.9 mph ESE1.4 kmh ESE 0.9 mph1.4 kmh 29.88 in1011.9 mb 0.00 in0.0 mm 0.00 in/hr0.0 mm/hr 0.01 in0.3 mm
09:46 AM 65.5°F18.6°C 56.3°F13.5°C 72% 0.9 mph S1.4 kmh S -- 29.88 in1011.9 mb 0.00 in0.0 mm 0.00 in/hr0.0 mm/hr 0.01 in0.3 mm
09:45 AM 65.1°F18.4°C 55.0°F12.8°C 70% 0.9 mph SW1.4 kmh SW 2.0 mph3.2 kmh 29.88 in1011.9 mb 0.00 in0.0 mm 0.00 in/hr0.0 mm/hr 0.01 in0.3 mm
09:44 AM 65.1°F18.4°C 54.7°F12.6°C 69% 0.9 mph SE1.4 kmh SE 5.0 mph8.0 kmh 29.88 in1011.9 mb 0.00 in0.0 mm 0.00 in/hr0.0 mm/hr 0.01 in0.3 mm
09:43 AM 65.1°F18.4°C 55.0°F12.8°C 70% 0.9 mph SE1.4 kmh SE 4.0 mph6.4 kmh 29.88 in1011.9 mb 0.00 in0.0 mm 0.00 in/hr0.0 mm/hr 0.01 in0.3 mm
09:42 AM 65.1°F18.4°C 55.9°F13.3°C 72% 0.9 mph ESE1.4 kmh ESE 2.0 mph3.2 kmh 29.88 in1011.9 mb 0.00 in0.0 mm 0.00 in/hr0.0 mm/hr 0.01 in0.3 mm
09:41 AM 65.1°F18.4°C 55.0°F12.8°C 70% 0.9 mph E1.4 kmh E 2.0 mph3.2 kmh 29.88 in1011.9 mb 0.00 in0.0 mm 0.00 in/hr0.0 mm/hr 0.01 in0.3 mm
09:40 AM 65.1°F18.4°C 55.0°F12.8°C 70% 0.9 mph E1.4 kmh E 2.9 mph4.7 kmh 29.88 in1011.9 mb 0.00 in0.0 mm 0.00 in/hr0.0 mm/hr 0.01 in0.3 mm
09:39 AM 65.1°F18.4°C 55.4°F13.0°C 71% 0.9 mph E1.4 kmh E 2.9 mph4.7 kmh 29.88 in1011.9 mb 0.00 in0.0 mm 0.00 in/hr0.0 mm/hr 0.01 in0.3 mm
09:38 AM 65.1°F18.4°C 55.9°F13.3°C 72% 0.9 mph ESE1.4 kmh ESE 2.0 mph3.2 kmh 29.88 in1011.9 mb 0.00 in0.0 mm 0.00 in/hr0.0 mm/hr 0.01 in0.3 mm
09:37 AM 64.9°F18.3°C 56.1°F13.4°C 73% 0.9 mph SE1.4 kmh SE 0.9 mph1.4 kmh 29.88 in1011.9 mb 0.00 in0.0 mm 0.00 in/hr0.0 mm/hr 0.01 in0.3 mm
09:36 AM 64.9°F18.3°C 56.1°F13.4°C 73% 0.9 mph SE1.4 kmh SE 2.0 mph3.2 kmh 29.88 in1011.9 mb 0.00 in0.0 mm 0.00 in/hr0.0 mm/hr 0.01 in0.3 mm
09:35 AM 64.8°F18.2°C 57.4°F14.1°C 77% 0.9 mph E1.4 kmh E 0.9 mph1.4 kmh 29.88 in1011.9 mb 0.00 in0.0 mm 0.00 in/hr0.0 mm/hr 0.01 in0.3 mm
09:34 AM 64.6°F18.1°C 56.5°F13.6°C 75% 0.9 mph SW1.4 kmh SW 2.0 mph3.2 kmh 29.88 in1011.9 mb 0.00 in0.0 mm 0.00 in/hr0.0 mm/hr 0.01 in0.3 mm
09:33 AM 64.6°F18.1°C 56.5°F13.6°C 75% 0.9 mph SE1.4 kmh SE 2.0 mph3.2 kmh 29.88 in1011.9 mb 0.00 in0.0 mm 0.00 in/hr0.0 mm/hr 0.01 in0.3 mm
09:32 AM 64.4°F18.0°C 57.0°F13.9°C 77% 0.9 mph E1.4 kmh E 2.0 mph3.2 kmh 29.88 in1011.9 mb 0.00 in0.0 mm 0.00 in/hr0.0 mm/hr 0.01 in0.3 mm
09:31 AM 64.6°F18.1°C 56.5°F13.6°C 75% 0.9 mph SSE1.4 kmh SSE 4.9 mph7.9 kmh 29.88 in1011.9 mb 0.00 in0.0 mm 0.00 in/hr0.0 mm/hr 0.01 in0.3 mm
09:30 AM 64.6°F18.1°C 56.5°F13.6°C 75% 0.9 mph E1.4 kmh E 4.9 mph7.9 kmh 29.88 in1011.9 mb 0.00 in0.0 mm 0.00 in/hr0.0 mm/hr 0.01 in0.3 mm
09:29 AM 64.6°F18.1°C 56.5°F13.6°C 75% 0.9 mph SE1.4 kmh SE 2.9 mph4.7 kmh 29.88 in1011.9 mb 0.00 in0.0 mm 0.00 in/hr0.0 mm/hr 0.01 in0.3 mm
09:28 AM 64.6°F18.1°C 57.2°F14.0°C 77% 0.9 mph ENE1.4 kmh ENE 6.0 mph9.7 kmh 29.88 in1011.9 mb 0.00 in0.0 mm 0.00 in/hr0.0 mm/hr 0.01 in0.3 mm
09:27 AM 64.6°F18.1°C 56.8°F13.8°C 76% 0.9 mph SE1.4 kmh SE 0.9 mph1.4 kmh 29.88 in1011.9 mb 0.00 in0.0 mm 0.00 in/hr0.0 mm/hr 0.01 in0.3 mm
09:26 AM 64.6°F18.1°C 56.8°F13.8°C 76% 0.9 mph ENE1.4 kmh ENE 2.0 mph3.2 kmh 29.88 in1011.9 mb 0.00 in0.0 mm 0.00 in/hr0.0 mm/hr 0.01 in0.3 mm
09:25 AM 64.6°F18.1°C 56.1°F13.4°C 74% 0.9 mph ESE1.4 kmh ESE 2.9 mph4.7 kmh 29.88 in1011.9 mb 0.00 in0.0 mm 0.00 in/hr0.0 mm/hr 0.01 in0.3 mm
09:24 AM 64.8°F18.2°C 55.9°F13.3°C 73% 0.9 mph SE1.4 kmh SE 2.9 mph4.7 kmh 29.88 in1011.9 mb 0.00 in0.0 mm 0.00 in/hr0.0 mm/hr 0.01 in0.3 mm
09:23 AM 64.6°F18.1°C 56.8°F13.8°C 76% 0.9 mph ESE1.4 kmh ESE 0.9 mph1.4 kmh 29.88 in1011.9 mb 0.00 in0.0 mm 0.00 in/hr0.0 mm/hr 0.01 in0.3 mm
09:22 AM 64.6°F18.1°C 56.8°F13.8°C 76% 0.9 mph SE1.4 kmh SE 0.9 mph1.4 kmh 29.88 in1011.9 mb 0.00 in0.0 mm 0.00 in/hr0.0 mm/hr 0.01 in0.3 mm
09:21 AM 64.6°F18.1°C 56.5°F13.6°C 75% 0.9 mph SE1.4 kmh SE 2.9 mph4.7 kmh 29.88 in1011.9 mb 0.00 in0.0 mm 0.00 in/hr0.0 mm/hr 0.01 in0.3 mm
09:20 AM 64.6°F18.1°C 56.8°F13.8°C 76% Calm Calm 2.0 mph3.2 kmh 29.88 in1011.9 mb 0.00 in0.0 mm 0.00 in/hr0.0 mm/hr 0.01 in0.3 mm
09:19 AM 64.2°F17.9°C 56.5°F13.6°C 76% Calm Calm 0.9 mph1.4 kmh 29.88 in1011.9 mb 0.00 in0.0 mm 0.00 in/hr0.0 mm/hr 0.01 in0.3 mm
09:18 AM 64.2°F17.9°C 56.5°F13.6°C 76% Calm Calm 2.0 mph3.2 kmh 29.88 in1011.9 mb 0.00 in0.0 mm 0.00 in/hr0.0 mm/hr 0.01 in0.3 mm
09:17 AM 64.0°F17.8°C 56.3°F13.5°C 76% Calm Calm -- 29.88 in1011.9 mb 0.00 in0.0 mm 0.00 in/hr0.0 mm/hr 0.01 in0.3 mm
09:16 AM 63.9°F17.7°C 56.1°F13.4°C 76% Calm Calm -- 29.88 in1011.9 mb 0.00 in0.0 mm 0.00 in/hr0.0 mm/hr 0.01 in0.3 mm
09:15 AM 63.9°F17.7°C 55.0°F12.8°C 73% Calm Calm 2.0 mph3.2 kmh 29.88 in1011.9 mb 0.00 in0.0 mm 0.00 in/hr0.0 mm/hr 0.01 in0.3 mm
09:14 AM 63.9°F17.7°C 55.8°F13.2°C 75% Calm Calm 2.9 mph4.7 kmh 29.88 in1011.9 mb 0.00 in0.0 mm 0.00 in/hr0.0 mm/hr 0.01 in0.3 mm
09:13 AM 63.5°F17.5°C 55.4°F13.0°C 75% Calm Calm 2.0 mph3.2 kmh 29.88 in1011.9 mb 0.00 in0.0 mm 0.00 in/hr0.0 mm/hr 0.01 in0.3 mm
09:12 AM 63.1°F17.3°C 56.1°F13.4°C 78% Calm Calm -- 29.88 in1011.9 mb 0.00 in0.0 mm 0.00 in/hr0.0 mm/hr 0.01 in0.3 mm
09:11 AM 62.8°F17.1°C 56.1°F13.4°C 79% Calm Calm -- 29.88 in1011.9 mb 0.00 in0.0 mm 0.00 in/hr0.0 mm/hr 0.01 in0.3 mm
09:10 AM 62.2°F16.8°C 56.7°F13.7°C 82% Calm Calm -- 29.88 in1011.9 mb 0.00 in0.0 mm 0.00 in/hr0.0 mm/hr 0.01 in0.3 mm
09:09 AM 61.5°F16.4°C 56.3°F13.5°C 83% Calm Calm -- 29.88 in1011.9 mb 0.00 in0.0 mm 0.00 in/hr0.0 mm/hr 0.01 in0.3 mm
09:08 AM 61.2°F16.2°C 55.9°F13.3°C 83% Calm Calm -- 29.88 in1011.9 mb 0.00 in0.0 mm 0.00 in/hr0.0 mm/hr 0.01 in0.3 mm
09:07 AM 60.6°F15.9°C 55.4°F13.0°C 83% Calm Calm -- 29.88 in1011.9 mb 0.00 in0.0 mm 0.00 in/hr0.0 mm/hr 0.01 in0.3 mm
09:06 AM 60.1°F15.6°C 54.9°F12.7°C 83% Calm Calm -- 29.88 in1011.9 mb 0.00 in0.0 mm 0.00 in/hr0.0 mm/hr 0.01 in0.3 mm
09:05 AM 59.7°F15.4°C 55.2°F12.9°C 85% Calm Calm -- 29.88 in1011.9 mb 0.00 in0.0 mm 0.00 in/hr0.0 mm/hr 0.01 in0.3 mm
09:04 AM 59.4°F15.2°C 55.4°F13.0°C 87% Calm Calm -- 29.88 in1011.9 mb 0.00 in0.0 mm 0.00 in/hr0.0 mm/hr 0.01 in0.3 mm
09:03 AM 58.8°F14.9°C 55.0°F12.8°C 87% Calm Calm -- 29.88 in1011.9 mb 0.00 in0.0 mm 0.00 in/hr0.0 mm/hr 0.01 in0.3 mm
09:02 AM 58.5°F14.7°C 54.0°F12.2°C 85% Calm Calm -- 29.88 in1011.9 mb 0.00 in0.0 mm 0.00 in/hr0.0 mm/hr 0.01 in0.3 mm
09:01 AM 57.9°F14.4°C 54.1°F12.3°C 87% Calm Calm -- 29.88 in1011.9 mb 0.00 in0.0 mm 0.00 in/hr0.0 mm/hr 0.01 in0.3 mm
09:00 AM 57.4°F14.1°C 53.8°F12.1°C 88% Calm Calm -- 29.88 in1011.9 mb 0.00 in0.0 mm 0.00 in/hr0.0 mm/hr 0.01 in0.3 mm
08:59 AM 57.0°F13.9°C 53.8°F12.1°C 89% Calm Calm -- 29.89 in1012.2 mb 0.00 in0.0 mm 0.00 in/hr0.0 mm/hr 0.01 in0.3 mm
08:58 AM 56.5°F13.6°C 53.2°F11.8°C 89% Calm Calm -- 29.89 in1012.2 mb 0.00 in0.0 mm 0.00 in/hr0.0 mm/hr 0.01 in0.3 mm
08:57 AM 56.1°F13.4°C 53.6°F12.0°C 91% Calm Calm -- 29.89 in1012.2 mb 0.00 in0.0 mm 0.00 in/hr0.0 mm/hr 0.01 in0.3 mm
08:56 AM 55.9°F13.3°C 53.1°F11.7°C 90% Calm Calm -- 29.89 in1012.2 mb 0.00 in0.0 mm 0.00 in/hr0.0 mm/hr 0.01 in0.3 mm
08:55 AM 55.6°F13.1°C 52.7°F11.5°C 90% Calm Calm -- 29.89 in1012.2 mb 0.00 in0.0 mm 0.00 in/hr0.0 mm/hr 0.01 in0.3 mm
08:54 AM 55.4°F13.0°C 52.2°F11.2°C 89% Calm Calm -- 29.89 in1012.2 mb 0.00 in0.0 mm 0.00 in/hr0.0 mm/hr 0.01 in0.3 mm
08:53 AM 55.2°F12.9°C 52.7°F11.5°C 91% Calm Calm -- 29.89 in1012.2 mb 0.00 in0.0 mm 0.00 in/hr0.0 mm/hr 0.01 in0.3 mm
08:52 AM 55.0°F12.8°C 52.5°F11.4°C 91% Calm Calm -- 29.89 in1012.2 mb 0.00 in0.0 mm 0.00 in/hr0.0 mm/hr 0.01 in0.3 mm
08:51 AM 54.7°F12.6°C 51.8°F11.0°C 90% Calm Calm -- 29.89 in1012.2 mb 0.00 in0.0 mm 0.00 in/hr0.0 mm/hr 0.01 in0.3 mm
08:50 AM 54.5°F12.5°C 52.0°F11.1°C 91% Calm Calm -- 29.89 in1012.2 mb 0.00 in0.0 mm 0.00 in/hr0.0 mm/hr 0.01 in0.3 mm
08:49 AM 54.1°F12.3°C 51.6°F10.9°C 91% Calm Calm -- 29.89 in1012.2 mb 0.00 in0.0 mm 0.00 in/hr0.0 mm/hr 0.01 in0.3 mm
08:48 AM 54.0°F12.2°C 52.0°F11.1°C 93% Calm Calm -- 29.89 in1012.2 mb 0.00 in0.0 mm 0.00 in/hr0.0 mm/hr 0.01 in0.3 mm
08:47 AM 53.8°F12.1°C 51.4°F10.8°C 92% Calm Calm -- 29.89 in1012.2 mb 0.00 in0.0 mm 0.00 in/hr0.0 mm/hr 0.01 in0.3 mm
08:46 AM 53.4°F11.9°C 51.1°F10.6°C 92% Calm Calm -- 29.89 in1012.2 mb 0.00 in0.0 mm 0.00 in/hr0.0 mm/hr 0.01 in0.3 mm
08:45 AM 53.2°F11.8°C 50.9°F10.5°C 92% Calm Calm -- 29.89 in1012.2 mb 0.00 in0.0 mm 0.00 in/hr0.0 mm/hr 0.01 in0.3 mm
08:44 AM 52.9°F11.6°C 50.5°F10.3°C 92% Calm Calm -- 29.89 in1012.2 mb 0.00 in0.0 mm 0.00 in/hr0.0 mm/hr 0.01 in0.3 mm
08:43 AM 52.5°F11.4°C 50.2°F10.1°C 92% Calm Calm -- 29.89 in1012.2 mb 0.00 in0.0 mm 0.00 in/hr0.0 mm/hr 0.01 in0.3 mm
08:42 AM 52.3°F11.3°C 50.0°F10.0°C 92% Calm Calm -- 29.89 in1012.2 mb 0.00 in0.0 mm 0.00 in/hr0.0 mm/hr 0.01 in0.3 mm
08:41 AM 52.2°F11.2°C 49.6°F9.8°C 91% Calm Calm -- 29.89 in1012.2 mb 0.00 in0.0 mm 0.00 in/hr0.0 mm/hr 0.01 in0.3 mm
08:40 AM 52.0°F11.1°C 49.6°F9.8°C 92% Calm Calm -- 29.89 in1012.2 mb 0.00 in0.0 mm 0.00 in/hr0.0 mm/hr 0.01 in0.3 mm
08:39 AM 52.0°F11.1°C 49.6°F9.8°C 92% Calm Calm -- 29.89 in1012.2 mb 0.00 in0.0 mm 0.00 in/hr0.0 mm/hr 0.01 in0.3 mm
08:38 AM 51.8°F11.0°C 49.8°F9.9°C 93% Calm Calm -- 29.89 in1012.2 mb 0.00 in0.0 mm 0.00 in/hr0.0 mm/hr 0.01 in0.3 mm
08:37 AM 51.6°F10.9°C 49.6°F9.8°C 93% Calm Calm -- 29.89 in1012.2 mb 0.00 in0.0 mm 0.00 in/hr0.0 mm/hr 0.01 in0.3 mm
08:36 AM 51.4°F10.8°C 49.5°F9.7°C 93% Calm Calm -- 29.89 in1012.2 mb 0.00 in0.0 mm 0.00 in/hr0.0 mm/hr 0.01 in0.3 mm
08:35 AM 51.3°F10.7°C 49.3°F9.6°C 93% Calm Calm -- 29.89 in1012.2 mb 0.00 in0.0 mm 0.00 in/hr0.0 mm/hr 0.01 in0.3 mm
08:34 AM 51.1°F10.6°C 48.9°F9.4°C 92% Calm Calm -- 29.89 in1012.2 mb 0.00 in0.0 mm 0.00 in/hr0.0 mm/hr 0.01 in0.3 mm
08:33 AM 50.7°F10.4°C 48.6°F9.2°C 92% Calm Calm -- 29.89 in1012.2 mb 0.00 in0.0 mm 0.00 in/hr0.0 mm/hr 0.01 in0.3 mm
08:32 AM 50.7°F10.4°C 48.6°F9.2°C 92% Calm Calm -- 29.89 in1012.2 mb 0.00 in0.0 mm 0.00 in/hr0.0 mm/hr 0.01 in0.3 mm
08:31 AM 50.7°F10.4°C 48.6°F9.2°C 92% Calm Calm -- 29.89 in1012.2 mb 0.00 in0.0 mm 0.00 in/hr0.0 mm/hr 0.01 in0.3 mm
08:30 AM 50.5°F10.3°C 48.4°F9.1°C 92% Calm Calm -- 29.89 in1012.2 mb 0.00 in0.0 mm 0.00 in/hr0.0 mm/hr 0.01 in0.3 mm
08:29 AM 50.5°F10.3°C 48.6°F9.2°C 93% Calm Calm -- 29.89 in1012.2 mb 0.00 in0.0 mm 0.00 in/hr0.0 mm/hr 0.01 in0.3 mm
08:28 AM 50.5°F10.3°C 48.6°F9.2°C 93% Calm Calm -- 29.89 in1012.2 mb 0.00 in0.0 mm 0.00 in/hr0.0 mm/hr 0.01 in0.3 mm
08:27 AM 50.5°F10.3°C 48.6°F9.2°C 93% Calm Calm -- 29.89 in1012.2 mb 0.00 in0.0 mm 0.00 in/hr0.0 mm/hr 0.01 in0.3 mm
08:26 AM 50.4°F10.2°C 48.4°F9.1°C 93% Calm Calm -- 29.89 in1012.2 mb 0.00 in0.0 mm 0.00 in/hr0.0 mm/hr 0.01 in0.3 mm
08:25 AM 50.4°F10.2°C 48.4°F9.1°C 93% Calm Calm -- 29.89 in1012.2 mb 0.00 in0.0 mm 0.00 in/hr0.0 mm/hr 0.01 in0.3 mm
08:24 AM 50.4°F10.2°C 48.4°F9.1°C 93% Calm Calm -- 29.89 in1012.2 mb 0.00 in0.0 mm 0.00 in/hr0.0 mm/hr 0.01 in0.3 mm
08:23 AM 50.4°F10.2°C 48.4°F9.1°C 93% Calm Calm -- 29.89 in1012.2 mb 0.00 in0.0 mm 0.00 in/hr0.0 mm/hr 0.01 in0.3 mm
08:22 AM 50.2°F10.1°C 48.2°F9.0°C 93% Calm Calm -- 29.89 in1012.2 mb 0.00 in0.0 mm 0.00 in/hr0.0 mm/hr 0.01 in0.3 mm
08:21 AM 50.2°F10.1°C 48.0°F8.9°C 92% Calm Calm -- 29.89 in1012.2 mb 0.00 in0.0 mm 0.00 in/hr0.0 mm/hr 0.01 in0.3 mm
08:20 AM 50.2°F10.1°C 48.2°F9.0°C 93% Calm Calm -- 29.89 in1012.2 mb 0.00 in0.0 mm 0.00 in/hr0.0 mm/hr 0.01 in0.3 mm
08:19 AM 50.0°F10.0°C 48.0°F8.9°C 93% Calm Calm -- 29.89 in1012.2 mb 0.00 in0.0 mm 0.00 in/hr0.0 mm/hr 0.01 in0.3 mm
08:18 AM 50.0°F10.0°C 48.0°F8.9°C 93% Calm Calm -- 29.89 in1012.2 mb 0.00 in0.0 mm 0.00 in/hr0.0 mm/hr 0.01 in0.3 mm
08:17 AM 50.0°F10.0°C 48.0°F8.9°C 93% Calm Calm -- 29.89 in1012.2 mb 0.00 in0.0 mm 0.00 in/hr0.0 mm/hr 0.01 in0.3 mm
08:16 AM 49.8°F9.9°C 47.8°F8.8°C 93% Calm Calm -- 29.89 in1012.2 mb 0.00 in0.0 mm 0.00 in/hr0.0 mm/hr 0.01 in0.3 mm
08:15 AM 49.8°F9.9°C 47.8°F8.8°C 93% Calm Calm -- 29.89 in1012.2 mb 0.00 in0.0 mm 0.00 in/hr0.0 mm/hr 0.01 in0.3 mm
08:14 AM 49.8°F9.9°C 47.8°F8.8°C 93% Calm Calm -- 29.89 in1012.2 mb 0.00 in0.0 mm 0.00 in/hr0.0 mm/hr 0.01 in0.3 mm
08:13 AM 49.6°F9.8°C 47.7°F8.7°C 93% Calm Calm -- 29.89 in1012.2 mb 0.00 in0.0 mm 0.00 in/hr0.0 mm/hr 0.01 in0.3 mm
08:12 AM 49.6°F9.8°C 47.7°F8.7°C 93% Calm Calm -- 29.89 in1012.2 mb 0.00 in0.0 mm 0.00 in/hr0.0 mm/hr 0.01 in0.3 mm
08:11 AM 49.6°F9.8°C 47.7°F8.7°C 93% Calm Calm -- 29.89 in1012.2 mb 0.00 in0.0 mm 0.00 in/hr0.0 mm/hr 0.01 in0.3 mm
08:10 AM 49.6°F9.8°C 47.7°F8.7°C 93% Calm Calm -- 29.89 in1012.2 mb 0.00 in0.0 mm 0.00 in/hr0.0 mm/hr 0.01 in0.3 mm
08:09 AM 49.6°F9.8°C 47.7°F8.7°C 93% Calm Calm -- 29.89 in1012.2 mb 0.00 in0.0 mm 0.00 in/hr0.0 mm/hr 0.01 in0.3 mm
08:08 AM 49.5°F9.7°C 47.5°F8.6°C 93% Calm Calm -- 29.89 in1012.2 mb 0.00 in0.0 mm 0.00 in/hr0.0 mm/hr 0.01 in0.3 mm
08:07 AM 49.5°F9.7°C 47.5°F8.6°C 93% Calm Calm -- 29.89 in1012.2 mb 0.00 in0.0 mm 0.00 in/hr0.0 mm/hr 0.01 in0.3 mm
08:06 AM 49.5°F9.7°C 47.5°F8.6°C 93% Calm Calm -- 29.89 in1012.2 mb 0.00 in0.0 mm 0.00 in/hr0.0 mm/hr 0.01 in0.3 mm
08:05 AM 49.3°F9.6°C 47.3°F8.5°C 93% Calm Calm -- 29.89 in1012.2 mb 0.00 in0.0 mm 0.00 in/hr0.0 mm/hr 0.01 in0.3 mm
08:04 AM 49.3°F9.6°C 47.3°F8.5°C 93% Calm Calm -- 29.89 in1012.2 mb 0.00 in0.0 mm 0.00 in/hr0.0 mm/hr 0.01 in0.3 mm
08:03 AM 49.3°F9.6°C 47.3°F8.5°C 93% Calm Calm -- 29.89 in1012.2 mb 0.00 in0.0 mm 0.00 in/hr0.0 mm/hr 0.01 in0.3 mm
08:02 AM 49.3°F9.6°C 47.3°F8.5°C 93% Calm Calm -- 29.89 in1012.2 mb 0.00 in0.0 mm 0.00 in/hr0.0 mm/hr 0.01 in0.3 mm
08:01 AM 49.3°F9.6°C 47.3°F8.5°C 93% Calm Calm -- 29.89 in1012.2 mb 0.00 in0.0 mm 0.00 in/hr0.0 mm/hr 0.01 in0.3 mm
08:00 AM 49.3°F9.6°C 47.3°F8.5°C 93% Calm Calm -- 29.89 in1012.2 mb 0.00 in0.0 mm 0.00 in/hr0.0 mm/hr 0.01 in0.3 mm
07:59 AM 49.3°F9.6°C 47.3°F8.5°C 93% Calm Calm -- 29.89 in1012.2 mb 0.00 in0.0 mm 0.00 in/hr0.0 mm/hr 0.01 in0.3 mm
07:58 AM 49.3°F9.6°C 47.3°F8.5°C 93% Calm Calm -- 29.89 in1012.2 mb 0.00 in0.0 mm 0.00 in/hr0.0 mm/hr 0.01 in0.3 mm
07:57 AM 49.3°F9.6°C 47.3°F8.5°C 93% Calm Calm 0.9 mph1.4 kmh 29.89 in1012.2 mb 0.00 in0.0 mm 0.00 in/hr0.0 mm/hr 0.01 in0.3 mm
07:56 AM 49.3°F9.6°C 47.3°F8.5°C 93% Calm Calm 1.0 mph1.6 kmh 29.89 in1012.2 mb 0.00 in0.0 mm 0.00 in/hr0.0 mm/hr 0.01 in0.3 mm
07:55 AM 49.1°F9.5°C 47.1°F8.4°C 93% Calm Calm -- 29.89 in1012.2 mb 0.00 in0.0 mm 0.00 in/hr0.0 mm/hr 0.01 in0.3 mm
07:54 AM 49.1°F9.5°C 47.1°F8.4°C 93% Calm Calm -- 29.89 in1012.2 mb 0.00 in0.0 mm 0.00 in/hr0.0 mm/hr 0.01 in0.3 mm
07:53 AM 49.1°F9.5°C 47.1°F8.4°C 93% Calm Calm -- 29.89 in1012.2 mb 0.00 in0.0 mm 0.00 in/hr0.0 mm/hr 0.01 in0.3 mm
07:52 AM 48.9°F9.4°C 46.8°F8.2°C 92% Calm Calm -- 29.89 in1012.2 mb 0.00 in0.0 mm 0.00 in/hr0.0 mm/hr 0.01 in0.3 mm
07:51 AM 48.9°F9.4°C 46.8°F8.2°C 92% Calm Calm -- 29.89 in1012.2 mb 0.00 in0.0 mm 0.00 in/hr0.0 mm/hr 0.01 in0.3 mm
07:50 AM 48.9°F9.4°C 46.8°F8.2°C 92% Calm Calm -- 29.89 in1012.2 mb 0.00 in0.0 mm 0.00 in/hr0.0 mm/hr 0.01 in0.3 mm
07:49 AM 48.9°F9.4°C 46.8°F8.2°C 92% Calm Calm -- 29.89 in1012.2 mb 0.00 in0.0 mm 0.00 in/hr0.0 mm/hr 0.01 in0.3 mm
07:48 AM 48.9°F9.4°C 46.8°F8.2°C 92% Calm Calm -- 29.89 in1012.2 mb 0.00 in0.0 mm 0.00 in/hr0.0 mm/hr 0.01 in0.3 mm
07:47 AM 48.9°F9.4°C 46.8°F8.2°C 92% Calm Calm -- 29.89 in1012.2 mb 0.00 in0.0 mm 0.00 in/hr0.0 mm/hr 0.01 in0.3 mm
07:46 AM 48.9°F9.4°C 46.8°F8.2°C 92% Calm Calm -- 29.89 in1012.2 mb 0.00 in0.0 mm 0.00 in/hr0.0 mm/hr 0.01 in0.3 mm
07:45 AM 48.9°F9.4°C 46.8°F8.2°C 92% Calm Calm -- 29.89 in1012.2 mb 0.00 in0.0 mm 0.00 in/hr0.0 mm/hr 0.01 in0.3 mm
07:44 AM 48.9°F9.4°C 46.8°F8.2°C 92% Calm Calm -- 29.88 in1011.9 mb 0.00 in0.0 mm 0.00 in/hr0.0 mm/hr 0.01 in0.3 mm
07:43 AM 48.9°F9.4°C 46.8°F8.2°C 92% Calm Calm -- 29.88 in1011.9 mb 0.00 in0.0 mm 0.00 in/hr0.0 mm/hr 0.01 in0.3 mm
07:42 AM 48.9°F9.4°C 46.8°F8.2°C 92% Calm Calm -- 29.88 in1011.9 mb 0.00 in0.0 mm 0.00 in/hr0.0 mm/hr 0.01 in0.3 mm
07:41 AM 48.9°F9.4°C 46.8°F8.2°C 92% Calm Calm -- 29.88 in1011.9 mb 0.00 in0.0 mm 0.00 in/hr0.0 mm/hr 0.01 in0.3 mm
07:40 AM 48.9°F9.4°C 46.8°F8.2°C 92% Calm Calm -- 29.88 in1011.9 mb 0.00 in0.0 mm 0.00 in/hr0.0 mm/hr 0.01 in0.3 mm
07:39 AM 48.7°F9.3°C 46.6°F8.1°C 92% Calm Calm -- 29.88 in1011.9 mb 0.00 in0.0 mm 0.00 in/hr0.0 mm/hr 0.01 in0.3 mm
07:38 AM 48.7°F9.3°C 46.6°F8.1°C 92% Calm Calm -- 29.88 in1011.9 mb 0.00 in0.0 mm 0.00 in/hr0.0 mm/hr 0.01 in0.3 mm
07:36 AM 48.6°F9.2°C 46.4°F8.0°C 92% Calm Calm -- 29.88 in1011.9 mb 0.00 in0.0 mm 0.00 in/hr0.0 mm/hr 0.01 in0.3 mm
07:35 AM 48.6°F9.2°C 46.4°F8.0°C 92% Calm Calm -- 29.88 in1011.9 mb 0.00 in0.0 mm 0.00 in/hr0.0 mm/hr 0.01 in0.3 mm
07:34 AM 48.6°F9.2°C 46.4°F8.0°C 92% Calm Calm -- 29.88 in1011.9 mb 0.00 in0.0 mm 0.00 in/hr0.0 mm/hr 0.01 in0.3 mm
07:33 AM 48.6°F9.2°C 46.4°F8.0°C 92% Calm Calm -- 29.88 in1011.9 mb 0.00 in0.0 mm 0.00 in/hr0.0 mm/hr 0.01 in0.3 mm
07:32 AM 48.6°F9.2°C 46.4°F8.0°C 92% Calm Calm -- 29.88 in1011.9 mb 0.00 in0.0 mm 0.00 in/hr0.0 mm/hr 0.01 in0.3 mm
07:31 AM 48.4°F9.1°C 46.2°F7.9°C 92% Calm Calm -- 29.88 in1011.9 mb 0.00 in0.0 mm 0.00 in/hr0.0 mm/hr 0.01 in0.3 mm
07:30 AM 48.4°F9.1°C 46.2°F7.9°C 92% Calm Calm -- 29.88 in1011.9 mb 0.00 in0.0 mm 0.00 in/hr0.0 mm/hr 0.01 in0.3 mm
07:29 AM 48.4°F9.1°C 46.2°F7.9°C 92% Calm Calm -- 29.89 in1012.2 mb 0.00 in0.0 mm 0.00 in/hr0.0 mm/hr 0.01 in0.3 mm
07:28 AM 48.4°F9.1°C 46.2°F7.9°C 92% Calm Calm -- 29.89 in1012.2 mb 0.00 in0.0 mm 0.00 in/hr0.0 mm/hr 0.01 in0.3 mm
07:27 AM 48.4°F9.1°C 46.2°F7.9°C 92% Calm Calm -- 29.89 in1012.2 mb 0.00 in0.0 mm 0.00 in/hr0.0 mm/hr 0.01 in0.3 mm
07:26 AM 48.4°F9.1°C 46.2°F7.9°C 92% Calm Calm -- 29.89 in1012.2 mb 0.00 in0.0 mm 0.00 in/hr0.0 mm/hr 0.01 in0.3 mm
07:25 AM 48.2°F9.0°C 46.2°F7.9°C 93% Calm Calm -- 29.89 in1012.2 mb 0.00 in0.0 mm 0.00 in/hr0.0 mm/hr 0.01 in0.3 mm
07:24 AM 48.2°F9.0°C 46.2°F7.9°C 93% Calm Calm -- 29.89 in1012.2 mb 0.00 in0.0 mm 0.00 in/hr0.0 mm/hr 0.01 in0.3 mm
07:23 AM 48.0°F8.9°C 46.0°F7.8°C 93% Calm Calm -- 29.89 in1012.2 mb 0.00 in0.0 mm 0.00 in/hr0.0 mm/hr 0.01 in0.3 mm
07:22 AM 48.0°F8.9°C 45.9°F7.7°C 92% Calm Calm -- 29.89 in1012.2 mb 0.00 in0.0 mm 0.00 in/hr0.0 mm/hr 0.01 in0.3 mm
07:21 AM 48.0°F8.9°C 45.9°F7.7°C 92% Calm Calm -- 29.89 in1012.2 mb 0.00 in0.0 mm 0.00 in/hr0.0 mm/hr 0.01 in0.3 mm
07:20 AM 48.0°F8.9°C 45.9°F7.7°C 92% Calm Calm -- 29.89 in1012.2 mb 0.00 in0.0 mm 0.00 in/hr0.0 mm/hr 0.01 in0.3 mm
07:19 AM 48.0°F8.9°C 45.9°F7.7°C 92% Calm Calm -- 29.89 in1012.2 mb 0.00 in0.0 mm 0.00 in/hr0.0 mm/hr 0.01 in0.3 mm
07:18 AM 48.0°F8.9°C 45.9°F7.7°C 92% Calm Calm -- 29.89 in1012.2 mb 0.00 in0.0 mm 0.00 in/hr0.0 mm/hr 0.01 in0.3 mm
07:17 AM 48.0°F8.9°C 46.0°F7.8°C 93% Calm Calm -- 29.89 in1012.2 mb 0.00 in0.0 mm 0.00 in/hr0.0 mm/hr 0.01 in0.3 mm
07:16 AM 48.0°F8.9°C 46.0°F7.8°C 93% Calm Calm -- 29.89 in1012.2 mb 0.00 in0.0 mm 0.00 in/hr0.0 mm/hr 0.01 in0.3 mm
07:15 AM 48.0°F8.9°C 46.0°F7.8°C 93% Calm Calm -- 29.89 in1012.2 mb 0.00 in0.0 mm 0.00 in/hr0.0 mm/hr 0.01 in0.3 mm
07:14 AM 48.0°F8.9°C 46.0°F7.8°C 93% Calm Calm -- 29.88 in1011.9 mb 0.00 in0.0 mm 0.00 in/hr0.0 mm/hr 0.01 in0.3 mm
07:13 AM 47.8°F8.8°C 45.9°F7.7°C 93% Calm Calm -- 29.88 in1011.9 mb 0.00 in0.0 mm 0.00 in/hr0.0 mm/hr 0.01 in0.3 mm
07:12 AM 47.8°F8.8°C 45.9°F7.7°C 93% Calm Calm -- 29.88 in1011.9 mb 0.00 in0.0 mm 0.00 in/hr0.0 mm/hr 0.01 in0.3 mm
07:11 AM 47.8°F8.8°C 45.9°F7.7°C 93% Calm Calm -- 29.88 in1011.9 mb 0.00 in0.0 mm 0.00 in/hr0.0 mm/hr 0.01 in0.3 mm
07:10 AM 47.8°F8.8°C 45.9°F7.7°C 93% Calm Calm -- 29.88 in1011.9 mb 0.00 in0.0 mm 0.00 in/hr0.0 mm/hr 0.01 in0.3 mm
07:09 AM 47.7°F8.7°C 45.7°F7.6°C 93% Calm Calm -- 29.88 in1011.9 mb 0.00 in0.0 mm 0.00 in/hr0.0 mm/hr 0.01 in0.3 mm
07:08 AM 47.7°F8.7°C 45.7°F7.6°C 93% Calm Calm -- 29.88 in1011.9 mb 0.00 in0.0 mm 0.00 in/hr0.0 mm/hr 0.01 in0.3 mm
07:07 AM 47.7°F8.7°C 45.5°F7.5°C 92% Calm Calm -- 29.88 in1011.9 mb 0.00 in0.0 mm 0.00 in/hr0.0 mm/hr 0.01 in0.3 mm
07:06 AM 47.8°F8.8°C 45.7°F7.6°C 92% Calm Calm -- 29.88 in1011.9 mb 0.00 in0.0 mm 0.00 in/hr0.0 mm/hr 0.01 in0.3 mm
07:05 AM 47.8°F8.8°C 45.7°F7.6°C 92% Calm Calm -- 29.88 in1011.9 mb 0.00 in0.0 mm 0.00 in/hr0.0 mm/hr 0.01 in0.3 mm
07:04 AM 47.8°F8.8°C 45.7°F7.6°C 92% Calm Calm -- 29.88 in1011.9 mb 0.00 in0.0 mm 0.00 in/hr0.0 mm/hr 0.01 in0.3 mm
07:03 AM 47.8°F8.8°C 45.3°F7.4°C 91% Calm Calm -- 29.88 in1011.9 mb 0.00 in0.0 mm 0.00 in/hr0.0 mm/hr 0.01 in0.3 mm
07:02 AM 47.8°F8.8°C 45.3°F7.4°C 91% Calm Calm -- 29.88 in1011.9 mb 0.00 in0.0 mm 0.00 in/hr0.0 mm/hr 0.01 in0.3 mm
07:01 AM 48.0°F8.9°C 45.9°F7.7°C 92% Calm Calm -- 29.88 in1011.9 mb 0.00 in0.0 mm 0.00 in/hr0.0 mm/hr 0.01 in0.3 mm
07:00 AM 48.0°F8.9°C 46.0°F7.8°C 93% Calm Calm -- 29.88 in1011.9 mb 0.00 in0.0 mm 0.00 in/hr0.0 mm/hr 0.01 in0.3 mm
06:59 AM 48.0°F8.9°C 46.0°F7.8°C 93% Calm Calm -- 29.88 in1011.9 mb 0.00 in0.0 mm 0.00 in/hr0.0 mm/hr 0.01 in0.3 mm
06:58 AM 48.0°F8.9°C 46.0°F7.8°C 93% Calm Calm -- 29.88 in1011.9 mb 0.00 in0.0 mm 0.00 in/hr0.0 mm/hr 0.01 in0.3 mm
06:57 AM 48.0°F8.9°C 45.9°F7.7°C 92% Calm Calm -- 29.88 in1011.9 mb 0.00 in0.0 mm 0.00 in/hr0.0 mm/hr 0.01 in0.3 mm
06:56 AM 48.0°F8.9°C 45.9°F7.7°C 92% Calm Calm -- 29.88 in1011.9 mb 0.00 in0.0 mm 0.00 in/hr0.0 mm/hr 0.01 in0.3 mm
06:55 AM 48.0°F8.9°C 45.9°F7.7°C 92% Calm Calm -- 29.88 in1011.9 mb 0.00 in0.0 mm 0.00 in/hr0.0 mm/hr 0.01 in0.3 mm
06:54 AM 48.0°F8.9°C 45.9°F7.7°C 92% Calm Calm -- 29.88 in1011.9 mb 0.00 in0.0 mm 0.00 in/hr0.0 mm/hr 0.01 in0.3 mm
06:53 AM 48.0°F8.9°C 45.9°F7.7°C 92% Calm Calm -- 29.88 in1011.9 mb 0.00 in0.0 mm 0.00 in/hr0.0 mm/hr 0.01 in0.3 mm
06:52 AM 48.0°F8.9°C 45.9°F7.7°C 92% Calm Calm -- 29.88 in1011.9 mb 0.00 in0.0 mm 0.00 in/hr0.0 mm/hr 0.01 in0.3 mm
06:51 AM 48.0°F8.9°C 45.9°F7.7°C 92% Calm Calm -- 29.88 in1011.9 mb 0.00 in0.0 mm 0.00 in/hr0.0 mm/hr 0.01 in0.3 mm
06:50 AM 48.0°F8.9°C 45.9°F7.7°C 92% Calm Calm -- 29.88 in1011.9 mb 0.00 in0.0 mm 0.00 in/hr0.0 mm/hr 0.01 in0.3 mm
06:49 AM 48.0°F8.9°C 45.9°F7.7°C 92% Calm Calm -- 29.88 in1011.9 mb 0.00 in0.0 mm 0.00 in/hr0.0 mm/hr 0.01 in0.3 mm
06:48 AM 48.0°F8.9°C 45.9°F7.7°C 92% Calm Calm -- 29.88 in1011.9 mb 0.00 in0.0 mm 0.00 in/hr0.0 mm/hr 0.01 in0.3 mm
06:47 AM 48.2°F9.0°C 46.0°F7.8°C 92% Calm Calm -- 29.88 in1011.9 mb 0.00 in0.0 mm 0.00 in/hr0.0 mm/hr 0.01 in0.3 mm
06:46 AM 48.2°F9.0°C 46.0°F7.8°C 92% Calm Calm -- 29.88 in1011.9 mb 0.00 in0.0 mm 0.00 in/hr0.0 mm/hr 0.01 in0.3 mm
06:45 AM 48.2°F9.0°C 46.0°F7.8°C 92% Calm Calm 0.9 mph1.4 kmh 29.88 in1011.9 mb 0.00 in0.0 mm 0.00 in/hr0.0 mm/hr 0.01 in0.3 mm
06:44 AM 48.2°F9.0°C 46.0°F7.8°C 92% Calm Calm 0.9 mph1.4 kmh 29.88 in1011.9 mb 0.00 in0.0 mm 0.00 in/hr0.0 mm/hr 0.01 in0.3 mm
06:43 AM 48.2°F9.0°C 46.0°F7.8°C 92% Calm Calm 0.9 mph1.4 kmh 29.88 in1011.9 mb 0.00 in0.0 mm 0.00 in/hr0.0 mm/hr 0.01 in0.3 mm
06:42 AM 48.2°F9.0°C 46.2°F7.9°C 93% Calm Calm 0.9 mph1.4 kmh 29.88 in1011.9 mb 0.00 in0.0 mm 0.00 in/hr0.0 mm/hr 0.01 in0.3 mm
06:41 AM 48.2°F9.0°C 46.2°F7.9°C 93% Calm Calm 0.9 mph1.4 kmh 29.88 in1011.9 mb 0.00 in0.0 mm 0.00 in/hr0.0 mm/hr 0.01 in0.3 mm
06:40 AM 48.0°F8.9°C 46.0°F7.8°C 93% Calm Calm -- 29.88 in1011.9 mb 0.00 in0.0 mm 0.00 in/hr0.0 mm/hr 0.01 in0.3 mm
06:39 AM 48.0°F8.9°C 46.0°F7.8°C 93% Calm Calm -- 29.88 in1011.9 mb 0.00 in0.0 mm 0.00 in/hr0.0 mm/hr 0.01 in0.3 mm
06:38 AM 48.0°F8.9°C 46.0°F7.8°C 93% Calm Calm -- 29.88 in1011.9 mb 0.00 in0.0 mm 0.00 in/hr0.0 mm/hr 0.01 in0.3 mm
06:37 AM 48.0°F8.9°C 46.0°F7.8°C 93% Calm Calm -- 29.88 in1011.9 mb 0.00 in0.0 mm 0.00 in/hr0.0 mm/hr 0.01 in0.3 mm
06:36 AM 48.0°F8.9°C 46.0°F7.8°C 93% Calm Calm -- 29.88 in1011.9 mb 0.00 in0.0 mm 0.00 in/hr0.0 mm/hr 0.01 in0.3 mm
06:35 AM 48.0°F8.9°C 46.4°F8.0°C 94% Calm Calm 0.9 mph1.4 kmh 29.88 in1011.9 mb 0.00 in0.0 mm 0.00 in/hr0.0 mm/hr 0.01 in0.3 mm
06:34 AM 47.8°F8.8°C 46.2°F7.9°C 94% Calm Calm 0.9 mph1.4 kmh 29.88 in1011.9 mb 0.00 in0.0 mm 0.00 in/hr0.0 mm/hr 0.01 in0.3 mm
06:33 AM 47.8°F8.8°C 45.9°F7.7°C 93% Calm Calm -- 29.88 in1011.9 mb 0.00 in0.0 mm 0.00 in/hr0.0 mm/hr 0.01 in0.3 mm
06:32 AM 47.8°F8.8°C 45.9°F7.7°C 93% Calm Calm -- 29.88 in1011.9 mb 0.00 in0.0 mm 0.00 in/hr0.0 mm/hr 0.01 in0.3 mm
06:31 AM 47.8°F8.8°C 45.9°F7.7°C 93% Calm Calm -- 29.88 in1011.9 mb 0.00 in0.0 mm 0.00 in/hr0.0 mm/hr 0.01 in0.3 mm
06:30 AM 47.8°F8.8°C 45.9°F7.7°C 93% Calm Calm -- 29.88 in1011.9 mb 0.00 in0.0 mm 0.00 in/hr0.0 mm/hr 0.01 in0.3 mm
06:29 AM 47.8°F8.8°C 45.9°F7.7°C 93% Calm Calm -- 29.88 in1011.9 mb 0.00 in0.0 mm 0.00 in/hr0.0 mm/hr 0.01 in0.3 mm
06:28 AM 47.8°F8.8°C 45.9°F7.7°C 93% Calm Calm -- 29.88 in1011.9 mb 0.00 in0.0 mm 0.00 in/hr0.0 mm/hr 0.01 in0.3 mm
06:27 AM 47.8°F8.8°C 45.7°F7.6°C 92% Calm Calm 0.9 mph1.4 kmh 29.88 in1011.9 mb 0.00 in0.0 mm 0.00 in/hr0.0 mm/hr 0.01 in0.3 mm
06:26 AM 47.8°F8.8°C 45.7°F7.6°C 92% Calm Calm -- 29.88 in1011.9 mb 0.00 in0.0 mm 0.00 in/hr0.0 mm/hr 0.01 in0.3 mm
06:25 AM 48.0°F8.9°C 45.9°F7.7°C 92% Calm Calm 0.9 mph1.4 kmh 29.88 in1011.9 mb 0.00 in0.0 mm 0.00 in/hr0.0 mm/hr 0.01 in0.3 mm
06:24 AM 48.0°F8.9°C 46.0°F7.8°C 93% Calm Calm 2.0 mph3.2 kmh 29.88 in1011.9 mb 0.00 in0.0 mm 0.00 in/hr0.0 mm/hr 0.01 in0.3 mm
06:23 AM 48.0°F8.9°C 46.0°F7.8°C 93% Calm Calm 2.0 mph3.2 kmh 29.88 in1011.9 mb 0.00 in0.0 mm 0.00 in/hr0.0 mm/hr 0.01 in0.3 mm
06:22 AM 48.0°F8.9°C 46.0°F7.8°C 93% Calm Calm -- 29.88 in1011.9 mb 0.00 in0.0 mm 0.00 in/hr0.0 mm/hr 0.01 in0.3 mm
06:21 AM 48.0°F8.9°C 46.0°F7.8°C 93% Calm Calm -- 29.88 in1011.9 mb 0.00 in0.0 mm 0.00 in/hr0.0 mm/hr 0.01 in0.3 mm
06:20 AM 47.8°F8.8°C 45.9°F7.7°C 93% Calm Calm -- 29.88 in1011.9 mb 0.00 in0.0 mm 0.00 in/hr0.0 mm/hr 0.01 in0.3 mm
06:19 AM 47.8°F8.8°C 46.2°F7.9°C 94% Calm Calm -- 29.88 in1011.9 mb 0.00 in0.0 mm 0.00 in/hr0.0 mm/hr 0.01 in0.3 mm
06:18 AM 47.8°F8.8°C 46.2°F7.9°C 94% Calm Calm -- 29.88 in1011.9 mb 0.00 in0.0 mm 0.00 in/hr0.0 mm/hr 0.01 in0.3 mm
06:17 AM 47.8°F8.8°C 46.2°F7.9°C 94% Calm Calm -- 29.88 in1011.9 mb 0.00 in0.0 mm 0.00 in/hr0.0 mm/hr 0.01 in0.3 mm
06:16 AM 47.8°F8.8°C 46.2°F7.9°C 94% Calm Calm 0.9 mph1.4 kmh 29.88 in1011.9 mb 0.00 in0.0 mm 0.00 in/hr0.0 mm/hr 0.01 in0.3 mm
06:15 AM 47.7°F8.7°C 46.0°F7.8°C 94% Calm Calm 2.0 mph3.2 kmh 29.88 in1011.9 mb 0.00 in0.0 mm 0.00 in/hr0.0 mm/hr 0.01 in0.3 mm
06:14 AM 47.7°F8.7°C 46.0°F7.8°C 94% Calm Calm -- 29.87 in1011.5 mb 0.00 in0.0 mm 0.00 in/hr0.0 mm/hr 0.01 in0.3 mm
06:13 AM 47.5°F8.6°C 45.9°F7.7°C 94% Calm Calm -- 29.87 in1011.5 mb 0.00 in0.0 mm 0.00 in/hr0.0 mm/hr 0.01 in0.3 mm
06:12 AM 47.5°F8.6°C 45.9°F7.7°C 94% Calm Calm -- 29.87 in1011.5 mb 0.00 in0.0 mm 0.00 in/hr0.0 mm/hr 0.01 in0.3 mm
06:11 AM 47.5°F8.6°C 45.9°F7.7°C 94% Calm Calm -- 29.87 in1011.5 mb 0.01 in0.3 mm 0.00 in/hr0.0 mm/hr 0.01 in0.3 mm
06:10 AM 47.5°F8.6°C 45.9°F7.7°C 94% Calm Calm -- 29.87 in1011.5 mb 0.01 in0.3 mm 0.00 in/hr0.0 mm/hr 0.01 in0.3 mm
06:09 AM 47.3°F8.5°C 45.7°F7.6°C 94% 0.9 mph SSW1.4 kmh SSW -- 29.87 in1011.5 mb 0.01 in0.3 mm 0.00 in/hr0.0 mm/hr 0.01 in0.3 mm
06:08 AM 47.3°F8.5°C 45.7°F7.6°C 94% 0.9 mph SSW1.4 kmh SSW -- 29.87 in1011.5 mb 0.01 in0.3 mm 0.00 in/hr0.0 mm/hr 0.01 in0.3 mm
06:07 AM 47.3°F8.5°C 45.7°F7.6°C 94% 0.9 mph SSW1.4 kmh SSW -- 29.87 in1011.5 mb 0.01 in0.3 mm 0.00 in/hr0.0 mm/hr 0.01 in0.3 mm
06:06 AM 47.3°F8.5°C 45.7°F7.6°C 94% 0.9 mph SSW1.4 kmh SSW -- 29.87 in1011.5 mb 0.01 in0.3 mm 0.00 in/hr0.0 mm/hr 0.01 in0.3 mm
06:05 AM 47.3°F8.5°C 45.7°F7.6°C 94% 0.9 mph SSW1.4 kmh SSW -- 29.87 in1011.5 mb 0.01 in0.3 mm 0.00 in/hr0.0 mm/hr 0.01 in0.3 mm
06:04 AM 47.1°F8.4°C 45.5°F7.5°C 94% 0.9 mph SSW1.4 kmh SSW -- 29.87 in1011.5 mb 0.01 in0.3 mm 0.00 in/hr0.0 mm/hr 0.01 in0.3 mm
06:03 AM 47.1°F8.4°C 45.5°F7.5°C 94% 0.9 mph SSW1.4 kmh SSW 0.9 mph1.4 kmh 29.87 in1011.5 mb 0.01 in0.3 mm 0.00 in/hr0.0 mm/hr 0.01 in0.3 mm
06:02 AM 47.1°F8.4°C 45.5°F7.5°C 94% 0.9 mph SSW1.4 kmh SSW 2.9 mph4.7 kmh 29.87 in1011.5 mb 0.01 in0.3 mm 0.00 in/hr0.0 mm/hr 0.01 in0.3 mm
06:01 AM 47.1°F8.4°C 45.1°F7.3°C 93% Calm Calm 2.9 mph4.7 kmh 29.87 in1011.5 mb 0.01 in0.3 mm 0.00 in/hr0.0 mm/hr 0.01 in0.3 mm
06:00 AM 47.1°F8.4°C 45.1°F7.3°C 93% Calm Calm 2.0 mph3.2 kmh 29.87 in1011.5 mb 0.01 in0.3 mm 0.00 in/hr0.0 mm/hr 0.01 in0.3 mm
05:59 AM 47.1°F8.4°C 45.5°F7.5°C 94% Calm Calm 0.9 mph1.4 kmh 29.87 in1011.5 mb 0.01 in0.3 mm 0.00 in/hr0.0 mm/hr 0.01 in0.3 mm
05:58 AM 46.9°F8.3°C 45.0°F7.2°C 93% Calm Calm 0.9 mph1.4 kmh 29.87 in1011.5 mb 0.01 in0.3 mm 0.00 in/hr0.0 mm/hr 0.01 in0.3 mm
05:57 AM 46.9°F8.3°C 45.0°F7.2°C 93% Calm Calm -- 29.87 in1011.5 mb 0.01 in0.3 mm 0.00 in/hr0.0 mm/hr 0.01 in0.3 mm
05:56 AM 46.9°F8.3°C 45.0°F7.2°C 93% Calm Calm -- 29.87 in1011.5 mb 0.01 in0.3 mm 0.00 in/hr0.0 mm/hr 0.01 in0.3 mm
05:55 AM 46.9°F8.3°C 45.0°F7.2°C 93% Calm Calm -- 29.87 in1011.5 mb 0.01 in0.3 mm 0.00 in/hr0.0 mm/hr 0.01 in0.3 mm
05:54 AM 46.9°F8.3°C 45.0°F7.2°C 93% 0.9 mph NNW1.4 kmh NNW -- 29.87 in1011.5 mb 0.01 in0.3 mm 0.00 in/hr0.0 mm/hr 0.01 in0.3 mm
05:53 AM 46.9°F8.3°C 45.0°F7.2°C 93% 0.9 mph NNW1.4 kmh NNW -- 29.87 in1011.5 mb 0.01 in0.3 mm 0.00 in/hr0.0 mm/hr 0.01 in0.3 mm
05:52 AM 46.8°F8.2°C 44.8°F7.1°C 93% 0.9 mph NNW1.4 kmh NNW -- 29.87 in1011.5 mb 0.01 in0.3 mm 0.00 in/hr0.0 mm/hr 0.01 in0.3 mm
05:51 AM 46.8°F8.2°C 44.8°F7.1°C 93% 0.9 mph NNW1.4 kmh NNW 0.9 mph1.4 kmh 29.87 in1011.5 mb 0.01 in0.3 mm 0.00 in/hr0.0 mm/hr 0.01 in0.3 mm
05:50 AM 46.8°F8.2°C 44.8°F7.1°C 93% 0.9 mph NNW1.4 kmh NNW 0.9 mph1.4 kmh 29.87 in1011.5 mb 0.01 in0.3 mm 0.00 in/hr0.0 mm/hr 0.01 in0.3 mm
05:49 AM 46.8°F8.2°C 44.8°F7.1°C 93% 0.9 mph NNW1.4 kmh NNW 0.9 mph1.4 kmh 29.87 in1011.5 mb 0.01 in0.3 mm 0.00 in/hr0.0 mm/hr 0.01 in0.3 mm
05:48 AM 46.8°F8.2°C 44.8°F7.1°C 93% 0.9 mph NNW1.4 kmh NNW 0.9 mph1.4 kmh 29.87 in1011.5 mb 0.01 in0.3 mm 0.00 in/hr0.0 mm/hr 0.01 in0.3 mm
05:47 AM 46.6°F8.1°C 44.4°F6.9°C 92% 0.9 mph NNW1.4 kmh NNW 0.9 mph1.4 kmh 29.87 in1011.5 mb 0.01 in0.3 mm 0.00 in/hr0.0 mm/hr 0.01 in0.3 mm
05:46 AM 46.8°F8.2°C 44.6°F7.0°C 92% 0.9 mph NNW1.4 kmh NNW 2.0 mph3.2 kmh 29.87 in1011.5 mb 0.01 in0.3 mm 0.00 in/hr0.0 mm/hr 0.01 in0.3 mm
05:45 AM 46.8°F8.2°C 44.6°F7.0°C 92% 0.9 mph NNW1.4 kmh NNW 2.0 mph3.2 kmh 29.87 in1011.5 mb 0.01 in0.3 mm 0.00 in/hr0.0 mm/hr 0.01 in0.3 mm
05:44 AM 46.9°F8.3°C 44.4°F6.9°C 91% 0.9 mph NNW1.4 kmh NNW 2.0 mph3.2 kmh 29.87 in1011.5 mb 0.01 in0.3 mm 0.00 in/hr0.0 mm/hr 0.01 in0.3 mm
05:43 AM 47.1°F8.4°C 45.0°F7.2°C 92% 0.9 mph NW1.4 kmh NW 2.0 mph3.2 kmh 29.87 in1011.5 mb 0.01 in0.3 mm 0.00 in/hr0.0 mm/hr 0.01 in0.3 mm
05:42 AM 47.1°F8.4°C 45.1°F7.3°C 93% 0.9 mph NW1.4 kmh NW 2.0 mph3.2 kmh 29.87 in1011.5 mb 0.01 in0.3 mm 0.00 in/hr0.0 mm/hr 0.01 in0.3 mm
05:41 AM 47.1°F8.4°C 45.1°F7.3°C 93% 0.9 mph NNE1.4 kmh NNE 0.9 mph1.4 kmh 29.87 in1011.5 mb 0.01 in0.3 mm 0.00 in/hr0.0 mm/hr 0.01 in0.3 mm
05:40 AM 47.1°F8.4°C 45.1°F7.3°C 93% 0.9 mph NNE1.4 kmh NNE 0.9 mph1.4 kmh 29.87 in1011.5 mb 0.01 in0.3 mm 0.00 in/hr0.0 mm/hr 0.01 in0.3 mm
05:39 AM 46.9°F8.3°C 45.0°F7.2°C 93% 0.9 mph NNE1.4 kmh NNE 0.9 mph1.4 kmh 29.87 in1011.5 mb 0.01 in0.3 mm 0.00 in/hr0.0 mm/hr 0.01 in0.3 mm
05:38 AM 46.9°F8.3°C 45.0°F7.2°C 93% 0.9 mph NNE1.4 kmh NNE 2.0 mph3.2 kmh 29.87 in1011.5 mb 0.01 in0.3 mm 0.00 in/hr0.0 mm/hr 0.01 in0.3 mm
05:37 AM 46.9°F8.3°C 45.0°F7.2°C 93% 0.9 mph NNE1.4 kmh NNE 2.0 mph3.2 kmh 29.87 in1011.5 mb 0.01 in0.3 mm 0.00 in/hr0.0 mm/hr 0.01 in0.3 mm
05:36 AM 46.9°F8.3°C 45.0°F7.2°C 93% 0.9 mph NNW1.4 kmh NNW 2.0 mph3.2 kmh 29.87 in1011.5 mb 0.01 in0.3 mm 0.00 in/hr0.0 mm/hr 0.01 in0.3 mm
05:35 AM 46.9°F8.3°C 45.3°F7.4°C 94% 0.9 mph N1.4 kmh N 0.9 mph1.4 kmh 29.87 in1011.5 mb 0.01 in0.3 mm 0.00 in/hr0.0 mm/hr 0.01 in0.3 mm
05:34 AM 46.9°F8.3°C 45.3°F7.4°C 94% 0.9 mph N1.4 kmh N -- 29.87 in1011.5 mb 0.01 in0.3 mm 0.00 in/hr0.0 mm/hr 0.01 in0.3 mm
05:33 AM 46.9°F8.3°C 45.3°F7.4°C 94% 0.9 mph N1.4 kmh N -- 29.87 in1011.5 mb 0.01 in0.3 mm 0.00 in/hr0.0 mm/hr 0.01 in0.3 mm
05:32 AM 46.9°F8.3°C 45.3°F7.4°C 94% 0.9 mph N1.4 kmh N -- 29.87 in1011.5 mb 0.01 in0.3 mm 0.00 in/hr0.0 mm/hr 0.01 in0.3 mm
05:31 AM 46.8°F8.2°C 45.1°F7.3°C 94% 0.9 mph N1.4 kmh N 0.9 mph1.4 kmh 29.87 in1011.5 mb 0.01 in0.3 mm 0.00 in/hr0.0 mm/hr 0.01 in0.3 mm
05:30 AM 46.8°F8.2°C 45.1°F7.3°C 94% 0.9 mph N1.4 kmh N 0.9 mph1.4 kmh 29.87 in1011.5 mb 0.01 in0.3 mm 0.00 in/hr0.0 mm/hr 0.01 in0.3 mm
05:29 AM 46.8°F8.2°C 45.1°F7.3°C 94% Calm Calm 2.0 mph3.2 kmh 29.87 in1011.5 mb 0.01 in0.3 mm 0.00 in/hr0.0 mm/hr 0.01 in0.3 mm
05:28 AM 46.8°F8.2°C 45.1°F7.3°C 94% Calm Calm 0.9 mph1.4 kmh 29.87 in1011.5 mb 0.01 in0.3 mm 0.00 in/hr0.0 mm/hr 0.01 in0.3 mm
05:27 AM 46.8°F8.2°C 45.1°F7.3°C 94% Calm Calm 0.9 mph1.4 kmh 29.87 in1011.5 mb 0.01 in0.3 mm 0.00 in/hr0.0 mm/hr 0.01 in0.3 mm
05:26 AM 46.8°F8.2°C 45.3°F7.4°C 95% Calm Calm 0.9 mph1.4 kmh 29.87 in1011.5 mb 0.01 in0.3 mm 0.00 in/hr0.0 mm/hr 0.01 in0.3 mm
05:25 AM 46.8°F8.2°C 45.3°F7.4°C 95% Calm Calm 0.9 mph1.4 kmh 29.87 in1011.5 mb 0.01 in0.3 mm 0.00 in/hr0.0 mm/hr 0.01 in0.3 mm
05:24 AM 46.8°F8.2°C 45.3°F7.4°C 95% Calm Calm 0.9 mph1.4 kmh 29.87 in1011.5 mb 0.01 in0.3 mm 0.00 in/hr0.0 mm/hr 0.01 in0.3 mm
05:23 AM 46.6°F8.1°C 45.1°F7.3°C 95% Calm Calm -- 29.87 in1011.5 mb 0.01 in0.3 mm 0.00 in/hr0.0 mm/hr 0.01 in0.3 mm
05:22 AM 46.6°F8.1°C 45.0°F7.2°C 94% Calm Calm -- 29.87 in1011.5 mb 0.01 in0.3 mm 0.00 in/hr0.0 mm/hr 0.01 in0.3 mm
05:21 AM 46.6°F8.1°C 45.0°F7.2°C 94% Calm Calm -- 29.87 in1011.5 mb 0.01 in0.3 mm 0.00 in/hr0.0 mm/hr 0.01 in0.3 mm
05:20 AM 46.6°F8.1°C 45.0°F7.2°C 94% Calm Calm -- 29.87 in1011.5 mb 0.01 in0.3 mm 0.00 in/hr0.0 mm/hr 0.01 in0.3 mm
05:19 AM 46.6°F8.1°C 45.0°F7.2°C 94% Calm Calm -- 29.87 in1011.5 mb 0.01 in0.3 mm 0.00 in/hr0.0 mm/hr 0.01 in0.3 mm
05:18 AM 46.6°F8.1°C 45.1°F7.3°C 95% Calm Calm -- 29.87 in1011.5 mb 0.01 in0.3 mm 0.00 in/hr0.0 mm/hr 0.01 in0.3 mm
05:17 AM 46.6°F8.1°C 45.1°F7.3°C 95% Calm Calm -- 29.87 in1011.5 mb 0.01 in0.3 mm 0.00 in/hr0.0 mm/hr 0.01 in0.3 mm
05:16 AM 46.6°F8.1°C 45.1°F7.3°C 95% Calm Calm 0.9 mph1.4 kmh 29.87 in1011.5 mb 0.01 in0.3 mm 0.00 in/hr0.0 mm/hr 0.01 in0.3 mm
05:15 AM 46.6°F8.1°C 45.1°F7.3°C 95% Calm Calm 0.9 mph1.4 kmh 29.87 in1011.5 mb 0.01 in0.3 mm 0.00 in/hr0.0 mm/hr 0.01 in0.3 mm
05:14 AM 46.4°F8.0°C 45.0°F7.2°C 95% Calm Calm 0.9 mph1.4 kmh 29.86 in1011.2 mb 0.01 in0.3 mm 0.60 in/hr15.2 mm/hr 0.01 in0.3 mm
05:13 AM 46.4°F8.0°C 44.8°F7.1°C 94% Calm Calm -- 29.86 in1011.2 mb 0.00 in0.0 mm 0.00 in/hr0.0 mm/hr 0.01 in0.3 mm
05:12 AM 46.4°F8.0°C 44.8°F7.1°C 94% Calm Calm -- 29.86 in1011.2 mb 0.00 in0.0 mm 0.00 in/hr0.0 mm/hr 0.00 in0.0 mm
05:11 AM 46.6°F8.1°C 44.6°F7.0°C 93% Calm Calm -- 29.86 in1011.2 mb 0.00 in0.0 mm 0.00 in/hr0.0 mm/hr 0.00 in0.0 mm
05:10 AM 46.6°F8.1°C 45.0°F7.2°C 94% Calm Calm -- 29.86 in1011.2 mb 0.00 in0.0 mm 0.00 in/hr0.0 mm/hr 0.00 in0.0 mm
05:09 AM 46.8°F8.2°C 45.1°F7.3°C 94% Calm Calm -- 29.86 in1011.2 mb 0.00 in0.0 mm 0.00 in/hr0.0 mm/hr 0.00 in0.0 mm
05:08 AM 46.9°F8.3°C 45.5°F7.5°C 95% Calm Calm -- 29.86 in1011.2 mb 0.00 in0.0 mm 0.00 in/hr0.0 mm/hr 0.00 in0.0 mm
05:07 AM 46.9°F8.3°C 45.5°F7.5°C 95% Calm Calm -- 29.86 in1011.2 mb 0.00 in0.0 mm 0.00 in/hr0.0 mm/hr 0.00 in0.0 mm
05:06 AM 46.9°F8.3°C 45.5°F7.5°C 95% Calm Calm -- 29.86 in1011.2 mb 0.00 in0.0 mm 0.00 in/hr0.0 mm/hr 0.00 in0.0 mm
05:05 AM 46.9°F8.3°C 45.5°F7.5°C 95% Calm Calm -- 29.86 in1011.2 mb 0.00 in0.0 mm 0.00 in/hr0.0 mm/hr 0.00 in0.0 mm
05:04 AM 46.9°F8.3°C 45.5°F7.5°C 95% Calm Calm -- 29.86 in1011.2 mb 0.00 in0.0 mm 0.00 in/hr0.0 mm/hr 0.00 in0.0 mm
05:03 AM 46.9°F8.3°C 45.5°F7.5°C 95% Calm Calm -- 29.86 in1011.2 mb 0.00 in0.0 mm 0.00 in/hr0.0 mm/hr 0.00 in0.0 mm
05:02 AM 46.9°F8.3°C 45.5°F7.5°C 95% Calm Calm -- 29.86 in1011.2 mb 0.00 in0.0 mm 0.00 in/hr0.0 mm/hr 0.00 in0.0 mm
05:01 AM 46.9°F8.3°C 45.5°F7.5°C 95% Calm Calm -- 29.86 in1011.2 mb 0.00 in0.0 mm 0.00 in/hr0.0 mm/hr 0.00 in0.0 mm
05:00 AM 46.9°F8.3°C 45.5°F7.5°C 95% Calm Calm -- 29.86 in1011.2 mb 0.00 in0.0 mm 0.00 in/hr0.0 mm/hr 0.00 in0.0 mm
04:59 AM 46.9°F8.3°C 45.5°F7.5°C 95% Calm Calm -- 29.86 in1011.2 mb 0.00 in0.0 mm 0.00 in/hr0.0 mm/hr 0.00 in0.0 mm
04:58 AM 46.9°F8.3°C 45.5°F7.5°C 95% Calm Calm -- 29.86 in1011.2 mb 0.00 in0.0 mm 0.00 in/hr0.0 mm/hr 0.00 in0.0 mm
04:57 AM 46.9°F8.3°C 45.5°F7.5°C 95% Calm Calm -- 29.86 in1011.2 mb 0.00 in0.0 mm 0.00 in/hr0.0 mm/hr 0.00 in0.0 mm
04:56 AM 46.8°F8.2°C 45.3°F7.4°C 95% Calm Calm -- 29.86 in1011.2 mb 0.00 in0.0 mm 0.00 in/hr0.0 mm/hr 0.00 in0.0 mm
04:55 AM 46.8°F8.2°C 45.3°F7.4°C 95% Calm Calm -- 29.86 in1011.2 mb 0.00 in0.0 mm 0.00 in/hr0.0 mm/hr 0.00 in0.0 mm
04:54 AM 46.9°F8.3°C 45.5°F7.5°C 95% Calm Calm -- 29.86 in1011.2 mb 0.00 in0.0 mm 0.00 in/hr0.0 mm/hr 0.00 in0.0 mm
04:53 AM 46.9°F8.3°C 45.5°F7.5°C 95% Calm Calm -- 29.86 in1011.2 mb 0.00 in0.0 mm 0.00 in/hr0.0 mm/hr 0.00 in0.0 mm
04:52 AM 46.9°F8.3°C 45.9°F7.7°C 96% Calm Calm -- 29.86 in1011.2 mb 0.00 in0.0 mm 0.00 in/hr0.0 mm/hr 0.00 in0.0 mm
04:51 AM 46.9°F8.3°C 45.9°F7.7°C 96% Calm Calm -- 29.86 in1011.2 mb 0.00 in0.0 mm 0.00 in/hr0.0 mm/hr 0.00 in0.0 mm
04:50 AM 46.9°F8.3°C 45.9°F7.7°C 96% Calm Calm -- 29.86 in1011.2 mb 0.00 in0.0 mm 0.00 in/hr0.0 mm/hr 0.00 in0.0 mm
04:49 AM 46.9°F8.3°C 45.5°F7.5°C 95% Calm Calm -- 29.86 in1011.2 mb 0.00 in0.0 mm 0.00 in/hr0.0 mm/hr 0.00 in0.0 mm
04:48 AM 46.9°F8.3°C 45.5°F7.5°C 95% Calm Calm -- 29.86 in1011.2 mb 0.00 in0.0 mm 0.00 in/hr0.0 mm/hr 0.00 in0.0 mm
04:47 AM 46.9°F8.3°C 45.5°F7.5°C 95% Calm Calm -- 29.86 in1011.2 mb 0.00 in0.0 mm 0.00 in/hr0.0 mm/hr 0.00 in0.0 mm
04:46 AM 46.9°F8.3°C 45.5°F7.5°C 95% Calm Calm -- 29.86 in1011.2 mb 0.00 in0.0 mm 0.00 in/hr0.0 mm/hr 0.00 in0.0 mm
04:45 AM 46.9°F8.3°C 45.5°F7.5°C 95% Calm Calm -- 29.86 in1011.2 mb 0.00 in0.0 mm 0.00 in/hr0.0 mm/hr 0.00 in0.0 mm
04:44 AM 46.9°F8.3°C 45.5°F7.5°C 95% Calm Calm -- 29.86 in1011.2 mb 0.00 in0.0 mm 0.00 in/hr0.0 mm/hr 0.00 in0.0 mm
04:43 AM 46.9°F8.3°C 45.5°F7.5°C 95% Calm Calm -- 29.86 in1011.2 mb 0.00 in0.0 mm 0.00 in/hr0.0 mm/hr 0.00 in0.0 mm
04:42 AM 46.9°F8.3°C 45.5°F7.5°C 95% Calm Calm -- 29.86 in1011.2 mb 0.00 in0.0 mm 0.00 in/hr0.0 mm/hr 0.00 in0.0 mm
04:41 AM 46.9°F8.3°C 45.5°F7.5°C 95% Calm Calm -- 29.86 in1011.2 mb 0.00 in0.0 mm 0.00 in/hr0.0 mm/hr 0.00 in0.0 mm
04:40 AM 46.9°F8.3°C 45.5°F7.5°C 95% Calm Calm -- 29.86 in1011.2 mb 0.00 in0.0 mm 0.00 in/hr0.0 mm/hr 0.00 in0.0 mm
04:39 AM 46.9°F8.3°C 45.5°F7.5°C 95% Calm Calm -- 29.86 in1011.2 mb 0.00 in0.0 mm 0.00 in/hr0.0 mm/hr 0.00 in0.0 mm
04:38 AM 46.9°F8.3°C 45.5°F7.5°C 95% Calm Calm -- 29.86 in1011.2 mb 0.00 in0.0 mm 0.00 in/hr0.0 mm/hr 0.00 in0.0 mm
04:37 AM 46.9°F8.3°C 45.5°F7.5°C 95% Calm Calm -- 29.86 in1011.2 mb 0.00 in0.0 mm 0.00 in/hr0.0 mm/hr 0.00 in0.0 mm
04:36 AM 46.9°F8.3°C 45.5°F7.5°C 95% Calm Calm -- 29.86 in1011.2 mb 0.00 in0.0 mm 0.00 in/hr0.0 mm/hr 0.00 in0.0 mm
04:35 AM 46.9°F8.3°C 45.5°F7.5°C 95% Calm Calm 0.9 mph1.4 kmh 29.86 in1011.2 mb 0.00 in0.0 mm 0.00 in/hr0.0 mm/hr 0.00 in0.0 mm
04:34 AM 46.9°F8.3°C 45.5°F7.5°C 95% Calm Calm 2.0 mph3.2 kmh 29.86 in1011.2 mb 0.00 in0.0 mm 0.00 in/hr0.0 mm/hr 0.00 in0.0 mm
04:33 AM 47.1°F8.4°C 45.7°F7.6°C 95% Calm Calm 2.0 mph3.2 kmh 29.86 in1011.2 mb 0.00 in0.0 mm 0.00 in/hr0.0 mm/hr 0.00 in0.0 mm
04:32 AM 47.1°F8.4°C 46.0°F7.8°C 96% Calm Calm 0.9 mph1.4 kmh 29.86 in1011.2 mb 0.00 in0.0 mm 0.00 in/hr0.0 mm/hr 0.00 in0.0 mm
04:31 AM 47.1°F8.4°C 46.0°F7.8°C 96% Calm Calm 0.9 mph1.4 kmh 29.86 in1011.2 mb 0.00 in0.0 mm 0.00 in/hr0.0 mm/hr 0.00 in0.0 mm
04:30 AM 47.1°F8.4°C 46.0°F7.8°C 96% Calm Calm 0.9 mph1.4 kmh 29.86 in1011.2 mb 0.00 in0.0 mm 0.00 in/hr0.0 mm/hr 0.00 in0.0 mm
04:29 AM 47.1°F8.4°C 46.0°F7.8°C 96% Calm Calm -- 29.86 in1011.2 mb 0.00 in0.0 mm 0.00 in/hr0.0 mm/hr 0.00 in0.0 mm
04:28 AM 47.1°F8.4°C 46.0°F7.8°C 96% Calm Calm -- 29.86 in1011.2 mb 0.00 in0.0 mm 0.00 in/hr0.0 mm/hr 0.00 in0.0 mm
04:27 AM 47.1°F8.4°C 46.0°F7.8°C 96% Calm Calm -- 29.86 in1011.2 mb 0.00 in0.0 mm 0.00 in/hr0.0 mm/hr 0.00 in0.0 mm
04:26 AM 46.9°F8.3°C 45.9°F7.7°C 96% Calm Calm -- 29.86 in1011.2 mb 0.00 in0.0 mm 0.00 in/hr0.0 mm/hr 0.00 in0.0 mm
04:25 AM 46.9°F8.3°C 45.9°F7.7°C 96% Calm Calm -- 29.86 in1011.2 mb 0.00 in0.0 mm 0.00 in/hr0.0 mm/hr 0.00 in0.0 mm
04:24 AM 46.9°F8.3°C 45.9°F7.7°C 96% Calm Calm -- 29.86 in1011.2 mb 0.00 in0.0 mm 0.00 in/hr0.0 mm/hr 0.00 in0.0 mm
04:23 AM 46.9°F8.3°C 45.9°F7.7°C 96% Calm Calm -- 29.86 in1011.2 mb 0.00 in0.0 mm 0.00 in/hr0.0 mm/hr 0.00 in0.0 mm
04:22 AM 46.9°F8.3°C 45.9°F7.7°C 96% Calm Calm -- 29.86 in1011.2 mb 0.00 in0.0 mm 0.00 in/hr0.0 mm/hr 0.00 in0.0 mm
04:21 AM 46.9°F8.3°C 45.9°F7.7°C 96% Calm Calm -- 29.86 in1011.2 mb 0.00 in0.0 mm 0.00 in/hr0.0 mm/hr 0.00 in0.0 mm
04:20 AM 46.9°F8.3°C 45.9°F7.7°C 96% Calm Calm -- 29.86 in1011.2 mb 0.00 in0.0 mm 0.00 in/hr0.0 mm/hr 0.00 in0.0 mm
04:19 AM 46.9°F8.3°C 45.9°F7.7°C 96% Calm Calm -- 29.86 in1011.2 mb 0.00 in0.0 mm 0.00 in/hr0.0 mm/hr 0.00 in0.0 mm
04:18 AM 46.9°F8.3°C 45.9°F7.7°C 96% Calm Calm -- 29.86 in1011.2 mb 0.00 in0.0 mm 0.00 in/hr0.0 mm/hr 0.00 in0.0 mm
04:17 AM 46.9°F8.3°C 45.9°F7.7°C 96% Calm Calm -- 29.86 in1011.2 mb 0.00 in0.0 mm 0.00 in/hr0.0 mm/hr 0.00 in0.0 mm
04:16 AM 46.8°F8.2°C 45.7°F7.6°C 96% Calm Calm -- 29.86 in1011.2 mb 0.00 in0.0 mm 0.00 in/hr0.0 mm/hr 0.00 in0.0 mm
04:15 AM 46.8°F8.2°C 45.7°F7.6°C 96% Calm Calm -- 29.86 in1011.2 mb 0.00 in0.0 mm 0.00 in/hr0.0 mm/hr 0.00 in0.0 mm
04:14 AM 46.8°F8.2°C 45.7°F7.6°C 96% Calm Calm -- 29.86 in1011.2 mb 0.00 in0.0 mm 0.00 in/hr0.0 mm/hr 0.00 in0.0 mm
04:13 AM 46.6°F8.1°C 45.1°F7.3°C 95% Calm Calm -- 29.86 in1011.2 mb 0.00 in0.0 mm 0.00 in/hr0.0 mm/hr 0.00 in0.0 mm
04:12 AM 46.4°F8.0°C 45.0°F7.2°C 95% Calm Calm -- 29.86 in1011.2 mb 0.00 in0.0 mm 0.00 in/hr0.0 mm/hr 0.00 in0.0 mm
04:11 AM 46.4°F8.0°C 45.0°F7.2°C 95% Calm Calm -- 29.86 in1011.2 mb 0.00 in0.0 mm 0.00 in/hr0.0 mm/hr 0.00 in0.0 mm
04:10 AM 46.4°F8.0°C 45.0°F7.2°C 95% Calm Calm -- 29.86 in1011.2 mb 0.00 in0.0 mm 0.00 in/hr0.0 mm/hr 0.00 in0.0 mm
04:09 AM 46.4°F8.0°C 45.0°F7.2°C 95% Calm Calm -- 29.86 in1011.2 mb 0.00 in0.0 mm 0.00 in/hr0.0 mm/hr 0.00 in0.0 mm
04:08 AM 46.4°F8.0°C 45.0°F7.2°C 95% Calm Calm -- 29.86 in1011.2 mb 0.00 in0.0 mm 0.00 in/hr0.0 mm/hr 0.00 in0.0 mm
04:07 AM 46.4°F8.0°C 45.0°F7.2°C 95% Calm Calm 0.9 mph1.4 kmh 29.86 in1011.2 mb 0.00 in0.0 mm 0.00 in/hr0.0 mm/hr 0.00 in0.0 mm
04:06 AM 46.4°F8.0°C 45.0°F7.2°C 95% Calm Calm 2.0 mph3.2 kmh 29.86 in1011.2 mb 0.00 in0.0 mm 0.00 in/hr0.0 mm/hr 0.00 in0.0 mm
04:05 AM 46.2°F7.9°C 44.6°F7.0°C 94% Calm Calm 2.0 mph3.2 kmh 29.86 in1011.2 mb 0.00 in0.0 mm 0.00 in/hr0.0 mm/hr 0.00 in0.0 mm
04:04 AM 46.2°F7.9°C 44.6°F7.0°C 94% Calm Calm -- 29.86 in1011.2 mb 0.00 in0.0 mm 0.00 in/hr0.0 mm/hr 0.00 in0.0 mm
04:03 AM 46.2°F7.9°C 44.6°F7.0°C 94% Calm Calm -- 29.86 in1011.2 mb 0.00 in0.0 mm 0.00 in/hr0.0 mm/hr 0.00 in0.0 mm
04:02 AM 46.2°F7.9°C 44.6°F7.0°C 94% Calm Calm -- 29.86 in1011.2 mb 0.00 in0.0 mm 0.00 in/hr0.0 mm/hr 0.00 in0.0 mm
04:01 AM 46.4°F8.0°C 44.8°F7.1°C 94% Calm Calm -- 29.86 in1011.2 mb 0.00 in0.0 mm 0.00 in/hr0.0 mm/hr 0.00 in0.0 mm
04:00 AM 46.4°F8.0°C 44.8°F7.1°C 94% Calm Calm -- 29.86 in1011.2 mb 0.00 in0.0 mm 0.00 in/hr0.0 mm/hr 0.00 in0.0 mm
03:59 AM 46.6°F8.1°C 44.6°F7.0°C 93% Calm Calm -- 29.86 in1011.2 mb 0.00 in0.0 mm 0.00 in/hr0.0 mm/hr 0.00 in0.0 mm
03:58 AM 46.6°F8.1°C 44.6°F7.0°C 93% Calm Calm -- 29.86 in1011.2 mb 0.00 in0.0 mm 0.00 in/hr0.0 mm/hr 0.00 in0.0 mm
03:57 AM 46.8°F8.2°C 44.8°F7.1°C 93% Calm Calm 1.0 mph1.6 kmh 29.86 in1011.2 mb 0.00 in0.0 mm 0.00 in/hr0.0 mm/hr 0.00 in0.0 mm
03:56 AM 46.8°F8.2°C 44.8°F7.1°C 93% Calm Calm -- 29.86 in1011.2 mb 0.00 in0.0 mm 0.00 in/hr0.0 mm/hr 0.00 in0.0 mm
03:55 AM 46.9°F8.3°C 45.0°F7.2°C 93% Calm Calm -- 29.86 in1011.2 mb 0.00 in0.0 mm 0.00 in/hr0.0 mm/hr 0.00 in0.0 mm
03:54 AM 46.9°F8.3°C 45.0°F7.2°C 93% Calm Calm -- 29.86 in1011.2 mb 0.00 in0.0 mm 0.00 in/hr0.0 mm/hr 0.00 in0.0 mm
03:53 AM 47.1°F8.4°C 45.5°F7.5°C 94% Calm Calm -- 29.86 in1011.2 mb 0.00 in0.0 mm 0.00 in/hr0.0 mm/hr 0.00 in0.0 mm
03:52 AM 47.1°F8.4°C 45.5°F7.5°C 94% Calm Calm -- 29.86 in1011.2 mb 0.00 in0.0 mm 0.00 in/hr0.0 mm/hr 0.00 in0.0 mm
03:51 AM 47.1°F8.4°C 45.5°F7.5°C 94% Calm Calm -- 29.86 in1011.2 mb 0.00 in0.0 mm 0.00 in/hr0.0 mm/hr 0.00 in0.0 mm
03:50 AM 47.3°F8.5°C 45.7°F7.6°C 94% Calm Calm -- 29.86 in1011.2 mb 0.00 in0.0 mm 0.00 in/hr0.0 mm/hr 0.00 in0.0 mm
03:49 AM 47.3°F8.5°C 45.7°F7.6°C 94% Calm Calm -- 29.86 in1011.2 mb 0.00 in0.0 mm 0.00 in/hr0.0 mm/hr 0.00 in0.0 mm
03:48 AM 47.3°F8.5°C 45.9°F7.7°C 95% Calm Calm -- 29.86 in1011.2 mb 0.00 in0.0 mm 0.00 in/hr0.0 mm/hr 0.00 in0.0 mm
03:47 AM 47.3°F8.5°C 45.7°F7.6°C 94% Calm Calm 0.9 mph1.4 kmh 29.86 in1011.2 mb 0.00 in0.0 mm 0.00 in/hr0.0 mm/hr 0.00 in0.0 mm
03:46 AM 47.3°F8.5°C 45.7°F7.6°C 94% Calm Calm -- 29.86 in1011.2 mb 0.00 in0.0 mm 0.00 in/hr0.0 mm/hr 0.00 in0.0 mm
03:45 AM 47.3°F8.5°C 45.7°F7.6°C 94% Calm Calm -- 29.86 in1011.2 mb 0.00 in0.0 mm 0.00 in/hr0.0 mm/hr 0.00 in0.0 mm
03:44 AM 47.3°F8.5°C 45.9°F7.7°C 95% Calm Calm -- 29.86 in1011.2 mb 0.00 in0.0 mm 0.00 in/hr0.0 mm/hr 0.00 in0.0 mm
03:43 AM 47.3°F8.5°C 45.9°F7.7°C 95% Calm Calm -- 29.86 in1011.2 mb 0.00 in0.0 mm 0.00 in/hr0.0 mm/hr 0.00 in0.0 mm
03:42 AM 47.3°F8.5°C 45.9°F7.7°C 95% Calm Calm -- 29.86 in1011.2 mb 0.00 in0.0 mm 0.00 in/hr0.0 mm/hr 0.00 in0.0 mm
03:41 AM 47.1°F8.4°C 45.7°F7.6°C 95% Calm Calm -- 29.86 in1011.2 mb 0.00 in0.0 mm 0.00 in/hr0.0 mm/hr 0.00 in0.0 mm
03:40 AM 47.1°F8.4°C 45.7°F7.6°C 95% Calm Calm 1.0 mph1.6 kmh 29.86 in1011.2 mb 0.00 in0.0 mm 0.00 in/hr0.0 mm/hr 0.00 in0.0 mm
03:39 AM 47.1°F8.4°C 45.5°F7.5°C 94% Calm Calm -- 29.86 in1011.2 mb 0.00 in0.0 mm 0.00 in/hr0.0 mm/hr 0.00 in0.0 mm
03:38 AM 47.1°F8.4°C 45.5°F7.5°C 94% Calm Calm -- 29.86 in1011.2 mb 0.00 in0.0 mm 0.00 in/hr0.0 mm/hr 0.00 in0.0 mm
03:37 AM 47.1°F8.4°C 45.5°F7.5°C 94% Calm Calm -- 29.86 in1011.2 mb 0.00 in0.0 mm 0.00 in/hr0.0 mm/hr 0.00 in0.0 mm
03:36 AM 47.1°F8.4°C 45.5°F7.5°C 94% Calm Calm -- 29.86 in1011.2 mb 0.00 in0.0 mm 0.00 in/hr0.0 mm/hr 0.00 in0.0 mm
03:35 AM 47.3°F8.5°C 45.7°F7.6°C 94% Calm Calm -- 29.86 in1011.2 mb 0.00 in0.0 mm 0.00 in/hr0.0 mm/hr 0.00 in0.0 mm
03:34 AM 47.3°F8.5°C 45.7°F7.6°C 94% Calm Calm -- 29.86 in1011.2 mb 0.00 in0.0 mm 0.00 in/hr0.0 mm/hr 0.00 in0.0 mm
03:33 AM 47.5°F8.6°C 45.9°F7.7°C 94% Calm Calm -- 29.86 in1011.2 mb 0.00 in0.0 mm 0.00 in/hr0.0 mm/hr 0.00 in0.0 mm
03:32 AM 47.5°F8.6°C 45.9°F7.7°C 94% Calm Calm -- 29.86 in1011.2 mb 0.00 in0.0 mm 0.00 in/hr0.0 mm/hr 0.00 in0.0 mm
03:31 AM 47.5°F8.6°C 45.9°F7.7°C 94% Calm Calm -- 29.86 in1011.2 mb 0.00 in0.0 mm 0.00 in/hr0.0 mm/hr 0.00 in0.0 mm
03:30 AM 47.5°F8.6°C 45.9°F7.7°C 94% Calm Calm -- 29.86 in1011.2 mb 0.00 in0.0 mm 0.00 in/hr0.0 mm/hr 0.00 in0.0 mm
03:29 AM 47.5°F8.6°C 46.0°F7.8°C 95% Calm Calm 0.9 mph1.4 kmh 29.86 in1011.2 mb 0.00 in0.0 mm 0.00 in/hr0.0 mm/hr 0.00 in0.0 mm
03:28 AM 47.5°F8.6°C 46.0°F7.8°C 95% Calm Calm 0.9 mph1.4 kmh 29.86 in1011.2 mb 0.00 in0.0 mm 0.00 in/hr0.0 mm/hr 0.00 in0.0 mm
03:27 AM 47.5°F8.6°C 46.0°F7.8°C 95% Calm Calm -- 29.86 in1011.2 mb 0.00 in0.0 mm 0.00 in/hr0.0 mm/hr 0.00 in0.0 mm
03:26 AM 47.5°F8.6°C 46.0°F7.8°C 95% Calm Calm -- 29.86 in1011.2 mb 0.00 in0.0 mm 0.00 in/hr0.0 mm/hr 0.00 in0.0 mm
03:25 AM 47.5°F8.6°C 45.9°F7.7°C 94% Calm Calm 0.9 mph1.4 kmh 29.86 in1011.2 mb 0.00 in0.0 mm 0.00 in/hr0.0 mm/hr 0.00 in0.0 mm
03:24 AM 47.5°F8.6°C 45.9°F7.7°C 94% Calm Calm -- 29.86 in1011.2 mb 0.00 in0.0 mm 0.00 in/hr0.0 mm/hr 0.00 in0.0 mm
03:23 AM 47.5°F8.6°C 45.9°F7.7°C 94% Calm Calm -- 29.86 in1011.2 mb 0.00 in0.0 mm 0.00 in/hr0.0 mm/hr 0.00 in0.0 mm
03:22 AM 47.5°F8.6°C 45.9°F7.7°C 94% Calm Calm -- 29.86 in1011.2 mb 0.00 in0.0 mm 0.00 in/hr0.0 mm/hr 0.00 in0.0 mm
03:21 AM 47.5°F8.6°C 45.9°F7.7°C 94% Calm Calm -- 29.86 in1011.2 mb 0.00 in0.0 mm 0.00 in/hr0.0 mm/hr 0.00 in0.0 mm
03:20 AM 47.5°F8.6°C 45.9°F7.7°C 94% Calm Calm -- 29.86 in1011.2 mb 0.00 in0.0 mm 0.00 in/hr0.0 mm/hr 0.00 in0.0 mm
03:19 AM 47.5°F8.6°C 45.9°F7.7°C 94% Calm Calm -- 29.86 in1011.2 mb 0.00 in0.0 mm 0.00 in/hr0.0 mm/hr 0.00 in0.0 mm
03:18 AM 47.7°F8.7°C 46.0°F7.8°C 94% Calm Calm -- 29.86 in1011.2 mb 0.00 in0.0 mm 0.00 in/hr0.0 mm/hr 0.00 in0.0 mm
03:17 AM 47.7°F8.7°C 46.0°F7.8°C 94% Calm Calm -- 29.86 in1011.2 mb 0.00 in0.0 mm 0.00 in/hr0.0 mm/hr 0.00 in0.0 mm
03:16 AM 47.7°F8.7°C 46.0°F7.8°C 94% Calm Calm -- 29.86 in1011.2 mb 0.00 in0.0 mm 0.00 in/hr0.0 mm/hr 0.00 in0.0 mm
03:15 AM 47.7°F8.7°C 46.0°F7.8°C 94% Calm Calm -- 29.86 in1011.2 mb 0.00 in0.0 mm 0.00 in/hr0.0 mm/hr 0.00 in0.0 mm
03:14 AM 47.7°F8.7°C 46.0°F7.8°C 94% Calm Calm -- 29.86 in1011.2 mb 0.00 in0.0 mm 0.00 in/hr0.0 mm/hr 0.00 in0.0 mm
03:13 AM 47.7°F8.7°C 46.0°F7.8°C 94% Calm Calm -- 29.86 in1011.2 mb 0.00 in0.0 mm 0.00 in/hr0.0 mm/hr 0.00 in0.0 mm
03:12 AM 47.7°F8.7°C 46.0°F7.8°C 94% Calm Calm -- 29.86 in1011.2 mb 0.00 in0.0 mm 0.00 in/hr0.0 mm/hr 0.00 in0.0 mm
03:11 AM 47.7°F8.7°C 46.0°F7.8°C 94% Calm Calm -- 29.86 in1011.2 mb 0.00 in0.0 mm 0.00 in/hr0.0 mm/hr 0.00 in0.0 mm
03:10 AM 47.7°F8.7°C 45.7°F7.6°C 93% Calm Calm -- 29.86 in1011.2 mb 0.00 in0.0 mm 0.00 in/hr0.0 mm/hr 0.00 in0.0 mm
03:08 AM 47.7°F8.7°C 45.7°F7.6°C 93% Calm Calm -- 29.86 in1011.2 mb 0.00 in0.0 mm 0.00 in/hr0.0 mm/hr 0.00 in0.0 mm
03:07 AM 47.8°F8.8°C 45.9°F7.7°C 93% Calm Calm -- 29.86 in1011.2 mb 0.00 in0.0 mm 0.00 in/hr0.0 mm/hr 0.00 in0.0 mm
03:06 AM 47.8°F8.8°C 45.9°F7.7°C 93% Calm Calm -- 29.86 in1011.2 mb 0.00 in0.0 mm 0.00 in/hr0.0 mm/hr 0.00 in0.0 mm
03:05 AM 48.0°F8.9°C 46.0°F7.8°C 93% Calm Calm -- 29.86 in1011.2 mb 0.00 in0.0 mm 0.00 in/hr0.0 mm/hr 0.00 in0.0 mm
03:04 AM 48.0°F8.9°C 46.0°F7.8°C 93% Calm Calm -- 29.86 in1011.2 mb 0.00 in0.0 mm 0.00 in/hr0.0 mm/hr 0.00 in0.0 mm
03:03 AM 48.2°F9.0°C 46.2°F7.9°C 93% Calm Calm 0.9 mph1.4 kmh 29.86 in1011.2 mb 0.00 in0.0 mm 0.00 in/hr0.0 mm/hr 0.00 in0.0 mm
03:02 AM 48.4°F9.1°C 46.4°F8.0°C 93% Calm Calm -- 29.86 in1011.2 mb 0.00 in0.0 mm 0.00 in/hr0.0 mm/hr 0.00 in0.0 mm
03:01 AM 48.4°F9.1°C 46.2°F7.9°C 92% Calm Calm 0.9 mph1.4 kmh 29.86 in1011.2 mb 0.00 in0.0 mm 0.00 in/hr0.0 mm/hr 0.00 in0.0 mm
03:00 AM 48.6°F9.2°C 46.4°F8.0°C 92% Calm Calm 0.9 mph1.4 kmh 29.86 in1011.2 mb 0.00 in0.0 mm 0.00 in/hr0.0 mm/hr 0.00 in0.0 mm
02:59 AM 48.6°F9.2°C 46.6°F8.1°C 93% 0.9 mph NNE1.4 kmh NNE 0.9 mph1.4 kmh 29.86 in1011.2 mb 0.00 in0.0 mm 0.00 in/hr0.0 mm/hr 0.00 in0.0 mm
02:58 AM 48.7°F9.3°C 46.8°F8.2°C 93% 0.9 mph NNE1.4 kmh NNE -- 29.86 in1011.2 mb 0.00 in0.0 mm 0.00 in/hr0.0 mm/hr 0.00 in0.0 mm
02:57 AM 48.7°F9.3°C 46.8°F8.2°C 93% 0.9 mph NNE1.4 kmh NNE 0.9 mph1.4 kmh 29.86 in1011.2 mb 0.00 in0.0 mm 0.00 in/hr0.0 mm/hr 0.00 in0.0 mm
02:56 AM 48.9°F9.4°C 46.9°F8.3°C 93% 0.9 mph NNE1.4 kmh NNE -- 29.86 in1011.2 mb 0.00 in0.0 mm 0.00 in/hr0.0 mm/hr 0.00 in0.0 mm
02:55 AM 48.9°F9.4°C 47.3°F8.5°C 94% 0.9 mph NNE1.4 kmh NNE -- 29.86 in1011.2 mb 0.00 in0.0 mm 0.00 in/hr0.0 mm/hr 0.00 in0.0 mm
02:54 AM 48.9°F9.4°C 47.3°F8.5°C 94% 0.9 mph NNE1.4 kmh NNE 0.9 mph1.4 kmh 29.86 in1011.2 mb 0.00 in0.0 mm 0.00 in/hr0.0 mm/hr 0.00 in0.0 mm
02:53 AM 48.7°F9.3°C 47.1°F8.4°C 94% 0.9 mph NNE1.4 kmh NNE 0.9 mph1.4 kmh 29.86 in1011.2 mb 0.00 in0.0 mm 0.00 in/hr0.0 mm/hr 0.00 in0.0 mm
02:52 AM 48.7°F9.3°C 47.3°F8.5°C 95% 0.9 mph NNE1.4 kmh NNE 0.9 mph1.4 kmh 29.86 in1011.2 mb 0.00 in0.0 mm 0.00 in/hr0.0 mm/hr 0.00 in0.0 mm
02:51 AM 48.7°F9.3°C 47.3°F8.5°C 95% 0.9 mph NNE1.4 kmh NNE 0.9 mph1.4 kmh 29.86 in1011.2 mb 0.00 in0.0 mm 0.00 in/hr0.0 mm/hr 0.00 in0.0 mm
02:50 AM 48.7°F9.3°C 47.7°F8.7°C 96% Calm Calm 2.0 mph3.2 kmh 29.86 in1011.2 mb 0.00 in0.0 mm 0.00 in/hr0.0 mm/hr 0.00 in0.0 mm
02:49 AM 48.6°F9.2°C 47.5°F8.6°C 96% Calm Calm 3.0 mph4.8 kmh 29.86 in1011.2 mb 0.00 in0.0 mm 0.00 in/hr0.0 mm/hr 0.00 in0.0 mm
02:48 AM 48.6°F9.2°C 47.5°F8.6°C 96% Calm Calm 0.9 mph1.4 kmh 29.86 in1011.2 mb 0.00 in0.0 mm 0.00 in/hr0.0 mm/hr 0.00 in0.0 mm
02:46 AM 48.4°F9.1°C 47.3°F8.5°C 96% Calm Calm 0.9 mph1.4 kmh 29.86 in1011.2 mb 0.00 in0.0 mm 0.00 in/hr0.0 mm/hr 0.00 in0.0 mm
02:45 AM 48.4°F9.1°C 47.3°F8.5°C 96% Calm Calm -- 29.86 in1011.2 mb 0.00 in0.0 mm 0.00 in/hr0.0 mm/hr 0.00 in0.0 mm
02:44 AM 48.4°F9.1°C 46.9°F8.3°C 95% Calm Calm -- 29.86 in1011.2 mb 0.00 in0.0 mm 0.00 in/hr0.0 mm/hr 0.00 in0.0 mm
02:43 AM 48.2°F9.0°C 46.8°F8.2°C 95% Calm Calm -- 29.86 in1011.2 mb 0.00 in0.0 mm 0.00 in/hr0.0 mm/hr 0.00 in0.0 mm
02:42 AM 48.0°F8.9°C 46.6°F8.1°C 95% Calm Calm -- 29.86 in1011.2 mb 0.00 in0.0 mm 0.00 in/hr0.0 mm/hr 0.00 in0.0 mm
02:41 AM 48.0°F8.9°C 46.6°F8.1°C 95% Calm Calm -- 29.86 in1011.2 mb 0.00 in0.0 mm 0.00 in/hr0.0 mm/hr 0.00 in0.0 mm
02:40 AM 48.0°F8.9°C 46.6°F8.1°C 95% Calm Calm -- 29.86 in1011.2 mb 0.00 in0.0 mm 0.00 in/hr0.0 mm/hr 0.00 in0.0 mm
02:39 AM 48.0°F8.9°C 46.6°F8.1°C 95% Calm Calm 0.9 mph1.4 kmh 29.86 in1011.2 mb 0.00 in0.0 mm 0.00 in/hr0.0 mm/hr 0.00 in0.0 mm
02:38 AM 48.0°F8.9°C 46.6°F8.1°C 95% Calm Calm 0.9 mph1.4 kmh 29.86 in1011.2 mb 0.00 in0.0 mm 0.00 in/hr0.0 mm/hr 0.00 in0.0 mm
02:37 AM 48.0°F8.9°C 46.6°F8.1°C 95% Calm Calm 1.0 mph1.6 kmh 29.86 in1011.2 mb 0.00 in0.0 mm 0.00 in/hr0.0 mm/hr 0.00 in0.0 mm
02:36 AM 48.0°F8.9°C 46.6°F8.1°C 95% Calm Calm -- 29.86 in1011.2 mb 0.00 in0.0 mm 0.00 in/hr0.0 mm/hr 0.00 in0.0 mm
02:35 AM 48.0°F8.9°C 46.6°F8.1°C 95% Calm Calm -- 29.86 in1011.2 mb 0.00 in0.0 mm 0.00 in/hr0.0 mm/hr 0.00 in0.0 mm
02:34 AM 48.0°F8.9°C 46.6°F8.1°C 95% Calm Calm -- 29.86 in1011.2 mb 0.00 in0.0 mm 0.00 in/hr0.0 mm/hr 0.00 in0.0 mm
02:33 AM 48.0°F8.9°C 46.6°F8.1°C 95% Calm Calm -- 29.86 in1011.2 mb 0.00 in0.0 mm 0.00 in/hr0.0 mm/hr 0.00 in0.0 mm
02:32 AM 48.0°F8.9°C 46.6°F8.1°C 95% Calm Calm -- 29.86 in1011.2 mb 0.00 in0.0 mm 0.00 in/hr0.0 mm/hr 0.00 in0.0 mm
02:31 AM 48.0°F8.9°C 46.6°F8.1°C 95% Calm Calm -- 29.86 in1011.2 mb 0.00 in0.0 mm 0.00 in/hr0.0 mm/hr 0.00 in0.0 mm
02:30 AM 48.0°F8.9°C 46.4°F8.0°C 94% Calm Calm -- 29.86 in1011.2 mb 0.00 in0.0 mm 0.00 in/hr0.0 mm/hr 0.00 in0.0 mm
02:29 AM 48.0°F8.9°C 46.4°F8.0°C 94% Calm Calm -- 29.86 in1011.2 mb 0.00 in0.0 mm 0.00 in/hr0.0 mm/hr 0.00 in0.0 mm
02:28 AM 48.0°F8.9°C 46.4°F8.0°C 94% Calm Calm -- 29.86 in1011.2 mb 0.00 in0.0 mm 0.00 in/hr0.0 mm/hr 0.00 in0.0 mm
02:27 AM 48.0°F8.9°C 46.4°F8.0°C 94% Calm Calm -- 29.86 in1011.2 mb 0.00 in0.0 mm 0.00 in/hr0.0 mm/hr 0.00 in0.0 mm
02:25 AM 48.0°F8.9°C 46.4°F8.0°C 94% Calm Calm -- 29.86 in1011.2 mb 0.00 in0.0 mm 0.00 in/hr0.0 mm/hr 0.00 in0.0 mm
02:24 AM 48.0°F8.9°C 46.4°F8.0°C 94% Calm Calm -- 29.86 in1011.2 mb 0.00 in0.0 mm 0.00 in/hr0.0 mm/hr 0.00 in0.0 mm
02:23 AM 48.2°F9.0°C 46.8°F8.2°C 95% Calm Calm -- 29.86 in1011.2 mb 0.00 in0.0 mm 0.00 in/hr0.0 mm/hr 0.00 in0.0 mm
02:22 AM 48.2°F9.0°C 46.8°F8.2°C 95% Calm Calm -- 29.86 in1011.2 mb 0.00 in0.0 mm 0.00 in/hr0.0 mm/hr 0.00 in0.0 mm
02:21 AM 48.2°F9.0°C 46.8°F8.2°C 95% Calm Calm 0.9 mph1.4 kmh 29.86 in1011.2 mb 0.00 in0.0 mm 0.00 in/hr0.0 mm/hr 0.00 in0.0 mm
02:20 AM 48.2°F9.0°C 46.8°F8.2°C 95% Calm Calm -- 29.86 in1011.2 mb 0.00 in0.0 mm 0.00 in/hr0.0 mm/hr 0.00 in0.0 mm
02:19 AM 48.2°F9.0°C 46.8°F8.2°C 95% Calm Calm -- 29.86 in1011.2 mb 0.00 in0.0 mm 0.00 in/hr0.0 mm/hr 0.00 in0.0 mm
02:18 AM 48.2°F9.0°C 46.8°F8.2°C 95% Calm Calm -- 29.86 in1011.2 mb 0.00 in0.0 mm 0.00 in/hr0.0 mm/hr 0.00 in0.0 mm
02:17 AM 48.2°F9.0°C 46.8°F8.2°C 95% Calm Calm -- 29.86 in1011.2 mb 0.00 in0.0 mm 0.00 in/hr0.0 mm/hr 0.00 in0.0 mm
02:16 AM 48.2°F9.0°C 46.8°F8.2°C 95% Calm Calm -- 29.86 in1011.2 mb 0.00 in0.0 mm 0.00 in/hr0.0 mm/hr 0.00 in0.0 mm
02:15 AM 48.2°F9.0°C 46.8°F8.2°C 95% Calm Calm -- 29.86 in1011.2 mb 0.00 in0.0 mm 0.00 in/hr0.0 mm/hr 0.00 in0.0 mm
02:14 AM 48.2°F9.0°C 46.8°F8.2°C 95% Calm Calm -- 29.86 in1011.2 mb 0.00 in0.0 mm 0.00 in/hr0.0 mm/hr 0.00 in0.0 mm
02:13 AM 48.0°F8.9°C 46.4°F8.0°C 94% Calm Calm -- 29.86 in1011.2 mb 0.00 in0.0 mm 0.00 in/hr0.0 mm/hr 0.00 in0.0 mm
02:12 AM 48.0°F8.9°C 46.4°F8.0°C 94% Calm Calm -- 29.86 in1011.2 mb 0.00 in0.0 mm 0.00 in/hr0.0 mm/hr 0.00 in0.0 mm
02:11 AM 48.2°F9.0°C 46.6°F8.1°C 94% Calm Calm 0.9 mph1.4 kmh 29.86 in1011.2 mb 0.00 in0.0 mm 0.00 in/hr0.0 mm/hr 0.00 in0.0 mm
02:10 AM 48.2°F9.0°C 46.6°F8.1°C 94% Calm Calm 0.9 mph1.4 kmh 29.86 in1011.2 mb 0.00 in0.0 mm 0.00 in/hr0.0 mm/hr 0.00 in0.0 mm
02:09 AM 48.2°F9.0°C 46.8°F8.2°C 95% Calm Calm 0.9 mph1.4 kmh 29.86 in1011.2 mb 0.00 in0.0 mm 0.00 in/hr0.0 mm/hr 0.00 in0.0 mm
02:08 AM 48.2°F9.0°C 46.8°F8.2°C 95% Calm Calm 0.9 mph1.4 kmh 29.86 in1011.2 mb 0.00 in0.0 mm 0.00 in/hr0.0 mm/hr 0.00 in0.0 mm
02:07 AM 48.4°F9.1°C 46.9°F8.3°C 95% Calm Calm 0.9 mph1.4 kmh 29.86 in1011.2 mb 0.00 in0.0 mm 0.00 in/hr0.0 mm/hr 0.00 in0.0 mm
02:05 AM 48.2°F9.0°C 46.8°F8.2°C 95% Calm Calm -- 29.86 in1011.2 mb 0.00 in0.0 mm 0.00 in/hr0.0 mm/hr 0.00 in0.0 mm
02:04 AM 48.0°F8.9°C 46.6°F8.1°C 95% Calm Calm -- 29.86 in1011.2 mb 0.00 in0.0 mm 0.00 in/hr0.0 mm/hr 0.00 in0.0 mm
02:03 AM 48.0°F8.9°C 46.4°F8.0°C 94% Calm Calm -- 29.86 in1011.2 mb 0.00 in0.0 mm 0.00 in/hr0.0 mm/hr 0.00 in0.0 mm
02:02 AM 48.0°F8.9°C 46.0°F7.8°C 93% Calm Calm -- 29.86 in1011.2 mb 0.00 in0.0 mm 0.00 in/hr0.0 mm/hr 0.00 in0.0 mm
02:01 AM 48.0°F8.9°C 46.4°F8.0°C 94% Calm Calm -- 29.86 in1011.2 mb 0.00 in0.0 mm 0.00 in/hr0.0 mm/hr 0.00 in0.0 mm
02:00 AM 48.2°F9.0°C 46.6°F8.1°C 94% Calm Calm -- 29.86 in1011.2 mb 0.00 in0.0 mm 0.00 in/hr0.0 mm/hr 0.00 in0.0 mm
01:58 AM 48.2°F9.0°C 46.2°F7.9°C 93% Calm Calm -- 29.86 in1011.2 mb 0.00 in0.0 mm 0.00 in/hr0.0 mm/hr 0.00 in0.0 mm
01:57 AM 48.4°F9.1°C 46.4°F8.0°C 93% Calm Calm 0.9 mph1.4 kmh 29.86 in1011.2 mb 0.00 in0.0 mm 0.00 in/hr0.0 mm/hr 0.00 in0.0 mm
01:56 AM 48.4°F9.1°C 46.4°F8.0°C 93% Calm Calm 0.9 mph1.4 kmh 29.86 in1011.2 mb 0.00 in0.0 mm 0.00 in/hr0.0 mm/hr 0.00 in0.0 mm
01:55 AM 48.6°F9.2°C 46.6°F8.1°C 93% Calm Calm 0.9 mph1.4 kmh 29.86 in1011.2 mb 0.00 in0.0 mm 0.00 in/hr0.0 mm/hr 0.00 in0.0 mm
01:54 AM 48.6°F9.2°C 46.9°F8.3°C 94% Calm Calm -- 29.86 in1011.2 mb 0.00 in0.0 mm 0.00 in/hr0.0 mm/hr 0.00 in0.0 mm
01:53 AM 48.6°F9.2°C 46.9°F8.3°C 94% Calm Calm -- 29.86 in1011.2 mb 0.00 in0.0 mm 0.00 in/hr0.0 mm/hr 0.00 in0.0 mm
01:52 AM 48.6°F9.2°C 46.9°F8.3°C 94% Calm Calm -- 29.86 in1011.2 mb 0.00 in0.0 mm 0.00 in/hr0.0 mm/hr 0.00 in0.0 mm
01:51 AM 48.7°F9.3°C 47.1°F8.4°C 94% Calm Calm 0.9 mph1.4 kmh 29.86 in1011.2 mb 0.00 in0.0 mm 0.00 in/hr0.0 mm/hr 0.00 in0.0 mm
01:50 AM 48.7°F9.3°C 47.1°F8.4°C 94% Calm Calm -- 29.86 in1011.2 mb 0.00 in0.0 mm 0.00 in/hr0.0 mm/hr 0.00 in0.0 mm
01:49 AM 48.7°F9.3°C 47.1°F8.4°C 94% Calm Calm -- 29.86 in1011.2 mb 0.00 in0.0 mm 0.00 in/hr0.0 mm/hr 0.00 in0.0 mm
01:48 AM 48.7°F9.3°C 47.1°F8.4°C 94% Calm Calm 0.9 mph1.4 kmh 29.86 in1011.2 mb 0.00 in0.0 mm 0.00 in/hr0.0 mm/hr 0.00 in0.0 mm
01:47 AM 48.9°F9.4°C 47.3°F8.5°C 94% Calm Calm 0.9 mph1.4 kmh 29.86 in1011.2 mb 0.00 in0.0 mm 0.00 in/hr0.0 mm/hr 0.00 in0.0 mm
01:46 AM 48.9°F9.4°C 47.3°F8.5°C 94% Calm Calm 0.9 mph1.4 kmh 29.86 in1011.2 mb 0.00 in0.0 mm 0.00 in/hr0.0 mm/hr 0.00 in0.0 mm
01:45 AM 48.9°F9.4°C 47.3°F8.5°C 94% Calm Calm -- 29.86 in1011.2 mb 0.00 in0.0 mm 0.00 in/hr0.0 mm/hr 0.00 in0.0 mm
01:44 AM 48.9°F9.4°C 47.3°F8.5°C 94% Calm Calm -- 29.87 in1011.5 mb 0.00 in0.0 mm 0.00 in/hr0.0 mm/hr 0.00 in0.0 mm
01:43 AM 48.9°F9.4°C 47.5°F8.6°C 95% Calm Calm -- 29.87 in1011.5 mb 0.00 in0.0 mm 0.00 in/hr0.0 mm/hr 0.00 in0.0 mm
01:42 AM 48.9°F9.4°C 47.5°F8.6°C 95% Calm Calm -- 29.87 in1011.5 mb 0.00 in0.0 mm 0.00 in/hr0.0 mm/hr 0.00 in0.0 mm
01:41 AM 48.9°F9.4°C 47.5°F8.6°C 95% Calm Calm 0.9 mph1.4 kmh 29.87 in1011.5 mb 0.00 in0.0 mm 0.00 in/hr0.0 mm/hr 0.00 in0.0 mm
01:40 AM 48.9°F9.4°C 47.5°F8.6°C 95% Calm Calm -- 29.87 in1011.5 mb 0.00 in0.0 mm 0.00 in/hr0.0 mm/hr 0.00 in0.0 mm
01:39 AM 48.9°F9.4°C 47.5°F8.6°C 95% Calm Calm 1.0 mph1.6 kmh 29.87 in1011.5 mb 0.00 in0.0 mm 0.00 in/hr0.0 mm/hr 0.00 in0.0 mm
01:38 AM 48.9°F9.4°C 47.5°F8.6°C 95% Calm Calm 1.0 mph1.6 kmh 29.87 in1011.5 mb 0.00 in0.0 mm 0.00 in/hr0.0 mm/hr 0.00 in0.0 mm
01:36 AM 49.1°F9.5°C 47.7°F8.7°C 95% Calm Calm -- 29.87 in1011.5 mb 0.00 in0.0 mm 0.00 in/hr0.0 mm/hr 0.00 in0.0 mm
01:35 AM 48.9°F9.4°C 47.5°F8.6°C 95% Calm Calm -- 29.87 in1011.5 mb 0.00 in0.0 mm 0.00 in/hr0.0 mm/hr 0.00 in0.0 mm
01:34 AM 48.9°F9.4°C 47.5°F8.6°C 95% Calm Calm -- 29.87 in1011.5 mb 0.00 in0.0 mm 0.00 in/hr0.0 mm/hr 0.00 in0.0 mm
01:33 AM 49.1°F9.5°C 47.7°F8.7°C 95% Calm Calm -- 29.87 in1011.5 mb 0.00 in0.0 mm 0.00 in/hr0.0 mm/hr 0.00 in0.0 mm
01:32 AM 48.9°F9.4°C 47.5°F8.6°C 95% Calm Calm -- 29.87 in1011.5 mb 0.00 in0.0 mm 0.00 in/hr0.0 mm/hr 0.00 in0.0 mm
01:31 AM 48.9°F9.4°C 47.5°F8.6°C 95% Calm Calm -- 29.87 in1011.5 mb 0.00 in0.0 mm 0.00 in/hr0.0 mm/hr 0.00 in0.0 mm
01:30 AM 48.9°F9.4°C 47.5°F8.6°C 95% Calm Calm -- 29.87 in1011.5 mb 0.00 in0.0 mm 0.00 in/hr0.0 mm/hr 0.00 in0.0 mm
01:29 AM 48.9°F9.4°C 47.5°F8.6°C 95% Calm Calm -- 29.87 in1011.5 mb 0.00 in0.0 mm 0.00 in/hr0.0 mm/hr 0.00 in0.0 mm
01:28 AM 48.9°F9.4°C 47.5°F8.6°C 95% Calm Calm 0.9 mph1.4 kmh 29.87 in1011.5 mb 0.00 in0.0 mm 0.00 in/hr0.0 mm/hr 0.00 in0.0 mm
01:27 AM 48.7°F9.3°C 47.3°F8.5°C 95% Calm Calm 0.9 mph1.4 kmh 29.87 in1011.5 mb 0.00 in0.0 mm 0.00 in/hr0.0 mm/hr 0.00 in0.0 mm
01:26 AM 48.7°F9.3°C 47.3°F8.5°C 95% Calm Calm 0.9 mph1.4 kmh 29.87 in1011.5 mb 0.00 in0.0 mm 0.00 in/hr0.0 mm/hr 0.00 in0.0 mm
01:25 AM 48.7°F9.3°C 47.3°F8.5°C 95% Calm Calm -- 29.87 in1011.5 mb 0.00 in0.0 mm 0.00 in/hr0.0 mm/hr 0.00 in0.0 mm
01:24 AM 48.7°F9.3°C 47.3°F8.5°C 95% Calm Calm 0.9 mph1.4 kmh 29.87 in1011.5 mb 0.00 in0.0 mm 0.00 in/hr0.0 mm/hr 0.00 in0.0 mm
01:23 AM 48.9°F9.4°C 47.5°F8.6°C 95% Calm Calm -- 29.87 in1011.5 mb 0.00 in0.0 mm 0.00 in/hr0.0 mm/hr 0.00 in0.0 mm
01:22 AM 48.9°F9.4°C 47.5°F8.6°C 95% Calm Calm -- 29.87 in1011.5 mb 0.00 in0.0 mm 0.00 in/hr0.0 mm/hr 0.00 in0.0 mm
01:21 AM 48.9°F9.4°C 47.5°F8.6°C 95% Calm Calm -- 29.87 in1011.5 mb 0.00 in0.0 mm 0.00 in/hr0.0 mm/hr 0.00 in0.0 mm
01:20 AM 48.9°F9.4°C 47.5°F8.6°C 95% Calm Calm -- 29.87 in1011.5 mb 0.00 in0.0 mm 0.00 in/hr0.0 mm/hr 0.00 in0.0 mm
01:19 AM 48.9°F9.4°C 47.5°F8.6°C 95% Calm Calm -- 29.87 in1011.5 mb 0.00 in0.0 mm 0.00 in/hr0.0 mm/hr 0.00 in0.0 mm
01:18 AM 48.9°F9.4°C 47.5°F8.6°C 95% Calm Calm 0.9 mph1.4 kmh 29.87 in1011.5 mb 0.00 in0.0 mm 0.00 in/hr0.0 mm/hr 0.00 in0.0 mm
01:17 AM 48.9°F9.4°C 47.5°F8.6°C 95% Calm Calm 0.9 mph1.4 kmh 29.87 in1011.5 mb 0.00 in0.0 mm 0.00 in/hr0.0 mm/hr 0.00 in0.0 mm
01:16 AM 48.9°F9.4°C 47.5°F8.6°C 95% Calm Calm -- 29.87 in1011.5 mb 0.00 in0.0 mm 0.00 in/hr0.0 mm/hr 0.00 in0.0 mm
01:15 AM 48.9°F9.4°C 47.5°F8.6°C 95% Calm Calm -- 29.87 in1011.5 mb 0.00 in0.0 mm 0.00 in/hr0.0 mm/hr 0.00 in0.0 mm
01:14 AM 48.9°F9.4°C 47.5°F8.6°C 95% Calm Calm -- 29.87 in1011.5 mb 0.00 in0.0 mm 0.00 in/hr0.0 mm/hr 0.00 in0.0 mm
01:13 AM 48.9°F9.4°C 47.5°F8.6°C 95% Calm Calm 0.9 mph1.4 kmh 29.87 in1011.5 mb 0.00 in0.0 mm 0.00 in/hr0.0 mm/hr 0.00 in0.0 mm
01:12 AM 48.9°F9.4°C 47.5°F8.6°C 95% Calm Calm -- 29.87 in1011.5 mb 0.00 in0.0 mm 0.00 in/hr0.0 mm/hr 0.00 in0.0 mm
01:11 AM 48.9°F9.4°C 47.5°F8.6°C 95% Calm Calm -- 29.87 in1011.5 mb 0.00 in0.0 mm 0.00 in/hr0.0 mm/hr 0.00 in0.0 mm
01:10 AM 48.9°F9.4°C 47.5°F8.6°C 95% Calm Calm -- 29.87 in1011.5 mb 0.00 in0.0 mm 0.00 in/hr0.0 mm/hr 0.00 in0.0 mm
01:09 AM 48.9°F9.4°C 47.5°F8.6°C 95% Calm Calm -- 29.87 in1011.5 mb 0.00 in0.0 mm 0.00 in/hr0.0 mm/hr 0.00 in0.0 mm
01:08 AM 48.9°F9.4°C 47.5°F8.6°C 95% Calm Calm 0.9 mph1.4 kmh 29.87 in1011.5 mb 0.00 in0.0 mm 0.00 in/hr0.0 mm/hr 0.00 in0.0 mm
01:07 AM 48.7°F9.3°C 47.3°F8.5°C 95% Calm Calm -- 29.87 in1011.5 mb 0.00 in0.0 mm 0.00 in/hr0.0 mm/hr 0.00 in0.0 mm
01:06 AM 48.7°F9.3°C 47.3°F8.5°C 95% Calm Calm -- 29.87 in1011.5 mb 0.00 in0.0 mm 0.00 in/hr0.0 mm/hr 0.00 in0.0 mm
01:05 AM 48.7°F9.3°C 47.1°F8.4°C 94% Calm Calm -- 29.87 in1011.5 mb 0.00 in0.0 mm 0.00 in/hr0.0 mm/hr 0.00 in0.0 mm
01:04 AM 48.7°F9.3°C 47.1°F8.4°C 94% Calm Calm -- 29.87 in1011.5 mb 0.00 in0.0 mm 0.00 in/hr0.0 mm/hr 0.00 in0.0 mm
01:03 AM 48.7°F9.3°C 47.1°F8.4°C 94% Calm Calm -- 29.87 in1011.5 mb 0.00 in0.0 mm 0.00 in/hr0.0 mm/hr 0.00 in0.0 mm
01:02 AM 48.9°F9.4°C 47.3°F8.5°C 94% Calm Calm 0.9 mph1.4 kmh 29.87 in1011.5 mb 0.00 in0.0 mm 0.00 in/hr0.0 mm/hr 0.00 in0.0 mm
01:01 AM 48.9°F9.4°C 47.3°F8.5°C 94% Calm Calm 0.9 mph1.4 kmh 29.87 in1011.5 mb 0.00 in0.0 mm 0.00 in/hr0.0 mm/hr 0.00 in0.0 mm
01:00 AM 48.9°F9.4°C 47.3°F8.5°C 94% Calm Calm -- 29.87 in1011.5 mb 0.00 in0.0 mm 0.00 in/hr0.0 mm/hr 0.00 in0.0 mm
12:59 AM 48.9°F9.4°C 47.3°F8.5°C 94% Calm Calm -- 29.88 in1011.9 mb 0.00 in0.0 mm 0.00 in/hr0.0 mm/hr 0.00 in0.0 mm
12:58 AM 49.3°F9.6°C 47.7°F8.7°C 94% Calm Calm -- 29.88 in1011.9 mb 0.00 in0.0 mm 0.00 in/hr0.0 mm/hr 0.00 in0.0 mm
12:57 AM 49.3°F9.6°C 47.7°F8.7°C 94% Calm Calm -- 29.88 in1011.9 mb 0.00 in0.0 mm 0.00 in/hr0.0 mm/hr 0.00 in0.0 mm
12:56 AM 49.3°F9.6°C 47.8°F8.8°C 95% Calm Calm -- 29.88 in1011.9 mb 0.00 in0.0 mm 0.00 in/hr0.0 mm/hr 0.00 in0.0 mm
12:55 AM 49.5°F9.7°C 48.0°F8.9°C 95% Calm Calm -- 29.88 in1011.9 mb 0.00 in0.0 mm 0.00 in/hr0.0 mm/hr 0.00 in0.0 mm
12:54 AM 49.5°F9.7°C 48.0°F8.9°C 95% Calm Calm -- 29.88 in1011.9 mb 0.00 in0.0 mm 0.00 in/hr0.0 mm/hr 0.00 in0.0 mm
12:53 AM 49.5°F9.7°C 48.0°F8.9°C 95% Calm Calm -- 29.88 in1011.9 mb 0.00 in0.0 mm 0.00 in/hr0.0 mm/hr 0.00 in0.0 mm
12:52 AM 49.5°F9.7°C 48.0°F8.9°C 95% Calm Calm -- 29.88 in1011.9 mb 0.00 in0.0 mm 0.00 in/hr0.0 mm/hr 0.00 in0.0 mm
12:51 AM 49.5°F9.7°C 48.0°F8.9°C 95% Calm Calm -- 29.88 in1011.9 mb 0.00 in0.0 mm 0.00 in/hr0.0 mm/hr 0.00 in0.0 mm
12:50 AM 49.5°F9.7°C 48.0°F8.9°C 95% Calm Calm -- 29.88 in1011.9 mb 0.00 in0.0 mm 0.00 in/hr0.0 mm/hr 0.00 in0.0 mm
12:49 AM 49.5°F9.7°C 48.0°F8.9°C 95% Calm Calm -- 29.88 in1011.9 mb 0.00 in0.0 mm 0.00 in/hr0.0 mm/hr 0.00 in0.0 mm
12:48 AM 49.5°F9.7°C 48.0°F8.9°C 95% Calm Calm -- 29.88 in1011.9 mb 0.00 in0.0 mm 0.00 in/hr0.0 mm/hr 0.00 in0.0 mm
12:47 AM 49.3°F9.6°C 47.8°F8.8°C 95% Calm Calm -- 29.88 in1011.9 mb 0.00 in0.0 mm 0.00 in/hr0.0 mm/hr 0.00 in0.0 mm
12:46 AM 49.3°F9.6°C 47.7°F8.7°C 94% Calm Calm -- 29.88 in1011.9 mb 0.00 in0.0 mm 0.00 in/hr0.0 mm/hr 0.00 in0.0 mm
12:45 AM 49.3°F9.6°C 47.7°F8.7°C 94% Calm Calm -- 29.88 in1011.9 mb 0.00 in0.0 mm 0.00 in/hr0.0 mm/hr 0.00 in0.0 mm
12:44 AM 49.3°F9.6°C 47.7°F8.7°C 94% Calm Calm -- 29.88 in1011.9 mb 0.00 in0.0 mm 0.00 in/hr0.0 mm/hr 0.00 in0.0 mm
12:43 AM 49.3°F9.6°C 47.7°F8.7°C 94% Calm Calm -- 29.88 in1011.9 mb 0.00 in0.0 mm 0.00 in/hr0.0 mm/hr 0.00 in0.0 mm
12:42 AM 49.5°F9.7°C 47.8°F8.8°C 94% Calm Calm -- 29.88 in1011.9 mb 0.00 in0.0 mm 0.00 in/hr0.0 mm/hr 0.00 in0.0 mm
12:41 AM 49.5°F9.7°C 47.8°F8.8°C 94% Calm Calm -- 29.88 in1011.9 mb 0.00 in0.0 mm 0.00 in/hr0.0 mm/hr 0.00 in0.0 mm
12:40 AM 49.5°F9.7°C 47.8°F8.8°C 94% Calm Calm -- 29.88 in1011.9 mb 0.00 in0.0 mm 0.00 in/hr0.0 mm/hr 0.00 in0.0 mm
12:39 AM 49.5°F9.7°C 47.8°F8.8°C 94% Calm Calm -- 29.88 in1011.9 mb 0.00 in0.0 mm 0.00 in/hr0.0 mm/hr 0.00 in0.0 mm
12:38 AM 49.5°F9.7°C 47.8°F8.8°C 94% Calm Calm -- 29.88 in1011.9 mb 0.00 in0.0 mm 0.00 in/hr0.0 mm/hr 0.00 in0.0 mm
12:37 AM 49.5°F9.7°C 47.8°F8.8°C 94% Calm Calm -- 29.88 in1011.9 mb 0.00 in0.0 mm 0.00 in/hr0.0 mm/hr 0.00 in0.0 mm
12:36 AM 49.5°F9.7°C 47.5°F8.6°C 93% Calm Calm -- 29.88 in1011.9 mb 0.00 in0.0 mm 0.00 in/hr0.0 mm/hr 0.00 in0.0 mm
12:35 AM 49.6°F9.8°C 47.7°F8.7°C 93% Calm Calm -- 29.88 in1011.9 mb 0.00 in0.0 mm 0.00 in/hr0.0 mm/hr 0.00 in0.0 mm
12:34 AM 49.6°F9.8°C 47.7°F8.7°C 93% Calm Calm -- 29.88 in1011.9 mb 0.00 in0.0 mm 0.00 in/hr0.0 mm/hr 0.00 in0.0 mm
12:33 AM 49.6°F9.8°C 47.7°F8.7°C 93% Calm Calm -- 29.88 in1011.9 mb 0.00 in0.0 mm 0.00 in/hr0.0 mm/hr 0.00 in0.0 mm
12:32 AM 49.6°F9.8°C 47.7°F8.7°C 93% Calm Calm -- 29.88 in1011.9 mb 0.00 in0.0 mm 0.00 in/hr0.0 mm/hr 0.00 in0.0 mm
12:31 AM 49.8°F9.9°C 47.8°F8.8°C 93% Calm Calm -- 29.88 in1011.9 mb 0.00 in0.0 mm 0.00 in/hr0.0 mm/hr 0.00 in0.0 mm
12:30 AM 49.8°F9.9°C 47.8°F8.8°C 93% Calm Calm -- 29.88 in1011.9 mb 0.00 in0.0 mm 0.00 in/hr0.0 mm/hr 0.00 in0.0 mm
12:29 AM 49.8°F9.9°C 48.2°F9.0°C 94% Calm Calm -- 29.88 in1011.9 mb 0.00 in0.0 mm 0.00 in/hr0.0 mm/hr 0.00 in0.0 mm
12:28 AM 49.8°F9.9°C 48.2°F9.0°C 94% Calm Calm -- 29.88 in1011.9 mb 0.00 in0.0 mm 0.00 in/hr0.0 mm/hr 0.00 in0.0 mm
12:27 AM 49.8°F9.9°C 47.8°F8.8°C 93% Calm Calm -- 29.88 in1011.9 mb 0.00 in0.0 mm 0.00 in/hr0.0 mm/hr 0.00 in0.0 mm
12:26 AM 49.8°F9.9°C 47.8°F8.8°C 93% Calm Calm -- 29.88 in1011.9 mb 0.00 in0.0 mm 0.00 in/hr0.0 mm/hr 0.00 in0.0 mm
12:25 AM 49.8°F9.9°C 47.8°F8.8°C 93% Calm Calm -- 29.88 in1011.9 mb 0.00 in0.0 mm 0.00 in/hr0.0 mm/hr 0.00 in0.0 mm
12:24 AM 49.8°F9.9°C 47.8°F8.8°C 93% Calm Calm -- 29.88 in1011.9 mb 0.00 in0.0 mm 0.00 in/hr0.0 mm/hr 0.00 in0.0 mm
12:23 AM 49.8°F9.9°C 47.8°F8.8°C 93% Calm Calm -- 29.88 in1011.9 mb 0.00 in0.0 mm 0.00 in/hr0.0 mm/hr 0.00 in0.0 mm
12:22 AM 49.8°F9.9°C 47.8°F8.8°C 93% Calm Calm -- 29.88 in1011.9 mb 0.00 in0.0 mm 0.00 in/hr0.0 mm/hr 0.00 in0.0 mm
12:21 AM 49.8°F9.9°C 47.8°F8.8°C 93% Calm Calm -- 29.88 in1011.9 mb 0.00 in0.0 mm 0.00 in/hr0.0 mm/hr 0.00 in0.0 mm
12:20 AM 49.8°F9.9°C 47.8°F8.8°C 93% Calm Calm -- 29.88 in1011.9 mb 0.00 in0.0 mm 0.00 in/hr0.0 mm/hr 0.00 in0.0 mm
12:19 AM 49.8°F9.9°C 47.8°F8.8°C 93% Calm Calm -- 29.88 in1011.9 mb 0.00 in0.0 mm 0.00 in/hr0.0 mm/hr 0.00 in0.0 mm
12:18 AM 50.0°F10.0°C 48.0°F8.9°C 93% Calm Calm -- 29.88 in1011.9 mb 0.00 in0.0 mm 0.00 in/hr0.0 mm/hr 0.00 in0.0 mm
12:17 AM 50.0°F10.0°C 47.8°F8.8°C 92% Calm Calm -- 29.88 in1011.9 mb 0.00 in0.0 mm 0.00 in/hr0.0 mm/hr 0.00 in0.0 mm
12:16 AM 50.0°F10.0°C 47.8°F8.8°C 92% Calm Calm -- 29.88 in1011.9 mb 0.00 in0.0 mm 0.00 in/hr0.0 mm/hr 0.00 in0.0 mm
12:15 AM 50.2°F10.1°C 48.0°F8.9°C 92% Calm Calm -- 29.88 in1011.9 mb 0.00 in0.0 mm 0.00 in/hr0.0 mm/hr 0.00 in0.0 mm
12:14 AM 50.2°F10.1°C 48.2°F9.0°C 93% Calm Calm -- 29.88 in1011.9 mb 0.00 in0.0 mm 0.00 in/hr0.0 mm/hr 0.00 in0.0 mm
12:13 AM 50.2°F10.1°C 48.2°F9.0°C 93% Calm Calm -- 29.88 in1011.9 mb 0.00 in0.0 mm 0.00 in/hr0.0 mm/hr 0.00 in0.0 mm
12:12 AM 50.2°F10.1°C 48.2°F9.0°C 93% Calm Calm -- 29.88 in1011.9 mb 0.00 in0.0 mm 0.00 in/hr0.0 mm/hr 0.00 in0.0 mm
12:11 AM 50.2°F10.1°C 48.2°F9.0°C 93% Calm Calm -- 29.88 in1011.9 mb 0.00 in0.0 mm 0.00 in/hr0.0 mm/hr 0.00 in0.0 mm
12:10 AM 50.4°F10.2°C 48.4°F9.1°C 93% Calm Calm -- 29.88 in1011.9 mb 0.00 in0.0 mm 0.00 in/hr0.0 mm/hr 0.00 in0.0 mm
12:09 AM 50.4°F10.2°C 48.4°F9.1°C 93% Calm Calm -- 29.88 in1011.9 mb 0.00 in0.0 mm 0.00 in/hr0.0 mm/hr 0.00 in0.0 mm
12:08 AM 50.4°F10.2°C 48.2°F9.0°C 92% Calm Calm -- 29.88 in1011.9 mb 0.00 in0.0 mm 0.00 in/hr0.0 mm/hr 0.00 in0.0 mm
12:07 AM 50.4°F10.2°C 48.2°F9.0°C 92% Calm Calm -- 29.88 in1011.9 mb 0.00 in0.0 mm 0.00 in/hr0.0 mm/hr 0.00 in0.0 mm
12:06 AM 50.4°F10.2°C 48.4°F9.1°C 93% Calm Calm -- 29.88 in1011.9 mb 0.00 in0.0 mm 0.00 in/hr0.0 mm/hr 0.00 in0.0 mm
12:05 AM 50.4°F10.2°C 48.4°F9.1°C 93% Calm Calm -- 29.88 in1011.9 mb 0.00 in0.0 mm 0.00 in/hr0.0 mm/hr 0.00 in0.0 mm
12:04 AM 50.5°F10.3°C 48.6°F9.2°C 93% Calm Calm -- 29.88 in1011.9 mb 0.00 in0.0 mm 0.00 in/hr0.0 mm/hr 0.00 in0.0 mm
12:03 AM 50.5°F10.3°C 48.6°F9.2°C 93% Calm Calm -- 29.88 in1011.9 mb 0.00 in0.0 mm 0.00 in/hr0.0 mm/hr 0.00 in0.0 mm
12:02 AM 50.5°F10.3°C 48.6°F9.2°C 93% Calm Calm -- 29.88 in1011.9 mb 0.00 in0.0 mm 0.00 in/hr0.0 mm/hr 0.00 in0.0 mm
12:01 AM 50.4°F10.2°C 48.4°F9.1°C 93% Calm Calm -- 29.88 in1011.9 mb 0.00 in0.0 mm 0.00 in/hr0.0 mm/hr 0.00 in0.0 mm
12:00 AM 50.4°F10.2°C 48.4°F9.1°C 93% Calm Calm -- 29.89 in1012.2 mb 0.00 in0.0 mm 0.00 in/hr0.0 mm/hr 0.00 in0.0 mm
WeatherForYou.com, LLC is not responsible for any damages or problems caused by this service. Current weather conditions are obtained from the closest station including government and personal stations which may have varying degrees of accuracy. Weather forecasts are derived from the NOAA NDFD and obtained through HAMweather's Aeris Weather API. Like all things, this site belongs to Jesus Christ... He just trusts me to maintain it. If you have any questions or comments email webmaster@weatherforyou.com

Copyright © 2014, WeatherForYou.com LLC. All rights reserved.